Time,TemperatureF,DewpointF,PressureIn,WindDirection,WindDirectionDegrees,WindSpeedMPH,WindSpeedGustMPH,Humidity,HourlyPrecipIn,Conditions,Clouds,dailyrainin,SoftwareType,DateUTC
2013-02-13 00:00:00,34.4,23.5,30.07,ENE,67,0.0,1.0,64,0.00,,---,0.00,VWS V13.01,2013-02-13 07:00:00,
2013-02-13 00:01:00,34.4,24.2,30.07,ENE,67,0.0,0.0,66,0.00,,---,0.00,VWS V13.01,2013-02-13 07:01:00,
2013-02-13 00:02:00,34.4,24.2,30.07,ENE,67,0.0,0.0,66,0.00,,---,0.00,VWS V13.01,2013-02-13 07:02:00,
2013-02-13 00:03:00,34.4,24.2,30.07,ENE,67,0.0,0.0,66,0.00,,---,0.00,VWS V13.01,2013-02-13 07:03:00,
2013-02-13 00:04:00,34.3,23.8,30.07,ENE,67,0.0,0.0,65,0.00,,---,0.00,VWS V13.01,2013-02-13 07:04:00,
2013-02-13 00:05:00,34.3,23.8,30.07,ENE,67,0.0,1.0,65,0.00,,---,0.00,VWS V13.01,2013-02-13 07:05:00,
2013-02-13 00:06:00,34.3,23.4,30.07,NNE,27,0.0,1.0,64,0.00,,---,0.00,VWS V13.01,2013-02-13 07:06:00,
2013-02-13 00:07:00,34.3,23.4,30.07,NNE,17,0.0,2.0,64,0.00,,---,0.00,VWS V13.01,2013-02-13 07:07:00,
2013-02-13 00:08:00,34.3,23.4,30.07,NNE,17,0.0,2.0,64,0.00,,---,0.00,VWS V13.01,2013-02-13 07:08:00,
2013-02-13 00:09:00,34.3,23.8,30.07,East,96,0.0,3.0,65,0.00,,---,0.00,VWS V13.01,2013-02-13 07:09:00,
2013-02-13 00:10:00,34.3,23.8,30.07,East,96,0.0,3.0,65,0.00,,---,0.00,VWS V13.01,2013-02-13 07:10:00,
2013-02-13 00:11:00,34.3,22.3,30.07,East,101,0.0,1.0,61,0.00,,---,0.00,VWS V13.01,2013-02-13 07:11:00,
2013-02-13 00:12:00,34.3,22.3,30.07,East,101,0.0,1.0,61,0.00,,---,0.00,VWS V13.01,2013-02-13 07:12:00,
2013-02-13 00:13:00,34.4,22.7,30.07,East,101,0.0,1.0,62,0.00,,---,0.00,VWS V13.01,2013-02-13 07:13:00,
2013-02-13 00:14:00,34.4,23.5,30.08,East,101,0.0,1.0,64,0.00,,---,0.00,VWS V13.01,2013-02-13 07:14:00,
2013-02-13 00:15:00,34.4,23.5,30.08,East,101,0.0,1.0,64,0.00,,---,0.00,VWS V13.01,2013-02-13 07:15:00,
2013-02-13 00:16:00,34.4,23.9,30.08,East,101,0.0,0.0,65,0.00,,---,0.00,VWS V13.01,2013-02-13 07:16:00,
2013-02-13 00:17:00,34.4,23.9,30.08,East,101,0.0,1.0,65,0.00,,---,0.00,VWS V13.01,2013-02-13 07:17:00,
2013-02-13 00:18:00,34.4,24.2,30.08,East,101,0.0,1.0,66,0.00,,---,0.00,VWS V13.01,2013-02-13 07:18:00,
2013-02-13 00:19:00,34.4,23.5,30.08,East,101,0.0,1.0,64,0.00,,---,0.00,VWS V13.01,2013-02-13 07:19:00,
2013-02-13 00:20:00,34.4,23.5,30.08,East,101,0.0,1.0,64,0.00,,---,0.00,VWS V13.01,2013-02-13 07:20:00,
2013-02-13 00:21:00,34.4,23.5,30.08,East,101,0.0,2.0,64,0.00,,---,0.00,VWS V13.01,2013-02-13 07:21:00,
2013-02-13 00:22:00,34.4,23.5,30.08,East,101,0.0,2.0,64,0.00,,---,0.00,VWS V13.01,2013-02-13 07:22:00,
2013-02-13 00:23:00,34.4,23.5,30.08,East,101,0.0,2.0,64,0.00,,---,0.00,VWS V13.01,2013-02-13 07:23:00,
2013-02-13 00:24:00,34.4,23.5,30.08,NE,34,4.0,4.0,64,0.00,,---,0.00,VWS V13.01,2013-02-13 07:24:00,
2013-02-13 00:25:00,34.4,23.1,30.08,NE,42,0.0,5.0,63,0.00,,---,0.00,VWS V13.01,2013-02-13 07:25:00,
2013-02-13 00:26:00,34.4,22.7,30.08,NE,42,0.0,0.0,62,0.00,,---,0.00,VWS V13.01,2013-02-13 07:26:00,
2013-02-13 00:27:00,34.4,22.7,30.08,NE,42,0.0,0.0,62,0.00,,---,0.00,VWS V13.01,2013-02-13 07:27:00,
2013-02-13 00:28:00,34.4,23.5,30.08,NE,42,1.0,2.0,64,0.00,,---,0.00,VWS V13.01,2013-02-13 07:28:00,
2013-02-13 00:29:00,34.4,23.5,30.07,NE,42,0.0,2.0,64,0.00,,---,0.00,VWS V13.01,2013-02-13 07:29:00,
2013-02-13 00:30:00,34.4,23.9,30.07,North,10,2.0,3.0,65,0.00,,---,0.00,VWS V13.01,2013-02-13 07:30:00,
2013-02-13 00:31:00,34.4,23.5,30.07,NNW,346,1.0,5.0,64,0.00,,---,0.00,VWS V13.01,2013-02-13 07:31:00,
2013-02-13 00:32:00,34.6,22.2,30.07,NNW,346,0.0,5.0,60,0.00,,---,0.00,VWS V13.01,2013-02-13 07:32:00,
2013-02-13 00:33:00,34.6,21.8,30.07,NNW,346,0.0,5.0,59,0.00,,---,0.00,VWS V13.01,2013-02-13 07:33:00,
2013-02-13 00:34:00,34.7,22.2,30.07,NNW,343,0.0,5.0,60,0.00,,---,0.00,VWS V13.01,2013-02-13 07:34:00,
2013-02-13 00:35:00,34.7,22.6,30.07,NE,40,1.0,5.0,61,0.00,,---,0.00,VWS V13.01,2013-02-13 07:35:00,
2013-02-13 00:36:00,34.7,23.4,30.07,NE,50,3.0,3.0,63,0.00,,---,0.00,VWS V13.01,2013-02-13 07:36:00,
2013-02-13 00:37:00,34.9,23.2,30.07,NNW,338,0.0,4.0,62,0.00,,---,0.00,VWS V13.01,2013-02-13 07:37:00,
2013-02-13 00:38:00,34.9,23.2,30.07,NNW,328,8.0,9.0,62,0.00,,---,0.00,VWS V13.01,2013-02-13 07:38:00,
2013-02-13 00:39:00,34.9,22.4,30.07,NE,47,2.0,9.0,60,0.00,,---,0.00,VWS V13.01,2013-02-13 07:39:00,
2013-02-13 00:40:00,34.9,22.4,30.07,NNW,346,2.0,9.0,60,0.00,,---,0.00,VWS V13.01,2013-02-13 07:40:00,
2013-02-13 00:41:00,35.0,22.9,30.07,North,355,0.0,2.0,61,0.00,,---,0.00,VWS V13.01,2013-02-13 07:41:00,
2013-02-13 00:42:00,35.0,23.3,30.07,NNW,329,2.0,4.0,62,0.00,,---,0.00,VWS V13.01,2013-02-13 07:42:00,
2013-02-13 00:43:00,35.0,22.1,30.07,SW,219,0.0,4.0,59,0.00,,---,0.00,VWS V13.01,2013-02-13 07:43:00,
2013-02-13 00:44:00,35.2,23.5,30.05,North,350,1.0,5.0,62,0.00,,---,0.00,VWS V13.01,2013-02-13 07:44:00,
2013-02-13 00:45:00,35.2,23.5,30.05,North,350,1.0,5.0,62,0.00,,---,0.00,VWS V13.01,2013-02-13 07:45:00,
2013-02-13 00:46:00,35.2,23.1,30.05,North,350,0.0,1.0,61,0.00,,---,0.00,VWS V13.01,2013-02-13 07:46:00,
2013-02-13 00:47:00,35.2,23.5,30.05,North,350,0.0,1.0,62,0.00,,---,0.00,VWS V13.01,2013-02-13 07:47:00,
2013-02-13 00:48:00,35.2,22.7,30.05,NNW,329,0.0,6.0,60,0.00,,---,0.00,VWS V13.01,2013-02-13 07:48:00,
2013-02-13 00:49:00,35.2,22.7,30.05,NNW,340,1.0,6.0,60,0.00,,---,0.00,VWS V13.01,2013-02-13 07:49:00,
2013-02-13 00:50:00,35.2,23.5,30.05,NNW,340,0.0,6.0,62,0.00,,---,0.00,VWS V13.01,2013-02-13 07:50:00,
2013-02-13 00:51:00,35.2,23.5,30.05,NNE,24,1.0,5.0,62,0.00,,---,0.00,VWS V13.01,2013-02-13 07:51:00,
2013-02-13 00:52:00,35.2,23.1,30.05,NNE,24,0.0,5.0,61,0.00,,---,0.00,VWS V13.01,2013-02-13 07:52:00,
2013-02-13 00:53:00,35.2,23.1,30.05,ENE,59,2.0,5.0,61,0.00,,---,0.00,VWS V13.01,2013-02-13 07:53:00,
2013-02-13 00:54:00,35.2,23.9,30.05,ENE,65,1.0,5.0,63,0.00,,---,0.00,VWS V13.01,2013-02-13 07:54:00,
2013-02-13 00:55:00,35.2,23.5,30.05,NW,309,4.0,6.0,62,0.00,,---,0.00,VWS V13.01,2013-02-13 07:55:00,
2013-02-13 00:56:00,35.2,22.7,30.05,NE,42,3.0,4.0,60,0.00,,---,0.00,VWS V13.01,2013-02-13 07:56:00,
2013-02-13 00:57:00,35.2,23.5,30.05,NW,324,5.0,5.0,62,0.00,,---,0.00,VWS V13.01,2013-02-13 07:57:00,
2013-02-13 00:58:00,35.2,22.7,30.05,North,355,2.0,5.0,60,0.00,,---,0.00,VWS V13.01,2013-02-13 07:58:00,
2013-02-13 00:59:00,35.2,23.5,30.05,NE,34,1.0,5.0,62,0.00,,---,0.00,VWS V13.01,2013-02-13 07:59:00,
2013-02-13 01:00:00,35.2,23.9,30.02,NNE,32,0.0,5.0,63,0.00,,---,0.00,VWS V13.01,2013-02-13 08:00:00,
2013-02-13 01:01:00,35.2,24.3,30.02,NNW,337,5.0,9.0,64,0.00,,---,0.00,VWS V13.01,2013-02-13 08:01:00,
2013-02-13 01:02:00,35.2,23.1,30.02,North,5,0.0,9.0,61,0.00,,---,0.00,VWS V13.01,2013-02-13 08:02:00,
2013-02-13 01:03:00,35.2,23.1,30.02,NE,54,2.0,11.0,61,0.00,,---,0.00,VWS V13.01,2013-02-13 08:03:00,
2013-02-13 01:04:00,35.2,23.1,30.02,NNE,16,2.0,11.0,61,0.00,,---,0.00,VWS V13.01,2013-02-13 08:04:00,
2013-02-13 01:05:00,35.2,23.5,30.02,East,83,4.0,11.0,62,0.00,,---,0.00,VWS V13.01,2013-02-13 08:05:00,
2013-02-13 01:06:00,35.2,23.5,30.02,East,82,3.0,7.0,62,0.00,,---,0.00,VWS V13.01,2013-02-13 08:06:00,
2013-02-13 01:07:00,35.2,23.5,30.02,East,90,3.0,7.0,62,0.00,,---,0.00,VWS V13.01,2013-02-13 08:07:00,
2013-02-13 01:08:00,35.2,23.1,30.02,NE,54,1.0,11.0,61,0.00,,---,0.00,VWS V13.01,2013-02-13 08:08:00,
2013-02-13 01:09:00,35.2,23.1,30.02,NNW,339,0.0,11.0,61,0.00,,---,0.00,VWS V13.01,2013-02-13 08:09:00,
2013-02-13 01:10:00,35.2,23.5,30.02,ESE,122,2.0,11.0,62,0.00,,---,0.00,VWS V13.01,2013-02-13 08:10:00,
2013-02-13 01:11:00,35.2,22.3,30.02,NW,313,2.0,2.0,59,0.00,,---,0.00,VWS V13.01,2013-02-13 08:11:00,
2013-02-13 01:12:00,35.3,22.8,30.02,NE,51,4.0,5.0,60,0.00,,---,0.00,VWS V13.01,2013-02-13 08:12:00,
2013-02-13 01:13:00,35.3,23.6,30.02,ESE,103,2.0,7.0,62,0.00,,---,0.00,VWS V13.01,2013-02-13 08:13:00,
2013-02-13 01:14:00,35.3,23.6,30.05,North,11,0.0,7.0,62,0.00,,---,0.00,VWS V13.01,2013-02-13 08:14:00,
2013-02-13 01:15:00,35.3,23.6,30.05,North,11,0.0,7.0,62,0.00,,---,0.00,VWS V13.01,2013-02-13 08:15:00,
2013-02-13 01:16:00,35.3,23.6,30.05,NNE,15,1.0,2.0,62,0.00,,---,0.00,VWS V13.01,2013-02-13 08:16:00,
2013-02-13 01:17:00,35.5,23.8,30.05,ENE,75,1.0,3.0,62,0.00,,---,0.00,VWS V13.01,2013-02-13 08:17:00,
2013-02-13 01:18:00,35.5,23.8,30.05,ENE,65,1.0,3.0,62,0.00,,---,0.00,VWS V13.01,2013-02-13 08:18:00,
2013-02-13 01:19:00,35.5,23.0,30.05,NNW,342,0.0,3.0,60,0.00,,---,0.00,VWS V13.01,2013-02-13 08:19:00,
2013-02-13 01:20:00,35.5,23.0,30.05,NNW,342,0.0,3.0,60,0.00,,---,0.00,VWS V13.01,2013-02-13 08:20:00,
2013-02-13 01:21:00,35.5,22.6,30.05,North,9,1.0,1.0,59,0.00,,---,0.00,VWS V13.01,2013-02-13 08:21:00,
2013-02-13 01:22:00,35.5,23.4,30.05,NE,34,4.0,4.0,61,0.00,,---,0.00,VWS V13.01,2013-02-13 08:22:00,
2013-02-13 01:23:00,35.5,23.8,30.05,ENE,59,0.0,4.0,62,0.00,,---,0.00,VWS V13.01,2013-02-13 08:23:00,
2013-02-13 01:24:00,35.5,23.8,30.05,East,82,1.0,4.0,62,0.00,,---,0.00,VWS V13.01,2013-02-13 08:24:00,
2013-02-13 01:25:00,35.5,24.2,30.05,East,82,0.0,4.0,63,0.00,,---,0.00,VWS V13.01,2013-02-13 08:25:00,
2013-02-13 01:26:00,35.5,24.5,30.05,ENE,76,1.0,1.0,64,0.00,,---,0.00,VWS V13.01,2013-02-13 08:26:00,
2013-02-13 01:27:00,35.5,23.0,30.05,ENE,62,0.0,3.0,60,0.00,,---,0.00,VWS V13.01,2013-02-13 08:27:00,
2013-02-13 01:28:00,35.5,23.0,30.05,ENE,59,1.0,3.0,60,0.00,,---,0.00,VWS V13.01,2013-02-13 08:28:00,
2013-02-13 01:29:00,35.5,24.2,30.05,ENE,60,0.0,3.0,63,0.00,,---,0.00,VWS V13.01,2013-02-13 08:29:00,
2013-02-13 01:30:00,35.5,24.5,30.05,ENE,60,0.0,3.0,64,0.00,,---,0.00,VWS V13.01,2013-02-13 08:30:00,
2013-02-13 01:31:00,35.5,24.5,30.05,ENE,65,2.0,2.0,64,0.00,,---,0.00,VWS V13.01,2013-02-13 08:31:00,
2013-02-13 01:32:00,35.5,23.4,30.05,NE,51,0.0,5.0,61,0.00,,---,0.00,VWS V13.01,2013-02-13 08:32:00,
2013-02-13 01:33:00,35.5,23.8,30.05,NE,51,0.0,5.0,62,0.00,,---,0.00,VWS V13.01,2013-02-13 08:33:00,
2013-02-13 01:34:00,35.3,24.4,30.05,NE,51,0.0,5.0,64,0.00,,---,0.00,VWS V13.01,2013-02-13 08:34:00,
2013-02-13 01:35:00,35.3,23.6,30.05,NNW,336,5.0,5.0,62,0.00,,---,0.00,VWS V13.01,2013-02-13 08:35:00,
2013-02-13 01:36:00,35.3,23.6,30.05,NNW,335,2.0,5.0,62,0.00,,---,0.00,VWS V13.01,2013-02-13 08:36:00,
2013-02-13 01:37:00,35.3,22.8,30.05,NW,321,0.0,5.0,60,0.00,,---,0.00,VWS V13.01,2013-02-13 08:37:00,
2013-02-13 01:38:00,35.3,22.4,30.05,East,88,0.0,5.0,59,0.00,,---,0.00,VWS V13.01,2013-02-13 08:38:00,
2013-02-13 01:39:00,35.5,23.0,30.05,WNW,286,1.0,5.0,60,0.00,,---,0.00,VWS V13.01,2013-02-13 08:39:00,
2013-02-13 01:40:00,35.5,23.0,30.05,WNW,284,0.0,5.0,60,0.00,,---,0.00,VWS V13.01,2013-02-13 08:40:00,
2013-02-13 01:41:00,35.5,23.4,30.05,ENE,68,5.0,5.0,61,0.00,,---,0.00,VWS V13.01,2013-02-13 08:41:00,
2013-02-13 01:42:00,35.5,24.2,30.05,SW,225,0.0,5.0,63,0.00,,---,0.00,VWS V13.01,2013-02-13 08:42:00,
2013-02-13 01:43:00,35.6,22.7,30.05,WNW,292,2.0,12.0,59,0.00,,---,0.00,VWS V13.01,2013-02-13 08:43:00,
2013-02-13 01:44:00,35.6,22.7,30.05,NE,50,4.0,12.0,59,0.00,,---,0.00,VWS V13.01,2013-02-13 08:44:00,
2013-02-13 01:45:00,35.6,23.1,30.05,ENE,65,3.0,12.0,60,0.00,,---,0.00,VWS V13.01,2013-02-13 08:45:00,
2013-02-13 01:46:00,35.8,23.3,30.05,NE,37,3.0,4.0,60,0.00,,---,0.00,VWS V13.01,2013-02-13 08:46:00,
2013-02-13 01:47:00,35.8,23.3,30.05,NW,322,0.0,4.0,60,0.00,,---,0.00,VWS V13.01,2013-02-13 08:47:00,
2013-02-13 01:48:00,35.8,22.9,30.05,NE,49,0.0,4.0,59,0.00,,---,0.00,VWS V13.01,2013-02-13 08:48:00,
2013-02-13 01:49:00,35.9,23.0,30.05,NNW,340,1.0,4.0,59,0.00,,---,0.00,VWS V13.01,2013-02-13 08:49:00,
2013-02-13 01:50:00,35.9,23.0,30.05,East,97,0.0,4.0,59,0.00,,---,0.00,VWS V13.01,2013-02-13 08:50:00,
2013-02-13 01:51:00,35.9,23.4,30.05,NE,53,0.0,2.0,60,0.00,,---,0.00,VWS V13.01,2013-02-13 08:51:00,
2013-02-13 01:52:00,35.9,23.0,30.05,NE,53,1.0,2.0,59,0.00,,---,0.00,VWS V13.01,2013-02-13 08:52:00,
2013-02-13 01:53:00,35.9,23.4,30.05,NE,53,0.0,2.0,60,0.00,,---,0.00,VWS V13.01,2013-02-13 08:53:00,
2013-02-13 01:54:00,35.9,23.8,30.05,ENE,71,2.0,3.0,61,0.00,,---,0.00,VWS V13.01,2013-02-13 08:54:00,
2013-02-13 01:55:00,35.9,23.8,30.05,ENE,71,0.0,3.0,61,0.00,,---,0.00,VWS V13.01,2013-02-13 08:55:00,
2013-02-13 01:56:00,35.9,23.0,30.05,ENE,71,0.0,0.0,59,0.00,,---,0.00,VWS V13.01,2013-02-13 08:56:00,
2013-02-13 01:57:00,36.0,23.5,30.05,ENE,71,1.0,1.0,60,0.00,,---,0.00,VWS V13.01,2013-02-13 08:57:00,
2013-02-13 01:58:00,36.0,23.9,30.05,ENE,71,0.0,2.0,61,0.00,,---,0.00,VWS V13.01,2013-02-13 08:58:00,
2013-02-13 01:59:00,35.9,23.4,30.05,NNW,327,1.0,2.0,60,0.00,,---,0.00,VWS V13.01,2013-02-13 08:59:00,
2013-02-13 02:00:00,35.9,22.6,30.04,NNW,333,0.0,2.0,58,0.00,,---,0.00,VWS V13.01,2013-02-13 09:00:00,
2013-02-13 02:01:00,35.9,23.8,30.04,NNE,15,2.0,3.0,61,0.00,,---,0.00,VWS V13.01,2013-02-13 09:01:00,
2013-02-13 02:02:00,35.9,23.4,30.04,NNE,32,0.0,3.0,60,0.00,,---,0.00,VWS V13.01,2013-02-13 09:02:00,
2013-02-13 02:03:00,35.9,23.4,30.04,NNW,344,0.0,3.0,60,0.00,,---,0.00,VWS V13.01,2013-02-13 09:03:00,
2013-02-13 02:04:00,35.9,23.4,30.04,NE,51,0.0,3.0,60,0.00,,---,0.00,VWS V13.01,2013-02-13 09:04:00,
2013-02-13 02:05:00,35.9,23.4,30.04,NE,51,0.0,3.0,60,0.00,,---,0.00,VWS V13.01,2013-02-13 09:05:00,
2013-02-13 02:06:00,35.9,23.4,30.04,WNW,303,0.0,2.0,60,0.00,,---,0.00,VWS V13.01,2013-02-13 09:06:00,
2013-02-13 02:07:00,35.9,22.6,30.04,NW,320,0.0,2.0,58,0.00,,---,0.00,VWS V13.01,2013-02-13 09:07:00,
2013-02-13 02:08:00,35.9,22.6,30.04,NW,320,1.0,2.0,58,0.00,,---,0.00,VWS V13.01,2013-02-13 09:08:00,
2013-02-13 02:09:00,35.9,23.0,30.04,NW,320,0.0,2.0,59,0.00,,---,0.00,VWS V13.01,2013-02-13 09:09:00,
2013-02-13 02:10:00,35.9,23.8,30.04,NW,320,0.0,2.0,61,0.00,,---,0.00,VWS V13.01,2013-02-13 09:10:00,
2013-02-13 02:11:00,35.9,24.9,30.04,NW,320,0.0,0.0,64,0.00,,---,0.00,VWS V13.01,2013-02-13 09:11:00,
2013-02-13 02:12:00,35.9,24.5,30.04,NW,321,0.0,0.0,63,0.00,,---,0.00,VWS V13.01,2013-02-13 09:12:00,
2013-02-13 02:13:00,35.9,24.9,30.04,NW,321,0.0,0.0,64,0.00,,---,0.00,VWS V13.01,2013-02-13 09:13:00,
2013-02-13 02:14:00,35.8,24.1,30.03,NW,321,0.0,0.0,62,0.00,,---,0.00,VWS V13.01,2013-02-13 09:14:00,
2013-02-13 02:15:00,35.8,23.3,30.03,East,87,3.0,3.0,60,0.00,,---,0.00,VWS V13.01,2013-02-13 09:15:00,
2013-02-13 02:16:00,35.8,23.3,30.03,NNE,30,1.0,3.0,60,0.00,,---,0.00,VWS V13.01,2013-02-13 09:16:00,
2013-02-13 02:17:00,35.8,23.7,30.03,ENE,74,0.0,3.0,61,0.00,,---,0.00,VWS V13.01,2013-02-13 09:17:00,
2013-02-13 02:18:00,35.8,22.9,30.03,ENE,74,0.0,3.0,59,0.00,,---,0.00,VWS V13.01,2013-02-13 09:18:00,
2013-02-13 02:19:00,35.8,22.9,30.03,ENE,58,1.0,3.0,59,0.00,,---,0.00,VWS V13.01,2013-02-13 09:19:00,
2013-02-13 02:20:00,35.8,22.9,30.03,ENE,58,0.0,3.0,59,0.00,,---,0.00,VWS V13.01,2013-02-13 09:20:00,
2013-02-13 02:21:00,35.8,23.3,30.03,ENE,59,2.0,4.0,60,0.00,,---,0.00,VWS V13.01,2013-02-13 09:21:00,
2013-02-13 02:22:00,35.8,22.9,30.03,NNE,22,4.0,5.0,59,0.00,,---,0.00,VWS V13.01,2013-02-13 09:22:00,
2013-02-13 02:23:00,35.8,23.3,30.03,NNW,341,2.0,7.0,60,0.00,,---,0.00,VWS V13.01,2013-02-13 09:23:00,
2013-02-13 02:24:00,35.8,22.9,30.03,WNW,297,2.0,7.0,59,0.00,,---,0.00,VWS V13.01,2013-02-13 09:24:00,
2013-02-13 02:25:00,35.8,22.9,30.03,NNW,327,4.0,7.0,59,0.00,,---,0.00,VWS V13.01,2013-02-13 09:25:00,
2013-02-13 02:26:00,35.9,23.0,30.03,NW,321,1.0,4.0,59,0.00,,---,0.00,VWS V13.01,2013-02-13 09:26:00,
2013-02-13 02:27:00,35.9,22.6,30.03,WNW,288,0.0,4.0,58,0.00,,---,0.00,VWS V13.01,2013-02-13 09:27:00,
2013-02-13 02:28:00,35.9,22.6,30.03,NNE,16,0.0,4.0,58,0.00,,---,0.00,VWS V13.01,2013-02-13 09:28:00,
2013-02-13 02:29:00,35.9,23.0,30.02,NNE,19,3.0,5.0,59,0.00,,---,0.00,VWS V13.01,2013-02-13 09:29:00,
2013-02-13 02:30:00,35.9,23.4,30.02,NNE,15,1.0,5.0,60,0.00,,---,0.00,VWS V13.01,2013-02-13 09:30:00,
2013-02-13 02:31:00,35.9,23.0,30.02,East,88,3.0,3.0,59,0.00,,---,0.00,VWS V13.01,2013-02-13 09:31:00,
2013-02-13 02:32:00,35.9,23.8,30.02,NE,44,2.0,3.0,61,0.00,,---,0.00,VWS V13.01,2013-02-13 09:32:00,
2013-02-13 02:33:00,35.9,23.4,30.02,ENE,71,0.0,7.0,60,0.00,,---,0.00,VWS V13.01,2013-02-13 09:33:00,
2013-02-13 02:34:00,35.9,23.0,30.02,NNE,18,3.0,7.0,59,0.00,,---,0.00,VWS V13.01,2013-02-13 09:34:00,
2013-02-13 02:35:00,35.9,23.8,30.02,NW,314,6.0,7.0,61,0.00,,---,0.00,VWS V13.01,2013-02-13 09:35:00,
2013-02-13 02:36:00,35.9,23.4,30.02,North,355,6.0,16.0,60,0.00,,---,0.00,VWS V13.01,2013-02-13 09:36:00,
2013-02-13 02:37:00,35.9,22.2,30.02,WNW,294,3.0,16.0,57,0.00,,---,0.00,VWS V13.01,2013-02-13 09:37:00,
2013-02-13 02:38:00,35.9,22.2,30.02,NE,34,1.0,16.0,57,0.00,,---,0.00,VWS V13.01,2013-02-13 09:38:00,
2013-02-13 02:39:00,36.0,23.1,30.02,NE,38,1.0,16.0,59,0.00,,---,0.00,VWS V13.01,2013-02-13 09:39:00,
2013-02-13 02:40:00,36.0,23.5,30.02,NNE,16,1.0,16.0,60,0.00,,---,0.00,VWS V13.01,2013-02-13 09:40:00,
2013-02-13 02:41:00,36.0,22.3,30.02,NW,320,2.0,6.0,57,0.00,,---,0.00,VWS V13.01,2013-02-13 09:41:00,
2013-02-13 02:42:00,36.0,22.7,30.02,North,350,2.0,6.0,58,0.00,,---,0.00,VWS V13.01,2013-02-13 09:42:00,
2013-02-13 02:43:00,36.2,23.3,30.02,NNW,341,0.0,6.0,59,0.00,,---,0.00,VWS V13.01,2013-02-13 09:43:00,
2013-02-13 02:44:00,36.2,22.0,30.02,West,269,2.0,6.0,56,0.00,,---,0.00,VWS V13.01,2013-02-13 09:44:00,
2013-02-13 02:45:00,36.2,22.0,30.02,East,84,3.0,6.0,56,0.00,,---,0.00,VWS V13.01,2013-02-13 09:45:00,
2013-02-13 02:46:00,36.2,22.5,30.02,NE,49,3.0,5.0,57,0.00,,---,0.00,VWS V13.01,2013-02-13 09:46:00,
2013-02-13 02:47:00,36.2,23.3,30.02,North,355,4.0,5.0,59,0.00,,---,0.00,VWS V13.01,2013-02-13 09:47:00,
2013-02-13 02:48:00,36.2,22.9,30.02,North,360,5.0,6.0,58,0.00,,---,0.00,VWS V13.01,2013-02-13 09:48:00,
2013-02-13 02:49:00,36.2,22.9,30.02,West,267,0.0,6.0,58,0.00,,---,0.00,VWS V13.01,2013-02-13 09:49:00,
2013-02-13 02:50:00,36.2,22.9,30.02,NW,318,0.0,6.0,58,0.00,,---,0.00,VWS V13.01,2013-02-13 09:50:00,
2013-02-13 02:51:00,36.2,23.3,30.02,NE,37,1.0,3.0,59,0.00,,---,0.00,VWS V13.01,2013-02-13 09:51:00,
2013-02-13 02:52:00,36.2,23.3,30.02,ENE,61,3.0,5.0,59,0.00,,---,0.00,VWS V13.01,2013-02-13 09:52:00,
2013-02-13 02:53:00,36.2,23.3,30.02,ENE,65,3.0,5.0,59,0.00,,---,0.00,VWS V13.01,2013-02-13 09:53:00,
2013-02-13 02:54:00,36.0,23.1,30.02,NE,52,4.0,5.0,59,0.00,,---,0.00,VWS V13.01,2013-02-13 09:54:00,
2013-02-13 02:55:00,36.0,23.1,30.02,NNE,14,3.0,5.0,59,0.00,,---,0.00,VWS V13.01,2013-02-13 09:55:00,
2013-02-13 02:56:00,36.0,23.1,30.02,NNE,30,0.0,4.0,59,0.00,,---,0.00,VWS V13.01,2013-02-13 09:56:00,
2013-02-13 02:57:00,36.0,23.5,30.02,West,264,3.0,6.0,60,0.00,,---,0.00,VWS V13.01,2013-02-13 09:57:00,
2013-02-13 02:58:00,35.9,22.6,30.02,West,265,0.0,6.0,58,0.00,,---,0.00,VWS V13.01,2013-02-13 09:58:00,
2013-02-13 02:59:00,35.9,22.6,30.00,North,5,4.0,6.0,58,0.00,,---,0.00,VWS V13.01,2013-02-13 09:59:00,
2013-02-13 03:00:00,35.9,22.6,30.00,East,98,2.0,6.0,58,0.00,,---,0.00,VWS V13.01,2013-02-13 10:00:00,
2013-02-13 03:01:00,35.9,22.2,30.00,West,281,3.0,6.0,57,0.00,,---,0.00,VWS V13.01,2013-02-13 10:01:00,
2013-02-13 03:02:00,35.9,22.6,30.00,NNE,30,2.0,6.0,58,0.00,,---,0.00,VWS V13.01,2013-02-13 10:02:00,
2013-02-13 03:03:00,35.9,23.0,30.00,NE,49,0.0,6.0,59,0.00,,---,0.00,VWS V13.01,2013-02-13 10:03:00,
2013-02-13 03:04:00,35.9,23.4,30.00,East,81,5.0,6.0,60,0.00,,---,0.00,VWS V13.01,2013-02-13 10:04:00,
2013-02-13 03:05:00,35.9,23.4,30.00,NW,311,0.0,6.0,60,0.00,,---,0.00,VWS V13.01,2013-02-13 10:05:00,
2013-02-13 03:06:00,35.9,23.0,30.00,NNW,342,0.0,1.0,59,0.00,,---,0.00,VWS V13.01,2013-02-13 10:06:00,
2013-02-13 03:07:00,35.8,22.9,30.00,NNW,342,0.0,1.0,59,0.00,,---,0.00,VWS V13.01,2013-02-13 10:07:00,
2013-02-13 03:08:00,35.8,22.9,30.00,NNE,17,3.0,11.0,59,0.00,,---,0.00,VWS V13.01,2013-02-13 10:08:00,
2013-02-13 03:09:00,35.8,22.5,30.00,NE,55,3.0,11.0,58,0.00,,---,0.00,VWS V13.01,2013-02-13 10:09:00,
2013-02-13 03:10:00,35.8,22.9,30.00,North,350,3.0,11.0,59,0.00,,---,0.00,VWS V13.01,2013-02-13 10:10:00,
2013-02-13 03:11:00,35.8,22.9,30.00,NNE,22,0.0,3.0,59,0.00,,---,0.00,VWS V13.01,2013-02-13 10:11:00,
2013-02-13 03:12:00,35.8,22.9,30.00,NNE,22,1.0,3.0,59,0.00,,---,0.00,VWS V13.01,2013-02-13 10:12:00,
2013-02-13 03:13:00,35.6,23.1,30.00,NNE,22,1.0,3.0,60,0.00,,---,0.00,VWS V13.01,2013-02-13 10:13:00,
2013-02-13 03:14:00,35.6,23.5,30.00,NE,47,2.0,3.0,61,0.00,,---,0.00,VWS V13.01,2013-02-13 10:14:00,
2013-02-13 03:15:00,35.6,23.5,30.00,NE,47,0.0,3.0,61,0.00,,---,0.00,VWS V13.01,2013-02-13 10:15:00,
2013-02-13 03:16:00,35.6,23.1,30.00,NNW,346,3.0,4.0,60,0.00,,---,0.00,VWS V13.01,2013-02-13 10:16:00,
2013-02-13 03:17:00,35.5,22.6,30.00,West,279,0.0,4.0,59,0.00,,---,0.00,VWS V13.01,2013-02-13 10:17:00,
2013-02-13 03:18:00,35.5,22.6,30.00,NNE,19,2.0,4.0,59,0.00,,---,0.00,VWS V13.01,2013-02-13 10:18:00,
2013-02-13 03:19:00,35.5,23.0,30.00,North,360,0.0,4.0,60,0.00,,---,0.00,VWS V13.01,2013-02-13 10:19:00,
2013-02-13 03:20:00,35.5,22.6,30.00,North,360,1.0,4.0,59,0.00,,---,0.00,VWS V13.01,2013-02-13 10:20:00,
2013-02-13 03:21:00,35.5,23.0,30.00,North,360,0.0,2.0,60,0.00,,---,0.00,VWS V13.01,2013-02-13 10:21:00,
2013-02-13 03:22:00,35.5,23.0,30.00,North,360,2.0,2.0,60,0.00,,---,0.00,VWS V13.01,2013-02-13 10:22:00,
2013-02-13 03:23:00,35.5,23.0,30.00,North,360,0.0,2.0,60,0.00,,---,0.00,VWS V13.01,2013-02-13 10:23:00,
2013-02-13 03:24:00,35.5,23.0,30.00,North,360,0.0,2.0,60,0.00,,---,0.00,VWS V13.01,2013-02-13 10:24:00,
2013-02-13 03:25:00,35.5,23.0,30.00,North,360,1.0,2.0,60,0.00,,---,0.00,VWS V13.01,2013-02-13 10:25:00,
2013-02-13 03:26:00,35.5,23.4,30.00,North,360,0.0,3.0,61,0.00,,---,0.00,VWS V13.01,2013-02-13 10:26:00,
2013-02-13 03:27:00,35.5,23.8,30.00,North,360,0.0,3.0,62,0.00,,---,0.00,VWS V13.01,2013-02-13 10:27:00,
2013-02-13 03:28:00,35.5,23.4,30.00,North,360,0.0,3.0,61,0.00,,---,0.00,VWS V13.01,2013-02-13 10:28:00,
2013-02-13 03:29:00,35.5,23.4,30.02,North,360,0.0,3.0,61,0.00,,---,0.00,VWS V13.01,2013-02-13 10:29:00,
2013-02-13 03:30:00,35.5,23.4,30.02,North,360,0.0,3.0,61,0.00,,---,0.00,VWS V13.01,2013-02-13 10:30:00,
2013-02-13 03:31:00,35.5,23.8,30.02,North,360,0.0,1.0,62,0.00,,---,0.00,VWS V13.01,2013-02-13 10:31:00,
2013-02-13 03:32:00,35.5,23.4,30.02,North,360,0.0,1.0,61,0.00,,---,0.00,VWS V13.01,2013-02-13 10:32:00,
2013-02-13 03:33:00,35.5,23.4,30.02,NNE,19,2.0,6.0,61,0.00,,---,0.00,VWS V13.01,2013-02-13 10:33:00,
2013-02-13 03:34:00,35.3,22.8,30.02,NNE,19,4.0,6.0,60,0.00,,---,0.00,VWS V13.01,2013-02-13 10:34:00,
2013-02-13 03:35:00,35.3,22.8,30.02,North,355,2.0,6.0,60,0.00,,---,0.00,VWS V13.01,2013-02-13 10:35:00,
2013-02-13 03:36:00,35.5,23.4,30.02,NNW,344,6.0,6.0,61,0.00,,---,0.00,VWS V13.01,2013-02-13 10:36:00,
2013-02-13 03:37:00,35.5,23.0,30.02,NW,319,0.0,6.0,60,0.00,,---,0.00,VWS V13.01,2013-02-13 10:37:00,
2013-02-13 03:38:00,35.5,22.6,30.02,East,92,5.0,6.0,59,0.00,,---,0.00,VWS V13.01,2013-02-13 10:38:00,
2013-02-13 03:39:00,35.5,21.4,30.02,North,360,4.0,6.0,56,0.00,,---,0.00,VWS V13.01,2013-02-13 10:39:00,
2013-02-13 03:40:00,35.5,23.0,30.02,NNW,345,1.0,6.0,60,0.00,,---,0.00,VWS V13.01,2013-02-13 10:40:00,
2013-02-13 03:41:00,35.6,22.7,30.02,NNW,333,4.0,6.0,59,0.00,,---,0.00,VWS V13.01,2013-02-13 10:41:00,
2013-02-13 03:42:00,35.6,22.7,30.02,NE,46,0.0,6.0,59,0.00,,---,0.00,VWS V13.01,2013-02-13 10:42:00,
2013-02-13 03:43:00,35.6,22.7,30.02,ENE,65,2.0,6.0,59,0.00,,---,0.00,VWS V13.01,2013-02-13 10:43:00,
2013-02-13 03:44:00,35.8,22.9,30.00,East,96,4.0,6.0,59,0.00,,---,0.00,VWS V13.01,2013-02-13 10:44:00,
2013-02-13 03:45:00,35.8,22.9,30.00,East,88,0.0,6.0,59,0.00,,---,0.00,VWS V13.01,2013-02-13 10:45:00,
2013-02-13 03:46:00,35.9,22.6,30.00,East,80,0.0,2.0,58,0.00,,---,0.00,VWS V13.01,2013-02-13 10:46:00,
2013-02-13 03:47:00,35.9,22.6,30.00,WNW,301,2.0,5.0,58,0.00,,---,0.00,VWS V13.01,2013-02-13 10:47:00,
2013-02-13 03:48:00,35.9,22.6,30.00,NNW,333,1.0,5.0,58,0.00,,---,0.00,VWS V13.01,2013-02-13 10:48:00,
2013-02-13 03:49:00,36.0,22.7,30.00,NNE,14,4.0,5.0,58,0.00,,---,0.00,VWS V13.01,2013-02-13 10:49:00,
2013-02-13 03:50:00,36.0,22.7,30.00,North,360,0.0,5.0,58,0.00,,---,0.00,VWS V13.01,2013-02-13 10:50:00,
2013-02-13 03:51:00,36.0,22.7,30.00,NNE,25,2.0,6.0,58,0.00,,---,0.00,VWS V13.01,2013-02-13 10:51:00,
2013-02-13 03:52:00,36.2,22.9,30.00,East,95,6.0,6.0,58,0.00,,---,0.00,VWS V13.01,2013-02-13 10:52:00,
2013-02-13 03:53:00,36.2,23.3,30.00,ESE,114,0.0,7.0,59,0.00,,---,0.00,VWS V13.01,2013-02-13 10:53:00,
2013-02-13 03:54:00,36.2,23.3,30.00,NE,36,2.0,7.0,59,0.00,,---,0.00,VWS V13.01,2013-02-13 10:54:00,
2013-02-13 03:55:00,36.2,23.3,30.00,NE,52,2.0,7.0,59,0.00,,---,0.00,VWS V13.01,2013-02-13 10:55:00,
2013-02-13 03:56:00,36.2,23.3,30.00,NW,321,3.0,4.0,59,0.00,,---,0.00,VWS V13.01,2013-02-13 10:56:00,
2013-02-13 03:57:00,36.2,22.9,30.00,NNE,14,2.0,5.0,58,0.00,,---,0.00,VWS V13.01,2013-02-13 10:57:00,
2013-02-13 03:58:00,36.2,23.3,30.00,North,350,5.0,5.0,59,0.00,,---,0.00,VWS V13.01,2013-02-13 10:58:00,
2013-02-13 03:59:00,36.2,23.3,30.00,NNW,347,5.0,5.0,59,0.00,,---,0.00,VWS V13.01,2013-02-13 10:59:00,
2013-02-13 04:00:00,36.2,23.3,30.00,NNW,330,3.0,5.0,59,0.00,,---,0.00,VWS V13.01,2013-02-13 11:00:00,
2013-02-13 04:01:00,36.2,23.3,30.00,North,360,3.0,4.0,59,0.00,,---,0.00,VWS V13.01,2013-02-13 11:01:00,
2013-02-13 04:02:00,36.2,23.3,30.00,NE,54,4.0,8.0,59,0.00,,---,0.00,VWS V13.01,2013-02-13 11:02:00,
2013-02-13 04:03:00,36.2,23.3,30.00,NNW,334,1.0,8.0,59,0.00,,---,0.00,VWS V13.01,2013-02-13 11:03:00,
2013-02-13 04:04:00,36.2,23.3,30.00,NNE,15,2.0,8.0,59,0.00,,---,0.00,VWS V13.01,2013-02-13 11:04:00,
2013-02-13 04:05:00,36.2,22.5,30.00,NNE,22,0.0,8.0,57,0.00,,---,0.00,VWS V13.01,2013-02-13 11:05:00,
2013-02-13 04:06:00,36.2,22.9,30.00,SE,134,0.0,11.0,58,0.00,,---,0.00,VWS V13.01,2013-02-13 11:06:00,
2013-02-13 04:07:00,36.3,22.5,30.00,NW,319,3.0,11.0,57,0.00,,---,0.00,VWS V13.01,2013-02-13 11:07:00,
2013-02-13 04:08:00,36.3,22.5,30.00,NW,305,2.0,11.0,57,0.00,,---,0.00,VWS V13.01,2013-02-13 11:08:00,
2013-02-13 04:09:00,36.5,22.7,30.00,NNW,348,1.0,11.0,57,0.00,,---,0.00,VWS V13.01,2013-02-13 11:09:00,
2013-02-13 04:10:00,36.5,23.5,30.00,North,350,6.0,11.0,59,0.00,,---,0.00,VWS V13.01,2013-02-13 11:10:00,
2013-02-13 04:11:00,36.5,22.3,30.00,North,349,2.0,6.0,56,0.00,,---,0.00,VWS V13.01,2013-02-13 11:11:00,
2013-02-13 04:12:00,36.6,22.8,30.00,NNE,18,3.0,6.0,57,0.00,,---,0.00,VWS V13.01,2013-02-13 11:12:00,
2013-02-13 04:13:00,36.6,23.2,30.00,NW,324,3.0,6.0,58,0.00,,---,0.00,VWS V13.01,2013-02-13 11:13:00,
2013-02-13 04:14:00,36.6,23.2,30.00,NNW,339,1.0,6.0,58,0.00,,---,0.00,VWS V13.01,2013-02-13 11:14:00,
2013-02-13 04:15:00,36.6,23.2,30.00,NW,320,2.0,6.0,58,0.00,,---,0.00,VWS V13.01,2013-02-13 11:15:00,
2013-02-13 04:16:00,36.6,22.8,30.00,NW,325,3.0,3.0,57,0.00,,---,0.00,VWS V13.01,2013-02-13 11:16:00,
2013-02-13 04:17:00,36.6,22.0,30.00,WNW,292,0.0,3.0,55,0.00,,---,0.00,VWS V13.01,2013-02-13 11:17:00,
2013-02-13 04:18:00,36.8,22.6,30.00,North,355,4.0,4.0,56,0.00,,---,0.00,VWS V13.01,2013-02-13 11:18:00,
2013-02-13 04:19:00,36.8,23.0,30.00,NW,325,3.0,4.0,57,0.00,,---,0.00,VWS V13.01,2013-02-13 11:19:00,
2013-02-13 04:20:00,36.8,23.0,30.00,NNW,336,1.0,4.0,57,0.00,,---,0.00,VWS V13.01,2013-02-13 11:20:00,
2013-02-13 04:21:00,36.8,23.4,30.00,NNE,26,0.0,3.0,58,0.00,,---,0.00,VWS V13.01,2013-02-13 11:21:00,
2013-02-13 04:22:00,36.8,23.4,30.00,East,93,1.0,10.0,58,0.00,,---,0.00,VWS V13.01,2013-02-13 11:22:00,
2013-02-13 04:23:00,36.8,23.0,30.00,North,351,1.0,10.0,57,0.00,,---,0.00,VWS V13.01,2013-02-13 11:23:00,
2013-02-13 04:24:00,36.8,23.0,30.00,WSW,254,0.0,10.0,57,0.00,,---,0.00,VWS V13.01,2013-02-13 11:24:00,
2013-02-13 04:25:00,36.8,23.0,30.00,WSW,254,0.0,10.0,57,0.00,,---,0.00,VWS V13.01,2013-02-13 11:25:00,
2013-02-13 04:26:00,36.8,23.0,30.00,NNE,27,3.0,9.0,57,0.00,,---,0.00,VWS V13.01,2013-02-13 11:26:00,
2013-02-13 04:27:00,36.8,22.6,30.00,East,88,3.0,9.0,56,0.00,,---,0.00,VWS V13.01,2013-02-13 11:27:00,
2013-02-13 04:28:00,36.8,22.2,30.00,NNE,25,5.0,9.0,55,0.00,,---,0.00,VWS V13.01,2013-02-13 11:28:00,
2013-02-13 04:29:00,36.9,22.3,30.00,North,9,2.0,9.0,55,0.00,,---,0.00,VWS V13.01,2013-02-13 11:29:00,
2013-02-13 04:30:00,36.9,23.1,30.00,NW,318,2.0,9.0,57,0.00,,---,0.00,VWS V13.01,2013-02-13 11:30:00,
2013-02-13 04:31:00,36.9,22.3,30.00,WNW,288,2.0,4.0,55,0.00,,---,0.00,VWS V13.01,2013-02-13 11:31:00,
2013-02-13 04:32:00,37.0,22.8,30.00,WNW,288,0.0,4.0,56,0.00,,---,0.00,VWS V13.01,2013-02-13 11:32:00,
2013-02-13 04:33:00,37.0,23.2,30.00,NW,324,3.0,4.0,57,0.00,,---,0.00,VWS V13.01,2013-02-13 11:33:00,
2013-02-13 04:34:00,37.0,22.8,30.00,NNW,340,1.0,6.0,56,0.00,,---,0.00,VWS V13.01,2013-02-13 11:34:00,
2013-02-13 04:35:00,37.0,22.8,30.00,East,99,4.0,10.0,56,0.00,,---,0.00,VWS V13.01,2013-02-13 11:35:00,
2013-02-13 04:36:00,37.0,22.4,30.00,NW,312,3.0,6.0,55,0.00,,---,0.00,VWS V13.01,2013-02-13 11:36:00,
2013-02-13 04:37:00,37.0,22.4,30.00,NNW,344,3.0,6.0,55,0.00,,---,0.00,VWS V13.01,2013-02-13 11:37:00,
2013-02-13 04:38:00,37.0,22.4,30.00,NNW,334,0.0,6.0,55,0.00,,---,0.00,VWS V13.01,2013-02-13 11:38:00,
2013-02-13 04:39:00,37.2,23.0,30.00,NE,43,3.0,6.0,56,0.00,,---,0.00,VWS V13.01,2013-02-13 11:39:00,
2013-02-13 04:40:00,37.2,23.0,30.00,NNE,29,0.0,6.0,56,0.00,,---,0.00,VWS V13.01,2013-02-13 11:40:00,
2013-02-13 04:41:00,37.2,23.4,30.00,NNW,335,9.0,10.0,57,0.00,,---,0.00,VWS V13.01,2013-02-13 11:41:00,
2013-02-13 04:42:00,37.2,23.0,30.00,NNE,27,4.0,10.0,56,0.00,,---,0.00,VWS V13.01,2013-02-13 11:42:00,
2013-02-13 04:43:00,37.2,23.8,30.00,NNW,338,3.0,10.0,58,0.00,,---,0.00,VWS V13.01,2013-02-13 11:43:00,
2013-02-13 04:44:00,37.2,23.4,30.00,ENE,69,2.0,10.0,57,0.00,,---,0.00,VWS V13.01,2013-02-13 11:44:00,
2013-02-13 04:45:00,37.0,23.2,30.00,East,86,3.0,10.0,57,0.00,,---,0.00,VWS V13.01,2013-02-13 11:45:00,
2013-02-13 04:46:00,37.0,23.2,30.00,ENE,64,1.0,7.0,57,0.00,,---,0.00,VWS V13.01,2013-02-13 11:46:00,
2013-02-13 04:47:00,37.0,23.2,30.00,WNW,288,0.0,7.0,57,0.00,,---,0.00,VWS V13.01,2013-02-13 11:47:00,
2013-02-13 04:48:00,37.0,22.8,30.00,NE,49,1.0,11.0,56,0.00,,---,0.00,VWS V13.01,2013-02-13 11:48:00,
2013-02-13 04:49:00,37.0,22.8,30.00,NW,319,0.0,11.0,56,0.00,,---,0.00,VWS V13.01,2013-02-13 11:49:00,
2013-02-13 04:50:00,37.0,22.4,30.00,NW,317,1.0,11.0,55,0.00,,---,0.00,VWS V13.01,2013-02-13 11:50:00,
2013-02-13 04:51:00,37.2,23.0,30.00,NW,326,0.0,1.0,56,0.00,,---,0.00,VWS V13.01,2013-02-13 11:51:00,
2013-02-13 04:52:00,37.2,23.8,30.00,North,355,3.0,4.0,58,0.00,,---,0.00,VWS V13.01,2013-02-13 11:52:00,
2013-02-13 04:53:00,37.2,23.4,30.00,North,355,0.0,4.0,57,0.00,,---,0.00,VWS V13.01,2013-02-13 11:53:00,
2013-02-13 04:54:00,37.2,23.4,30.00,NNE,29,0.0,4.0,57,0.00,,---,0.00,VWS V13.01,2013-02-13 11:54:00,
2013-02-13 04:55:00,37.2,23.0,30.00,NNE,29,1.0,4.0,56,0.00,,---,0.00,VWS V13.01,2013-02-13 11:55:00,
2013-02-13 04:56:00,37.2,23.4,30.00,ENE,76,1.0,3.0,57,0.00,,---,0.00,VWS V13.01,2013-02-13 11:56:00,
2013-02-13 04:57:00,37.2,22.5,30.00,NNW,337,2.0,3.0,55,0.00,,---,0.00,VWS V13.01,2013-02-13 11:57:00,
2013-02-13 04:58:00,37.2,22.5,30.00,NW,317,0.0,3.0,55,0.00,,---,0.00,VWS V13.01,2013-02-13 11:58:00,
2013-02-13 04:59:00,37.2,23.0,30.00,NE,43,4.0,5.0,56,0.00,,---,0.00,VWS V13.01,2013-02-13 11:59:00,
2013-02-13 05:00:00,37.2,22.5,30.00,SSW,192,0.0,5.0,55,0.00,,---,0.00,VWS V13.01,2013-02-13 12:00:00,
2013-02-13 05:01:00,37.2,23.0,30.00,NNW,328,0.0,4.0,56,0.00,,---,0.00,VWS V13.01,2013-02-13 12:01:00,
2013-02-13 05:02:00,37.2,23.0,30.00,NE,46,1.0,4.0,56,0.00,,---,0.00,VWS V13.01,2013-02-13 12:02:00,
2013-02-13 05:03:00,37.2,23.8,30.00,East,80,0.0,4.0,58,0.00,,---,0.00,VWS V13.01,2013-02-13 12:03:00,
2013-02-13 05:04:00,37.2,23.4,30.00,ENE,57,1.0,4.0,57,0.00,,---,0.00,VWS V13.01,2013-02-13 12:04:00,
2013-02-13 05:05:00,37.2,22.5,30.00,NNE,24,0.0,4.0,55,0.00,,---,0.00,VWS V13.01,2013-02-13 12:05:00,
2013-02-13 05:06:00,37.2,23.0,30.00,ESE,103,0.0,4.0,56,0.00,,---,0.00,VWS V13.01,2013-02-13 12:06:00,
2013-02-13 05:07:00,37.2,23.0,30.00,NNE,23,0.0,5.0,56,0.00,,---,0.00,VWS V13.01,2013-02-13 12:07:00,
2013-02-13 05:08:00,37.2,23.4,30.00,North,5,3.0,5.0,57,0.00,,---,0.00,VWS V13.01,2013-02-13 12:08:00,
2013-02-13 05:09:00,37.2,23.8,30.00,NNW,339,4.0,5.0,58,0.00,,---,0.00,VWS V13.01,2013-02-13 12:09:00,
2013-02-13 05:10:00,37.0,22.8,30.00,NNE,19,2.0,5.0,56,0.00,,---,0.00,VWS V13.01,2013-02-13 12:10:00,
2013-02-13 05:11:00,37.0,23.2,30.00,North,355,0.0,3.0,57,0.00,,---,0.00,VWS V13.01,2013-02-13 12:11:00,
2013-02-13 05:12:00,37.0,23.2,30.00,East,82,2.0,3.0,57,0.00,,---,0.00,VWS V13.01,2013-02-13 12:12:00,
2013-02-13 05:13:00,37.0,22.8,30.00,NE,40,4.0,10.0,56,0.00,,---,0.00,VWS V13.01,2013-02-13 12:13:00,
2013-02-13 05:14:00,37.0,22.8,29.99,ENE,57,1.0,10.0,56,0.00,,---,0.00,VWS V13.01,2013-02-13 12:14:00,
2013-02-13 05:15:00,37.0,22.8,29.99,ENE,78,6.0,10.0,56,0.00,,---,0.00,VWS V13.01,2013-02-13 12:15:00,
2013-02-13 05:16:00,37.0,22.8,29.99,ENE,78,2.0,15.0,56,0.00,,---,0.00,VWS V13.01,2013-02-13 12:16:00,
2013-02-13 05:17:00,37.0,22.8,29.99,East,80,0.0,15.0,56,0.00,,---,0.00,VWS V13.01,2013-02-13 12:17:00,
2013-02-13 05:18:00,37.0,23.2,29.99,East,80,2.0,15.0,57,0.00,,---,0.00,VWS V13.01,2013-02-13 12:18:00,
2013-02-13 05:19:00,37.0,23.2,29.99,East,90,0.0,15.0,57,0.00,,---,0.00,VWS V13.01,2013-02-13 12:19:00,
2013-02-13 05:20:00,37.0,23.2,29.99,East,88,1.0,15.0,57,0.00,,---,0.00,VWS V13.01,2013-02-13 12:20:00,
2013-02-13 05:21:00,37.0,23.6,29.99,East,88,0.0,1.0,58,0.00,,---,0.00,VWS V13.01,2013-02-13 12:21:00,
2013-02-13 05:22:00,37.0,22.8,29.99,ENE,76,5.0,5.0,56,0.00,,---,0.00,VWS V13.01,2013-02-13 12:22:00,
2013-02-13 05:23:00,37.0,22.4,29.99,East,85,0.0,6.0,55,0.00,,---,0.00,VWS V13.01,2013-02-13 12:23:00,
2013-02-13 05:24:00,37.0,21.9,29.99,East,85,0.0,6.0,54,0.00,,---,0.00,VWS V13.01,2013-02-13 12:24:00,
2013-02-13 05:25:00,37.0,22.4,29.99,SSW,208,1.0,6.0,55,0.00,,---,0.00,VWS V13.01,2013-02-13 12:25:00,
2013-02-13 05:26:00,37.0,21.9,29.99,SSW,208,2.0,2.0,54,0.00,,---,0.00,VWS V13.01,2013-02-13 12:26:00,
2013-02-13 05:27:00,37.0,22.8,29.99,SSW,208,0.0,2.0,56,0.00,,---,0.00,VWS V13.01,2013-02-13 12:27:00,
2013-02-13 05:28:00,37.0,23.2,29.99,ENE,74,0.0,2.0,57,0.00,,---,0.00,VWS V13.01,2013-02-13 12:28:00,
2013-02-13 05:29:00,37.0,23.2,29.99,ENE,74,0.0,2.0,57,0.00,,---,0.00,VWS V13.01,2013-02-13 12:29:00,
2013-02-13 05:30:00,37.0,22.4,29.99,NNE,16,1.0,2.0,55,0.00,,---,0.00,VWS V13.01,2013-02-13 12:30:00,
2013-02-13 05:31:00,37.0,22.8,29.99,NE,49,1.0,2.0,56,0.00,,---,0.00,VWS V13.01,2013-02-13 12:31:00,
2013-02-13 05:32:00,37.0,23.2,29.99,NE,49,0.0,2.0,57,0.00,,---,0.00,VWS V13.01,2013-02-13 12:32:00,
2013-02-13 05:33:00,36.9,23.1,29.99,NE,49,0.0,2.0,57,0.00,,---,0.00,VWS V13.01,2013-02-13 12:33:00,
2013-02-13 05:34:00,36.9,23.1,29.99,ENE,69,1.0,2.0,57,0.00,,---,0.00,VWS V13.01,2013-02-13 12:34:00,
2013-02-13 05:35:00,36.9,22.7,29.99,East,96,6.0,9.0,56,0.00,,---,0.00,VWS V13.01,2013-02-13 12:35:00,
2013-02-13 05:36:00,36.9,22.3,29.99,NNE,33,0.0,6.0,55,0.00,,---,0.00,VWS V13.01,2013-02-13 12:36:00,
2013-02-13 05:37:00,36.9,22.3,29.99,NNW,340,5.0,11.0,55,0.00,,---,0.00,VWS V13.01,2013-02-13 12:37:00,
2013-02-13 05:38:00,36.9,22.3,29.99,NNE,32,2.0,11.0,55,0.00,,---,0.00,VWS V13.01,2013-02-13 12:38:00,
2013-02-13 05:39:00,36.9,22.3,29.99,NE,50,4.0,11.0,55,0.00,,---,0.00,VWS V13.01,2013-02-13 12:39:00,
2013-02-13 05:40:00,36.9,23.1,29.99,NNE,26,1.0,11.0,57,0.00,,---,0.00,VWS V13.01,2013-02-13 12:40:00,
2013-02-13 05:41:00,36.8,22.2,29.99,North,5,4.0,4.0,55,0.00,,---,0.00,VWS V13.01,2013-02-13 12:41:00,
2013-02-13 05:42:00,36.8,23.0,29.99,NW,305,5.0,7.0,57,0.00,,---,0.00,VWS V13.01,2013-02-13 12:42:00,
2013-02-13 05:43:00,36.8,22.2,29.99,East,92,0.0,9.0,55,0.00,,---,0.00,VWS V13.01,2013-02-13 12:43:00,
2013-02-13 05:44:00,36.9,21.8,29.98,East,91,1.0,9.0,54,0.00,,---,0.00,VWS V13.01,2013-02-13 12:44:00,
2013-02-13 05:45:00,36.9,22.3,29.98,East,80,2.0,9.0,55,0.00,,---,0.00,VWS V13.01,2013-02-13 12:45:00,
2013-02-13 05:46:00,36.9,22.3,29.98,NNE,19,3.0,4.0,55,0.00,,---,0.00,VWS V13.01,2013-02-13 12:46:00,
2013-02-13 05:47:00,36.9,21.8,29.98,NNE,19,0.0,4.0,54,0.00,,---,0.00,VWS V13.01,2013-02-13 12:47:00,
2013-02-13 05:48:00,37.0,21.9,29.98,ENE,71,2.0,5.0,54,0.00,,---,0.00,VWS V13.01,2013-02-13 12:48:00,
2013-02-13 05:49:00,37.0,22.4,29.98,ENE,70,0.0,5.0,55,0.00,,---,0.00,VWS V13.01,2013-02-13 12:49:00,
2013-02-13 05:50:00,37.0,22.4,29.98,ENE,70,0.0,5.0,55,0.00,,---,0.00,VWS V13.01,2013-02-13 12:50:00,
2013-02-13 05:51:00,37.0,22.8,29.98,ENE,70,0.0,2.0,56,0.00,,---,0.00,VWS V13.01,2013-02-13 12:51:00,
2013-02-13 05:52:00,37.2,23.0,29.98,ENE,69,0.0,2.0,56,0.00,,---,0.00,VWS V13.01,2013-02-13 12:52:00,
2013-02-13 05:53:00,37.2,22.1,29.98,ENE,69,0.0,2.0,54,0.00,,---,0.00,VWS V13.01,2013-02-13 12:53:00,
2013-02-13 05:54:00,37.2,23.0,29.98,ENE,69,0.0,2.0,56,0.00,,---,0.00,VWS V13.01,2013-02-13 12:54:00,
2013-02-13 05:55:00,37.2,23.4,29.98,North,5,4.0,9.0,57,0.00,,---,0.00,VWS V13.01,2013-02-13 12:55:00,
2013-02-13 05:56:00,37.2,23.0,29.98,North,11,2.0,5.0,56,0.00,,---,0.00,VWS V13.01,2013-02-13 12:56:00,
2013-02-13 05:57:00,37.2,22.1,29.98,ENE,76,6.0,6.0,54,0.00,,---,0.00,VWS V13.01,2013-02-13 12:57:00,
2013-02-13 05:58:00,37.2,22.1,29.98,WNW,283,0.0,11.0,54,0.00,,---,0.00,VWS V13.01,2013-02-13 12:58:00,
2013-02-13 05:59:00,37.3,21.8,29.99,East,88,3.0,11.0,53,0.00,,---,0.00,VWS V13.01,2013-02-13 12:59:00,
2013-02-13 06:00:00,37.3,22.2,29.99,NW,306,2.0,11.0,54,0.00,,---,0.00,VWS V13.01,2013-02-13 13:00:00,
2013-02-13 06:01:00,37.3,22.6,29.99,NE,49,1.0,2.0,55,0.00,,---,0.00,VWS V13.01,2013-02-13 13:01:00,
2013-02-13 06:02:00,37.3,23.1,29.99,NE,46,0.0,2.0,56,0.00,,---,0.00,VWS V13.01,2013-02-13 13:02:00,
2013-02-13 06:03:00,37.3,22.6,29.99,NNW,334,0.0,2.0,55,0.00,,---,0.00,VWS V13.01,2013-02-13 13:03:00,
2013-02-13 06:04:00,37.5,22.8,29.99,NW,304,0.0,5.0,55,0.00,,---,0.00,VWS V13.01,2013-02-13 13:04:00,
2013-02-13 06:05:00,37.5,21.9,29.99,ENE,63,0.0,5.0,53,0.00,,---,0.00,VWS V13.01,2013-02-13 13:05:00,
2013-02-13 06:06:00,37.5,21.5,29.99,WNW,284,0.0,3.0,52,0.00,,---,0.00,VWS V13.01,2013-02-13 13:06:00,
2013-02-13 06:07:00,37.5,21.5,29.99,NE,44,4.0,4.0,52,0.00,,---,0.00,VWS V13.01,2013-02-13 13:07:00,
2013-02-13 06:08:00,37.5,22.8,29.99,NE,34,0.0,4.0,55,0.00,,---,0.00,VWS V13.01,2013-02-13 13:08:00,
2013-02-13 06:09:00,37.6,22.0,29.99,NE,49,0.0,7.0,53,0.00,,---,0.00,VWS V13.01,2013-02-13 13:09:00,
2013-02-13 06:10:00,37.6,22.9,29.99,ENE,65,1.0,7.0,55,0.00,,---,0.00,VWS V13.01,2013-02-13 13:10:00,
2013-02-13 06:11:00,37.6,22.5,29.99,SE,127,0.0,3.0,54,0.00,,---,0.00,VWS V13.01,2013-02-13 13:11:00,
2013-02-13 06:12:00,37.6,22.9,29.99,NNE,24,2.0,3.0,55,0.00,,---,0.00,VWS V13.01,2013-02-13 13:12:00,
2013-02-13 06:13:00,37.6,22.9,29.99,North,355,4.0,4.0,55,0.00,,---,0.00,VWS V13.01,2013-02-13 13:13:00,
2013-02-13 06:14:00,37.6,22.5,29.99,NNE,27,0.0,4.0,54,0.00,,---,0.00,VWS V13.01,2013-02-13 13:14:00,
2013-02-13 06:15:00,37.8,23.1,29.99,East,83,0.0,4.0,55,0.00,,---,0.00,VWS V13.01,2013-02-13 13:15:00,
2013-02-13 06:16:00,37.8,23.1,29.99,ENE,78,5.0,5.0,55,0.00,,---,0.00,VWS V13.01,2013-02-13 13:16:00,
2013-02-13 06:17:00,37.8,23.1,29.99,NW,325,1.0,5.0,55,0.00,,---,0.00,VWS V13.01,2013-02-13 13:17:00,
2013-02-13 06:18:00,37.6,22.5,29.99,NNE,32,0.0,5.0,54,0.00,,---,0.00,VWS V13.01,2013-02-13 13:18:00,
2013-02-13 06:19:00,37.6,22.5,29.99,NW,320,2.0,5.0,54,0.00,,---,0.00,VWS V13.01,2013-02-13 13:19:00,
2013-02-13 06:20:00,37.6,22.5,29.99,WNW,303,1.0,5.0,54,0.00,,---,0.00,VWS V13.01,2013-02-13 13:20:00,
2013-02-13 06:21:00,37.6,22.5,29.99,NNE,14,3.0,3.0,54,0.00,,---,0.00,VWS V13.01,2013-02-13 13:21:00,
2013-02-13 06:22:00,37.6,22.9,29.99,NNE,20,0.0,5.0,55,0.00,,---,0.00,VWS V13.01,2013-02-13 13:22:00,
2013-02-13 06:23:00,37.6,22.5,29.99,NNE,20,1.0,5.0,54,0.00,,---,0.00,VWS V13.01,2013-02-13 13:23:00,
2013-02-13 06:24:00,37.6,22.0,29.99,NNE,20,2.0,5.0,53,0.00,,---,0.00,VWS V13.01,2013-02-13 13:24:00,
2013-02-13 06:25:00,37.6,23.3,29.99,NNE,20,0.0,5.0,56,0.00,,---,0.00,VWS V13.01,2013-02-13 13:25:00,
2013-02-13 06:26:00,37.6,22.9,29.99,NNE,20,0.0,0.0,55,0.00,,---,0.00,VWS V13.01,2013-02-13 13:26:00,
2013-02-13 06:27:00,37.6,22.9,29.99,East,82,0.0,2.0,55,0.00,,---,0.00,VWS V13.01,2013-02-13 13:27:00,
2013-02-13 06:28:00,37.6,24.2,29.99,East,82,0.0,2.0,58,0.00,,---,0.00,VWS V13.01,2013-02-13 13:28:00,
2013-02-13 06:29:00,37.6,24.2,29.99,NNW,340,0.0,2.0,58,0.00,,---,0.00,VWS V13.01,2013-02-13 13:29:00,
2013-02-13 06:30:00,37.6,23.8,29.99,NNW,340,0.0,2.0,57,0.00,,---,0.00,VWS V13.01,2013-02-13 13:30:00,
2013-02-13 06:31:00,37.5,23.7,29.99,NE,53,0.0,3.0,57,0.00,,---,0.00,VWS V13.01,2013-02-13 13:31:00,
2013-02-13 06:32:00,37.5,23.7,29.99,North,9,0.0,3.0,57,0.00,,---,0.00,VWS V13.01,2013-02-13 13:32:00,
2013-02-13 06:33:00,37.3,23.1,29.99,North,9,0.0,3.0,56,0.00,,---,0.00,VWS V13.01,2013-02-13 13:33:00,
2013-02-13 06:34:00,37.3,23.1,29.99,NNW,327,5.0,5.0,56,0.00,,---,0.00,VWS V13.01,2013-02-13 13:34:00,
2013-02-13 06:35:00,37.3,23.5,29.99,WNW,294,2.0,5.0,57,0.00,,---,0.00,VWS V13.01,2013-02-13 13:35:00,
2013-02-13 06:36:00,37.3,23.1,29.99,ENE,58,1.0,3.0,56,0.00,,---,0.00,VWS V13.01,2013-02-13 13:36:00,
2013-02-13 06:37:00,37.3,23.5,29.99,NE,50,5.0,7.0,57,0.00,,---,0.00,VWS V13.01,2013-02-13 13:37:00,
2013-02-13 06:38:00,37.3,23.1,29.99,ENE,58,1.0,7.0,56,0.00,,---,0.00,VWS V13.01,2013-02-13 13:38:00,
2013-02-13 06:39:00,37.2,23.4,29.99,WNW,303,3.0,7.0,57,0.00,,---,0.00,VWS V13.01,2013-02-13 13:39:00,
2013-02-13 06:40:00,37.2,22.5,29.99,WNW,289,2.0,7.0,55,0.00,,---,0.00,VWS V13.01,2013-02-13 13:40:00,
2013-02-13 06:41:00,37.3,22.6,29.99,NW,308,0.0,4.0,55,0.00,,---,0.00,VWS V13.01,2013-02-13 13:41:00,
2013-02-13 06:42:00,37.3,22.6,29.99,NW,309,0.0,4.0,55,0.00,,---,0.00,VWS V13.01,2013-02-13 13:42:00,
2013-02-13 06:43:00,37.3,23.1,29.99,NW,309,0.0,4.0,56,0.00,,---,0.00,VWS V13.01,2013-02-13 13:43:00,
2013-02-13 06:44:00,37.3,23.5,29.99,NW,309,0.0,4.0,57,0.00,,---,0.00,VWS V13.01,2013-02-13 13:44:00,
2013-02-13 06:45:00,37.3,23.9,29.99,NW,309,0.0,4.0,58,0.00,,---,0.00,VWS V13.01,2013-02-13 13:45:00,
2013-02-13 06:46:00,37.3,23.9,29.99,NE,42,0.0,3.0,58,0.00,,---,0.00,VWS V13.01,2013-02-13 13:46:00,
2013-02-13 06:47:00,37.3,23.9,29.99,NE,42,0.0,3.0,58,0.00,,---,0.00,VWS V13.01,2013-02-13 13:47:00,
2013-02-13 06:48:00,37.3,24.3,29.99,NE,55,0.0,3.0,59,0.00,,---,0.00,VWS V13.01,2013-02-13 13:48:00,
2013-02-13 06:49:00,37.3,22.6,29.99,East,90,3.0,3.0,55,0.00,,---,0.00,VWS V13.01,2013-02-13 13:49:00,
2013-02-13 06:50:00,37.2,23.0,29.99,East,92,0.0,3.0,56,0.00,,---,0.00,VWS V13.01,2013-02-13 13:50:00,
2013-02-13 06:51:00,37.2,23.0,29.99,East,92,0.0,0.0,56,0.00,,---,0.00,VWS V13.01,2013-02-13 13:51:00,
2013-02-13 06:52:00,37.2,23.4,29.99,East,92,0.0,0.0,57,0.00,,---,0.00,VWS V13.01,2013-02-13 13:52:00,
2013-02-13 06:53:00,37.2,23.0,29.99,North,360,0.0,3.0,56,0.00,,---,0.00,VWS V13.01,2013-02-13 13:53:00,
2013-02-13 06:54:00,37.2,23.0,29.99,NNE,29,0.0,3.0,56,0.00,,---,0.01,VWS V13.01,2013-02-13 13:54:00,
2013-02-13 06:55:00,37.2,23.0,29.99,ENE,75,1.0,3.0,56,0.01,,---,0.01,VWS V13.01,2013-02-13 13:55:00,
2013-02-13 06:56:00,37.2,23.0,29.99,ENE,75,0.0,3.0,56,0.01,,---,0.01,VWS V13.01,2013-02-13 13:56:00,
2013-02-13 06:57:00,37.2,22.1,29.99,East,92,0.0,5.0,54,0.01,,---,0.01,VWS V13.01,2013-02-13 13:57:00,
2013-02-13 06:58:00,37.2,21.7,29.99,East,92,0.0,5.0,53,0.01,,---,0.01,VWS V13.01,2013-02-13 13:58:00,
2013-02-13 06:59:00,37.2,22.1,29.98,ENE,62,0.0,5.0,54,0.01,,---,0.01,VWS V13.01,2013-02-13 13:59:00,
2013-02-13 07:00:00,37.3,22.6,29.98,ENE,61,0.0,5.0,55,0.01,,---,0.01,VWS V13.01,2013-02-13 14:00:00,
2013-02-13 07:01:00,37.3,23.5,29.98,ESE,102,0.0,2.0,57,0.01,,---,0.01,VWS V13.01,2013-02-13 14:01:00,
2013-02-13 07:02:00,37.3,23.5,29.98,East,99,0.0,2.0,57,0.01,,---,0.01,VWS V13.01,2013-02-13 14:02:00,
2013-02-13 07:03:00,37.3,23.5,29.98,East,99,0.0,2.0,57,0.01,,---,0.01,VWS V13.01,2013-02-13 14:03:00,
2013-02-13 07:04:00,37.3,23.1,29.98,East,98,0.0,2.0,56,0.01,,---,0.01,VWS V13.01,2013-02-13 14:04:00,
2013-02-13 07:05:00,37.2,23.0,29.98,East,80,0.0,2.0,56,0.01,,---,0.01,VWS V13.01,2013-02-13 14:05:00,
2013-02-13 07:06:00,37.2,23.8,29.98,ENE,62,0.0,1.0,58,0.01,,---,0.01,VWS V13.01,2013-02-13 14:06:00,
2013-02-13 07:07:00,37.2,23.4,29.98,NNW,343,2.0,3.0,57,0.01,,---,0.01,VWS V13.01,2013-02-13 14:07:00,
2013-02-13 07:08:00,37.2,23.0,29.98,NNW,343,2.0,3.0,56,0.01,,---,0.01,VWS V13.01,2013-02-13 14:08:00,
2013-02-13 07:09:00,37.2,23.0,29.98,NNW,342,0.0,3.0,56,0.01,,---,0.01,VWS V13.01,2013-02-13 14:09:00,
2013-02-13 07:10:00,37.2,23.0,29.98,East,94,0.0,3.0,56,0.01,,---,0.01,VWS V13.01,2013-02-13 14:10:00,
2013-02-13 07:11:00,37.2,22.5,29.98,NE,43,2.0,5.0,55,0.01,,---,0.01,VWS V13.01,2013-02-13 14:11:00,
2013-02-13 07:12:00,37.2,21.7,29.98,NW,306,0.0,5.0,53,0.01,,---,0.01,VWS V13.01,2013-02-13 14:12:00,
2013-02-13 07:13:00,37.2,21.7,29.98,West,280,3.0,5.0,53,0.01,,---,0.01,VWS V13.01,2013-02-13 14:13:00,
2013-02-13 07:14:00,37.3,21.3,29.99,NNW,342,3.0,5.0,52,0.01,,---,0.01,VWS V13.01,2013-02-13 14:14:00,
2013-02-13 07:15:00,37.3,21.8,29.99,NNW,327,2.0,5.0,53,0.01,,---,0.01,VWS V13.01,2013-02-13 14:15:00,
2013-02-13 07:16:00,37.5,22.8,29.99,NNW,348,1.0,7.0,55,0.01,,---,0.01,VWS V13.01,2013-02-13 14:16:00,
2013-02-13 07:17:00,37.5,22.4,29.99,NNE,13,1.0,7.0,54,0.01,,---,0.01,VWS V13.01,2013-02-13 14:17:00,
2013-02-13 07:18:00,37.5,22.4,29.99,NNW,343,0.0,7.0,54,0.01,,---,0.01,VWS V13.01,2013-02-13 14:18:00,
2013-02-13 07:19:00,37.6,22.5,29.99,East,81,0.0,7.0,54,0.01,,---,0.01,VWS V13.01,2013-02-13 14:19:00,
2013-02-13 07:20:00,37.6,22.9,29.99,East,81,0.0,7.0,55,0.01,,---,0.01,VWS V13.01,2013-02-13 14:20:00,
2013-02-13 07:21:00,37.6,24.2,29.99,SSE,148,2.0,5.0,58,0.01,,---,0.01,VWS V13.01,2013-02-13 14:21:00,
2013-02-13 07:22:00,37.6,22.5,29.99,NW,322,0.0,5.0,54,0.01,,---,0.01,VWS V13.01,2013-02-13 14:22:00,
2013-02-13 07:23:00,37.6,22.0,29.99,NW,315,3.0,5.0,53,0.01,,---,0.01,VWS V13.01,2013-02-13 14:23:00,
2013-02-13 07:24:00,37.6,22.0,29.99,WNW,294,0.0,5.0,53,0.01,,---,0.01,VWS V13.01,2013-02-13 14:24:00,
2013-02-13 07:25:00,37.6,21.6,29.99,WNW,294,0.0,5.0,52,0.01,,---,0.01,VWS V13.01,2013-02-13 14:25:00,
2013-02-13 07:26:00,37.6,21.6,29.99,WNW,296,3.0,3.0,52,0.01,,---,0.01,VWS V13.01,2013-02-13 14:26:00,
2013-02-13 07:27:00,37.6,21.6,29.99,WNW,294,0.0,3.0,52,0.01,,---,0.01,VWS V13.01,2013-02-13 14:27:00,
2013-02-13 07:28:00,37.8,22.7,29.99,ENE,64,2.0,3.0,54,0.01,,---,0.01,VWS V13.01,2013-02-13 14:28:00,
2013-02-13 07:29:00,37.8,21.8,29.98,North,355,1.0,6.0,52,0.01,,---,0.01,VWS V13.01,2013-02-13 14:29:00,
2013-02-13 07:30:00,37.8,21.8,29.98,North,355,0.0,6.0,52,0.01,,---,0.01,VWS V13.01,2013-02-13 14:30:00,
2013-02-13 07:31:00,37.8,22.7,29.98,North,355,0.0,2.0,54,0.01,,---,0.01,VWS V13.01,2013-02-13 14:31:00,
2013-02-13 07:32:00,37.8,22.7,29.98,North,355,0.0,2.0,54,0.01,,---,0.01,VWS V13.01,2013-02-13 14:32:00,
2013-02-13 07:33:00,37.8,22.7,29.98,East,81,1.0,3.0,54,0.01,,---,0.01,VWS V13.01,2013-02-13 14:33:00,
2013-02-13 07:34:00,37.8,23.1,29.98,North,9,3.0,3.0,55,0.01,,---,0.01,VWS V13.01,2013-02-13 14:34:00,
2013-02-13 07:35:00,37.8,23.1,29.98,WNW,298,1.0,4.0,55,0.01,,---,0.01,VWS V13.01,2013-02-13 14:35:00,
2013-02-13 07:36:00,37.8,23.1,29.98,NNW,335,1.0,4.0,55,0.01,,---,0.01,VWS V13.01,2013-02-13 14:36:00,
2013-02-13 07:37:00,37.8,22.7,29.98,NW,326,0.0,4.0,54,0.01,,---,0.01,VWS V13.01,2013-02-13 14:37:00,
2013-02-13 07:38:00,37.6,22.9,29.98,East,99,2.0,4.0,55,0.01,,---,0.01,VWS V13.01,2013-02-13 14:38:00,
2013-02-13 07:39:00,37.6,22.9,29.98,ESE,104,2.0,6.0,55,0.01,,---,0.01,VWS V13.01,2013-02-13 14:39:00,
2013-02-13 07:40:00,37.6,22.0,29.98,ESE,104,0.0,6.0,53,0.01,,---,0.01,VWS V13.01,2013-02-13 14:40:00,
2013-02-13 07:41:00,37.6,22.5,29.98,ESE,104,0.0,1.0,54,0.01,,---,0.01,VWS V13.01,2013-02-13 14:41:00,
2013-02-13 07:42:00,37.6,22.5,29.98,ENE,74,1.0,3.0,54,0.01,,---,0.01,VWS V13.01,2013-02-13 14:42:00,
2013-02-13 07:43:00,37.6,23.3,29.98,NE,46,0.0,3.0,56,0.01,,---,0.01,VWS V13.01,2013-02-13 14:43:00,
2013-02-13 07:44:00,37.6,22.0,29.99,East,92,2.0,4.0,53,0.01,,---,0.01,VWS V13.01,2013-02-13 14:44:00,
2013-02-13 07:45:00,37.6,22.0,29.99,ENE,74,1.0,4.0,53,0.01,,---,0.01,VWS V13.01,2013-02-13 14:45:00,
2013-02-13 07:46:00,37.6,22.0,29.99,East,89,2.0,5.0,53,0.01,,---,0.01,VWS V13.01,2013-02-13 14:46:00,
2013-02-13 07:47:00,37.6,22.5,29.99,East,89,0.0,5.0,54,0.01,,---,0.01,VWS V13.01,2013-02-13 14:47:00,
2013-02-13 07:48:00,37.6,22.9,29.99,SSW,213,0.0,5.0,55,0.01,,---,0.01,VWS V13.01,2013-02-13 14:48:00,
2013-02-13 07:49:00,37.6,21.6,29.99,North,351,2.0,5.0,52,0.01,,---,0.01,VWS V13.01,2013-02-13 14:49:00,
2013-02-13 07:50:00,37.6,22.5,29.99,North,355,0.0,5.0,54,0.01,,---,0.01,VWS V13.01,2013-02-13 14:50:00,
2013-02-13 07:51:00,37.6,22.5,29.99,North,355,0.0,0.0,54,0.01,,---,0.01,VWS V13.01,2013-02-13 14:51:00,
2013-02-13 07:52:00,37.6,22.9,29.99,North,5,1.0,1.0,55,0.01,,---,0.01,VWS V13.01,2013-02-13 14:52:00,
2013-02-13 07:53:00,37.6,22.5,29.99,NNE,28,0.0,1.0,54,0.01,,---,0.01,VWS V13.01,2013-02-13 14:53:00,
2013-02-13 07:54:00,37.6,22.0,29.99,NNE,28,0.0,1.0,53,0.01,,---,0.01,VWS V13.01,2013-02-13 14:54:00,
2013-02-13 07:55:00,37.6,22.9,29.99,NNE,28,0.0,1.0,55,0.01,,---,0.01,VWS V13.01,2013-02-13 14:55:00,
2013-02-13 07:56:00,37.6,22.9,29.99,NNW,337,2.0,5.0,55,0.00,,---,0.01,VWS V13.01,2013-02-13 14:56:00,
2013-02-13 07:57:00,37.5,22.8,29.99,NNW,328,0.0,5.0,55,0.00,,---,0.01,VWS V13.01,2013-02-13 14:57:00,
2013-02-13 07:58:00,37.5,22.4,29.99,NNE,28,0.0,5.0,54,0.00,,---,0.01,VWS V13.01,2013-02-13 14:58:00,
2013-02-13 07:59:00,37.5,21.9,29.99,ENE,57,0.0,5.0,53,0.00,,---,0.01,VWS V13.01,2013-02-13 14:59:00,
2013-02-13 08:00:00,37.5,21.0,29.99,ENE,57,0.0,5.0,51,0.00,,---,0.01,VWS V13.01,2013-02-13 15:00:00,
2013-02-13 08:01:00,37.5,21.5,29.99,NNW,329,3.0,10.0,52,0.00,,---,0.01,VWS V13.01,2013-02-13 15:01:00,
2013-02-13 08:02:00,37.5,21.0,29.99,East,80,2.0,10.0,51,0.00,,---,0.01,VWS V13.01,2013-02-13 15:02:00,
2013-02-13 08:03:00,37.6,21.1,29.99,East,89,0.0,10.0,51,0.00,,---,0.01,VWS V13.01,2013-02-13 15:03:00,
2013-02-13 08:04:00,37.6,21.1,29.99,East,89,0.0,10.0,51,0.00,,---,0.01,VWS V13.01,2013-02-13 15:04:00,
2013-02-13 08:05:00,37.6,22.5,29.99,NE,53,3.0,10.0,54,0.00,,---,0.01,VWS V13.01,2013-02-13 15:05:00,
2013-02-13 08:06:00,37.6,21.6,29.99,NE,50,0.0,3.0,52,0.00,,---,0.01,VWS V13.01,2013-02-13 15:06:00,
2013-02-13 08:07:00,37.8,22.2,29.99,NNE,30,10.0,10.0,53,0.00,,---,0.01,VWS V13.01,2013-02-13 15:07:00,
2013-02-13 08:08:00,37.8,23.1,29.99,WNW,288,5.0,13.0,55,0.00,,---,0.01,VWS V13.01,2013-02-13 15:08:00,
2013-02-13 08:09:00,37.8,23.1,29.99,East,92,5.0,13.0,55,0.00,,---,0.01,VWS V13.01,2013-02-13 15:09:00,
2013-02-13 08:10:00,37.8,20.8,29.99,North,351,1.0,13.0,50,0.00,,---,0.01,VWS V13.01,2013-02-13 15:10:00,
2013-02-13 08:11:00,37.9,22.3,29.99,NNW,340,5.0,13.0,53,0.00,,---,0.01,VWS V13.01,2013-02-13 15:11:00,
2013-02-13 08:12:00,37.9,21.4,29.99,NE,42,9.0,13.0,51,0.00,,---,0.01,VWS V13.01,2013-02-13 15:12:00,
2013-02-13 08:13:00,37.9,22.8,29.99,WSW,242,10.0,13.0,54,0.00,,---,0.01,VWS V13.01,2013-02-13 15:13:00,
2013-02-13 08:14:00,38.0,22.9,30.00,West,275,0.0,13.0,54,0.00,,---,0.01,VWS V13.01,2013-02-13 15:14:00,
2013-02-13 08:15:00,38.0,20.5,30.00,NNW,327,1.0,13.0,49,0.00,,---,0.01,VWS V13.01,2013-02-13 15:15:00,
2013-02-13 08:16:00,38.2,21.2,30.00,SSW,209,0.0,4.0,50,0.00,,---,0.01,VWS V13.01,2013-02-13 15:16:00,
2013-02-13 08:17:00,38.2,22.1,30.00,NE,37,4.0,7.0,52,0.00,,---,0.01,VWS V13.01,2013-02-13 15:17:00,
2013-02-13 08:18:00,38.2,21.7,30.00,North,5,1.0,7.0,51,0.00,,---,0.01,VWS V13.01,2013-02-13 15:18:00,
2013-02-13 08:19:00,38.2,22.6,30.00,NE,54,0.0,7.0,53,0.00,,---,0.01,VWS V13.01,2013-02-13 15:19:00,
2013-02-13 08:20:00,38.2,21.7,30.00,NNW,342,1.0,7.0,51,0.00,,---,0.01,VWS V13.01,2013-02-13 15:20:00,
2013-02-13 08:21:00,38.2,21.7,30.00,ESE,106,1.0,3.0,51,0.00,,---,0.01,VWS V13.01,2013-02-13 15:21:00,
2013-02-13 08:22:00,38.2,22.1,30.00,NNW,344,6.0,6.0,52,0.00,,---,0.01,VWS V13.01,2013-02-13 15:22:00,
2013-02-13 08:23:00,38.2,21.7,30.00,South,189,4.0,6.0,51,0.00,,---,0.01,VWS V13.01,2013-02-13 15:23:00,
2013-02-13 08:24:00,38.2,20.7,30.00,ENE,59,1.0,6.0,49,0.00,,---,0.01,VWS V13.01,2013-02-13 15:24:00,
2013-02-13 08:25:00,38.2,22.1,30.00,NW,313,10.0,13.0,52,0.00,,---,0.01,VWS V13.01,2013-02-13 15:25:00,
2013-02-13 08:26:00,38.2,22.1,30.00,East,88,0.0,10.0,52,0.00,,---,0.01,VWS V13.01,2013-02-13 15:26:00,
2013-02-13 08:27:00,38.2,22.6,30.00,East,80,1.0,10.0,53,0.00,,---,0.01,VWS V13.01,2013-02-13 15:27:00,
2013-02-13 08:28:00,38.2,21.7,30.00,NE,46,0.0,10.0,51,0.00,,---,0.01,VWS V13.01,2013-02-13 15:28:00,
2013-02-13 08:29:00,38.2,23.0,30.00,East,85,2.0,10.0,54,0.00,,---,0.01,VWS V13.01,2013-02-13 15:29:00,
2013-02-13 08:30:00,38.2,21.7,30.00,ENE,62,3.0,10.0,51,0.00,,---,0.01,VWS V13.01,2013-02-13 15:30:00,
2013-02-13 08:31:00,38.2,22.1,30.00,East,85,1.0,7.0,52,0.00,,---,0.01,VWS V13.01,2013-02-13 15:31:00,
2013-02-13 08:32:00,38.2,21.7,30.00,East,100,0.0,10.0,51,0.00,,---,0.01,VWS V13.01,2013-02-13 15:32:00,
2013-02-13 08:33:00,38.2,21.7,30.00,NNE,22,3.0,10.0,51,0.00,,---,0.01,VWS V13.01,2013-02-13 15:33:00,
2013-02-13 08:34:00,38.2,22.1,30.00,NNE,20,3.0,10.0,52,0.00,,---,0.01,VWS V13.01,2013-02-13 15:34:00,
2013-02-13 08:35:00,38.2,22.1,30.00,North,5,7.0,10.0,52,0.00,,---,0.01,VWS V13.01,2013-02-13 15:35:00,
2013-02-13 08:36:00,38.2,22.6,30.00,North,9,9.0,13.0,53,0.00,,---,0.01,VWS V13.01,2013-02-13 15:36:00,
2013-02-13 08:37:00,38.0,21.0,30.00,North,5,1.0,14.0,50,0.00,,---,0.01,VWS V13.01,2013-02-13 15:37:00,
2013-02-13 08:38:00,38.0,21.0,30.00,NNE,23,7.0,14.0,50,0.00,,---,0.01,VWS V13.01,2013-02-13 15:38:00,
2013-02-13 08:39:00,38.0,22.0,30.00,ESE,119,1.0,14.0,52,0.00,,---,0.01,VWS V13.01,2013-02-13 15:39:00,
2013-02-13 08:40:00,38.0,21.0,30.00,ESE,119,0.0,14.0,50,0.00,,---,0.01,VWS V13.01,2013-02-13 15:40:00,
2013-02-13 08:41:00,38.2,20.7,30.00,WSW,257,5.0,11.0,49,0.00,,---,0.01,VWS V13.01,2013-02-13 15:41:00,
2013-02-13 08:42:00,38.2,21.7,30.00,NW,321,1.0,12.0,51,0.00,,---,0.01,VWS V13.01,2013-02-13 15:42:00,
2013-02-13 08:43:00,38.2,21.7,30.00,NE,51,2.0,12.0,51,0.00,,---,0.01,VWS V13.01,2013-02-13 15:43:00,
2013-02-13 08:44:00,38.2,22.1,29.99,NE,49,12.0,12.0,52,0.00,,---,0.01,VWS V13.01,2013-02-13 15:44:00,
2013-02-13 08:45:00,38.2,22.1,29.99,NNW,331,5.0,15.0,52,0.00,,---,0.01,VWS V13.01,2013-02-13 15:45:00,
2013-02-13 08:46:00,38.2,21.2,29.99,WNW,285,4.0,10.0,50,0.00,,---,0.01,VWS V13.01,2013-02-13 15:46:00,
2013-02-13 08:47:00,38.2,20.7,29.99,NW,313,0.0,10.0,49,0.00,,---,0.01,VWS V13.01,2013-02-13 15:47:00,
2013-02-13 08:48:00,38.2,21.7,29.99,North,360,5.0,10.0,51,0.00,,---,0.01,VWS V13.01,2013-02-13 15:48:00,
2013-02-13 08:49:00,38.2,21.7,29.99,NW,316,2.0,13.0,51,0.00,,---,0.01,VWS V13.01,2013-02-13 15:49:00,
2013-02-13 08:50:00,38.2,21.2,29.99,North,355,1.0,13.0,50,0.00,,---,0.01,VWS V13.01,2013-02-13 15:50:00,
2013-02-13 08:51:00,38.2,22.6,29.99,NNE,25,4.0,4.0,53,0.00,,---,0.01,VWS V13.01,2013-02-13 15:51:00,
2013-02-13 08:52:00,38.2,22.6,29.99,ENE,69,5.0,7.0,53,0.00,,---,0.01,VWS V13.01,2013-02-13 15:52:00,
2013-02-13 08:53:00,38.2,22.1,29.99,West,259,5.0,7.0,52,0.00,,---,0.01,VWS V13.01,2013-02-13 15:53:00,
2013-02-13 08:54:00,38.2,21.2,29.99,ENE,63,4.0,7.0,50,0.00,,---,0.01,VWS V13.01,2013-02-13 15:54:00,
2013-02-13 08:55:00,38.2,22.1,29.99,SSW,199,1.0,7.0,52,0.00,,---,0.01,VWS V13.01,2013-02-13 15:55:00,
2013-02-13 08:56:00,38.2,21.7,29.99,NNW,336,0.0,7.0,51,0.00,,---,0.01,VWS V13.01,2013-02-13 15:56:00,
2013-02-13 08:57:00,38.2,21.7,29.99,NNW,330,5.0,7.0,51,0.00,,---,0.01,VWS V13.01,2013-02-13 15:57:00,
2013-02-13 08:58:00,38.2,21.2,29.99,West,261,2.0,7.0,50,0.00,,---,0.01,VWS V13.01,2013-02-13 15:58:00,
2013-02-13 08:59:00,38.2,21.2,30.01,NNW,330,1.0,7.0,50,0.00,,---,0.01,VWS V13.01,2013-02-13 15:59:00,
2013-02-13 09:00:00,38.2,21.2,30.01,North,5,1.0,7.0,50,0.00,,---,0.01,VWS V13.01,2013-02-13 16:00:00,
2013-02-13 09:01:00,38.3,21.8,30.01,North,355,0.0,4.0,51,0.00,,---,0.01,VWS V13.01,2013-02-13 16:01:00,
2013-02-13 09:02:00,38.3,21.8,30.01,North,355,0.0,4.0,51,0.00,,---,0.01,VWS V13.01,2013-02-13 16:02:00,
2013-02-13 09:03:00,38.3,21.3,30.01,East,101,0.0,4.0,50,0.00,,---,0.01,VWS V13.01,2013-02-13 16:03:00,
2013-02-13 09:04:00,38.3,21.8,30.01,ESE,103,0.0,4.0,51,0.00,,---,0.01,VWS V13.01,2013-02-13 16:04:00,
2013-02-13 09:05:00,38.3,21.3,30.01,ENE,58,4.0,4.0,50,0.00,,---,0.01,VWS V13.01,2013-02-13 16:05:00,
2013-02-13 09:06:00,38.3,21.8,30.01,West,269,0.0,7.0,51,0.00,,---,0.01,VWS V13.01,2013-02-13 16:06:00,
2013-02-13 09:07:00,38.3,20.8,30.01,WSW,244,0.0,7.0,49,0.00,,---,0.01,VWS V13.01,2013-02-13 16:07:00,
2013-02-13 09:08:00,38.5,21.5,30.01,WSW,242,0.0,7.0,50,0.00,,---,0.01,VWS V13.01,2013-02-13 16:08:00,
2013-02-13 09:09:00,38.5,21.5,30.01,NE,42,4.0,7.0,50,0.00,,---,0.01,VWS V13.01,2013-02-13 16:09:00,
2013-02-13 09:10:00,38.5,21.5,30.01,NNE,26,6.0,7.0,50,0.00,,---,0.01,VWS V13.01,2013-02-13 16:10:00,
2013-02-13 09:11:00,38.5,21.5,30.01,WNW,298,2.0,7.0,50,0.00,,---,0.01,VWS V13.01,2013-02-13 16:11:00,
2013-02-13 09:12:00,38.5,21.5,30.01,NNE,19,0.0,7.0,50,0.00,,---,0.01,VWS V13.01,2013-02-13 16:12:00,
2013-02-13 09:13:00,38.5,22.4,30.01,ENE,65,2.0,7.0,52,0.00,,---,0.01,VWS V13.01,2013-02-13 16:13:00,
2013-02-13 09:14:00,38.5,22.9,30.01,ENE,63,0.0,7.0,53,0.00,,---,0.01,VWS V13.01,2013-02-13 16:14:00,
2013-02-13 09:15:00,38.5,21.5,30.01,NNW,342,0.0,7.0,50,0.00,,---,0.01,VWS V13.01,2013-02-13 16:15:00,
2013-02-13 09:16:00,38.5,22.0,30.01,NNE,32,0.0,3.0,51,0.00,,---,0.01,VWS V13.01,2013-02-13 16:16:00,
2013-02-13 09:17:00,38.5,22.0,30.01,West,269,1.0,3.0,51,0.00,,---,0.01,VWS V13.01,2013-02-13 16:17:00,
2013-02-13 09:18:00,38.5,21.0,30.01,WNW,292,1.0,3.0,49,0.00,,---,0.01,VWS V13.01,2013-02-13 16:18:00,
2013-02-13 09:19:00,38.5,22.0,30.01,ENE,69,1.0,5.0,51,0.00,,---,0.01,VWS V13.01,2013-02-13 16:19:00,
2013-02-13 09:20:00,38.5,22.0,30.01,NE,49,1.0,5.0,51,0.00,,---,0.01,VWS V13.01,2013-02-13 16:20:00,
2013-02-13 09:21:00,38.5,22.4,30.01,NE,46,0.0,1.0,52,0.00,,---,0.01,VWS V13.01,2013-02-13 16:21:00,
2013-02-13 09:22:00,38.5,22.4,30.01,West,281,9.0,11.0,52,0.00,,---,0.01,VWS V13.01,2013-02-13 16:22:00,
2013-02-13 09:23:00,38.5,20.5,30.01,North,360,0.0,11.0,48,0.00,,---,0.01,VWS V13.01,2013-02-13 16:23:00,
2013-02-13 09:24:00,38.6,22.0,30.01,NNW,346,0.0,11.0,51,0.00,,---,0.01,VWS V13.01,2013-02-13 16:24:00,
2013-02-13 09:25:00,38.6,21.6,30.01,West,272,1.0,11.0,50,0.00,,---,0.01,VWS V13.01,2013-02-13 16:25:00,
2013-02-13 09:26:00,38.6,21.1,30.01,SW,222,2.0,5.0,49,0.00,,---,0.01,VWS V13.01,2013-02-13 16:26:00,
2013-02-13 09:27:00,38.6,21.6,30.01,NE,34,0.0,5.0,50,0.00,,---,0.01,VWS V13.01,2013-02-13 16:27:00,
2013-02-13 09:28:00,38.6,21.1,30.01,WNW,296,3.0,5.0,49,0.00,,---,0.01,VWS V13.01,2013-02-13 16:28:00,
2013-02-13 09:29:00,38.8,20.3,30.01,West,279,0.0,5.0,47,0.00,,---,0.01,VWS V13.01,2013-02-13 16:29:00,
2013-02-13 09:30:00,38.8,21.3,30.01,NNE,26,1.0,5.0,49,0.00,,---,0.01,VWS V13.01,2013-02-13 16:30:00,
2013-02-13 09:31:00,38.8,22.2,30.01,NE,46,3.0,4.0,51,0.00,,---,0.01,VWS V13.01,2013-02-13 16:31:00,
2013-02-13 09:32:00,38.8,21.3,30.01,WNW,291,2.0,4.0,49,0.00,,---,0.01,VWS V13.01,2013-02-13 16:32:00,
2013-02-13 09:33:00,38.8,22.2,30.01,West,262,1.0,5.0,51,0.00,,---,0.01,VWS V13.01,2013-02-13 16:33:00,
2013-02-13 09:34:00,38.8,21.3,30.01,NNE,17,9.0,9.0,49,0.00,,---,0.01,VWS V13.01,2013-02-13 16:34:00,
2013-02-13 09:35:00,38.8,21.3,30.01,NE,48,1.0,9.0,49,0.00,,---,0.01,VWS V13.01,2013-02-13 16:35:00,
2013-02-13 09:36:00,38.8,22.2,30.01,NNW,336,0.0,4.0,51,0.00,,---,0.01,VWS V13.01,2013-02-13 16:36:00,
2013-02-13 09:37:00,38.8,21.8,30.01,NNE,30,0.0,4.0,50,0.00,,---,0.01,VWS V13.01,2013-02-13 16:37:00,
2013-02-13 09:38:00,38.9,20.9,30.01,NNW,346,4.0,6.0,48,0.00,,---,0.01,VWS V13.01,2013-02-13 16:38:00,
2013-02-13 09:39:00,38.9,20.4,30.01,ENE,65,5.0,8.0,47,0.00,,---,0.01,VWS V13.01,2013-02-13 16:39:00,
2013-02-13 09:40:00,38.9,20.9,30.01,NE,35,4.0,8.0,48,0.00,,---,0.01,VWS V13.01,2013-02-13 16:40:00,
2013-02-13 09:41:00,38.9,22.3,30.01,SSW,213,3.0,4.0,51,0.00,,---,0.01,VWS V13.01,2013-02-13 16:41:00,
2013-02-13 09:42:00,38.9,20.4,30.01,West,260,1.0,9.0,47,0.00,,---,0.01,VWS V13.01,2013-02-13 16:42:00,
2013-02-13 09:43:00,38.9,21.4,30.01,North,5,9.0,12.0,49,0.00,,---,0.01,VWS V13.01,2013-02-13 16:43:00,
2013-02-13 09:44:00,38.9,21.9,30.01,WSW,248,1.0,12.0,50,0.00,,---,0.01,VWS V13.01,2013-02-13 16:44:00,
2013-02-13 09:45:00,38.9,20.9,30.01,WNW,294,3.0,12.0,48,0.00,,---,0.01,VWS V13.01,2013-02-13 16:45:00,
2013-02-13 09:46:00,38.9,20.9,30.01,SE,128,0.0,5.0,48,0.00,,---,0.01,VWS V13.01,2013-02-13 16:46:00,
2013-02-13 09:47:00,39.1,20.6,30.01,NE,42,3.0,5.0,47,0.00,,---,0.01,VWS V13.01,2013-02-13 16:47:00,
2013-02-13 09:48:00,39.1,20.6,30.01,SSW,205,4.0,10.0,47,0.00,,---,0.01,VWS V13.01,2013-02-13 16:48:00,
2013-02-13 09:49:00,39.1,20.6,30.01,NW,307,2.0,10.0,47,0.00,,---,0.01,VWS V13.01,2013-02-13 16:49:00,
2013-02-13 09:50:00,39.1,21.1,30.01,East,86,2.0,10.0,48,0.00,,---,0.01,VWS V13.01,2013-02-13 16:50:00,
2013-02-13 09:51:00,39.1,21.1,30.01,South,173,1.0,9.0,48,0.00,,---,0.01,VWS V13.01,2013-02-13 16:51:00,
2013-02-13 09:52:00,39.1,20.6,30.01,North,355,0.0,14.0,47,0.00,,---,0.01,VWS V13.01,2013-02-13 16:52:00,
2013-02-13 09:53:00,39.1,21.1,30.01,North,355,0.0,14.0,48,0.00,,---,0.01,VWS V13.01,2013-02-13 16:53:00,
2013-02-13 09:54:00,39.1,21.6,30.01,North,350,0.0,14.0,49,0.00,,---,0.01,VWS V13.01,2013-02-13 16:54:00,
2013-02-13 09:55:00,39.1,21.6,30.01,ESE,109,2.0,14.0,49,0.00,,---,0.01,VWS V13.01,2013-02-13 16:55:00,
2013-02-13 09:56:00,39.1,21.1,30.01,NNW,338,0.0,2.0,48,0.00,,---,0.01,VWS V13.01,2013-02-13 16:56:00,
2013-02-13 09:57:00,39.1,21.6,30.01,SW,229,1.0,3.0,49,0.00,,---,0.01,VWS V13.01,2013-02-13 16:57:00,
2013-02-13 09:58:00,39.2,20.7,30.01,South,178,0.0,4.0,47,0.00,,---,0.01,VWS V13.01,2013-02-13 16:58:00,
2013-02-13 09:59:00,39.2,21.2,30.02,NNW,346,0.0,4.0,48,0.00,,---,0.01,VWS V13.01,2013-02-13 16:59:00,
2013-02-13 10:00:00,39.2,21.2,30.02,North,5,6.0,10.0,48,0.00,,---,0.01,VWS V13.01,2013-02-13 17:00:00,
2013-02-13 10:01:00,39.2,21.7,30.02,ENE,71,4.0,10.0,49,0.00,,---,0.01,VWS V13.01,2013-02-13 17:01:00,
2013-02-13 10:02:00,39.2,21.7,30.02,NNE,22,10.0,10.0,49,0.00,,---,0.01,VWS V13.01,2013-02-13 17:02:00,
2013-02-13 10:03:00,39.1,21.6,30.02,NNW,335,1.0,10.0,49,0.00,,---,0.01,VWS V13.01,2013-02-13 17:03:00,
2013-02-13 10:04:00,39.1,20.6,30.02,SW,225,3.0,10.0,47,0.00,,---,0.01,VWS V13.01,2013-02-13 17:04:00,
2013-02-13 10:05:00,39.1,20.6,30.02,ENE,65,2.0,10.0,47,0.00,,---,0.01,VWS V13.01,2013-02-13 17:05:00,
2013-02-13 10:06:00,39.1,21.6,30.02,WNW,288,9.0,9.0,49,0.00,,---,0.01,VWS V13.01,2013-02-13 17:06:00,
2013-02-13 10:07:00,39.1,20.1,30.02,East,87,0.0,14.0,46,0.00,,---,0.01,VWS V13.01,2013-02-13 17:07:00,
2013-02-13 10:08:00,39.2,20.7,30.02,SSW,211,0.0,14.0,47,0.00,,---,0.01,VWS V13.01,2013-02-13 17:08:00,
2013-02-13 10:09:00,39.2,21.7,30.02,South,178,0.0,14.0,49,0.00,,---,0.01,VWS V13.01,2013-02-13 17:09:00,
2013-02-13 10:10:00,39.2,21.7,30.02,NNE,30,3.0,14.0,49,0.00,,---,0.01,VWS V13.01,2013-02-13 17:10:00,
2013-02-13 10:11:00,39.3,22.2,30.02,NE,49,2.0,3.0,50,0.00,,---,0.01,VWS V13.01,2013-02-13 17:11:00,
2013-02-13 10:12:00,39.3,22.2,30.02,NNE,13,1.0,3.0,50,0.00,,---,0.01,VWS V13.01,2013-02-13 17:12:00,
2013-02-13 10:13:00,39.3,21.8,30.02,NNE,26,0.0,3.0,49,0.00,,---,0.01,VWS V13.01,2013-02-13 17:13:00,
2013-02-13 10:14:00,39.3,21.8,30.02,East,82,1.0,6.0,49,0.00,,---,0.01,VWS V13.01,2013-02-13 17:14:00,
2013-02-13 10:15:00,39.3,21.3,30.02,West,279,12.0,12.0,48,0.00,,---,0.01,VWS V13.01,2013-02-13 17:15:00,
2013-02-13 10:16:00,39.3,20.8,30.02,ESE,106,7.0,12.0,47,0.00,,---,0.01,VWS V13.01,2013-02-13 17:16:00,
2013-02-13 10:17:00,39.3,21.8,30.02,North,360,3.0,12.0,49,0.00,,---,0.01,VWS V13.01,2013-02-13 17:17:00,
2013-02-13 10:18:00,39.3,20.8,30.02,NE,46,2.0,13.0,47,0.00,,---,0.01,VWS V13.01,2013-02-13 17:18:00,
2013-02-13 10:19:00,39.3,20.8,30.02,NNW,332,3.0,13.0,47,0.00,,---,0.01,VWS V13.01,2013-02-13 17:19:00,
2013-02-13 10:20:00,39.3,20.8,30.02,NNE,30,3.0,13.0,47,0.00,,---,0.01,VWS V13.01,2013-02-13 17:20:00,
2013-02-13 10:21:00,39.3,22.2,30.02,ESE,119,6.0,7.0,50,0.00,,---,0.01,VWS V13.01,2013-02-13 17:21:00,
2013-02-13 10:22:00,39.3,20.3,30.02,ENE,71,1.0,7.0,46,0.00,,---,0.01,VWS V13.01,2013-02-13 17:22:00,
2013-02-13 10:23:00,39.3,21.3,30.02,East,88,1.0,7.0,48,0.00,,---,0.01,VWS V13.01,2013-02-13 17:23:00,
2013-02-13 10:24:00,39.3,20.8,30.02,WSW,241,12.0,13.0,47,0.00,,---,0.01,VWS V13.01,2013-02-13 17:24:00,
2013-02-13 10:25:00,39.3,19.8,30.02,NE,42,9.0,13.0,45,0.00,,---,0.01,VWS V13.01,2013-02-13 17:25:00,
2013-02-13 10:26:00,39.3,22.2,30.02,NNW,332,6.0,9.0,50,0.00,,---,0.01,VWS V13.01,2013-02-13 17:26:00,
2013-02-13 10:27:00,39.3,20.3,30.02,ESE,105,0.0,9.0,46,0.00,,---,0.01,VWS V13.01,2013-02-13 17:27:00,
2013-02-13 10:28:00,39.5,19.9,30.02,ENE,58,3.0,9.0,45,0.00,,---,0.01,VWS V13.01,2013-02-13 17:28:00,
2013-02-13 10:29:00,39.5,20.5,30.02,NE,45,3.0,9.0,46,0.00,,---,0.01,VWS V13.01,2013-02-13 17:29:00,
2013-02-13 10:30:00,39.5,22.4,30.02,SSW,207,1.0,10.0,50,0.00,,---,0.01,VWS V13.01,2013-02-13 17:30:00,
2013-02-13 10:31:00,39.5,21.0,30.02,NNW,337,0.0,16.0,47,0.00,,---,0.01,VWS V13.01,2013-02-13 17:31:00,
2013-02-13 10:32:00,39.5,19.9,30.02,East,101,3.0,16.0,45,0.00,,---,0.01,VWS V13.01,2013-02-13 17:32:00,
2013-02-13 10:33:00,39.5,19.9,30.02,NNW,340,6.0,16.0,45,0.00,,---,0.01,VWS V13.01,2013-02-13 17:33:00,
2013-02-13 10:34:00,39.5,20.5,30.02,ENE,66,2.0,16.0,46,0.00,,---,0.01,VWS V13.01,2013-02-13 17:34:00,
2013-02-13 10:35:00,39.5,20.5,30.02,ENE,59,0.0,16.0,46,0.00,,---,0.01,VWS V13.01,2013-02-13 17:35:00,
2013-02-13 10:36:00,39.3,21.3,30.02,North,5,6.0,6.0,48,0.00,,---,0.01,VWS V13.01,2013-02-13 17:36:00,
2013-02-13 10:37:00,39.3,20.3,30.02,NW,326,5.0,6.0,46,0.00,,---,0.01,VWS V13.01,2013-02-13 17:37:00,
2013-02-13 10:38:00,39.2,19.7,30.02,East,101,0.0,6.0,45,0.00,,---,0.01,VWS V13.01,2013-02-13 17:38:00,
2013-02-13 10:39:00,39.2,21.2,30.02,North,9,7.0,7.0,48,0.00,,---,0.01,VWS V13.01,2013-02-13 17:39:00,
2013-02-13 10:40:00,39.2,21.2,30.02,NNE,20,0.0,7.0,48,0.00,,---,0.01,VWS V13.01,2013-02-13 17:40:00,
2013-02-13 10:41:00,39.2,20.2,30.02,NNE,19,0.0,6.0,46,0.00,,---,0.01,VWS V13.01,2013-02-13 17:41:00,
2013-02-13 10:42:00,39.2,20.7,30.02,SW,214,7.0,7.0,47,0.00,,---,0.01,VWS V13.01,2013-02-13 17:42:00,
2013-02-13 10:43:00,39.2,20.7,30.02,NNE,15,7.0,7.0,47,0.00,,---,0.01,VWS V13.01,2013-02-13 17:43:00,
2013-02-13 10:44:00,39.1,21.1,30.02,NNW,332,10.0,22.0,48,0.00,,---,0.01,VWS V13.01,2013-02-13 17:44:00,
2013-02-13 10:45:00,39.1,22.0,30.02,NNW,346,3.0,22.0,50,0.00,,---,0.01,VWS V13.01,2013-02-13 17:45:00,
2013-02-13 10:46:00,38.9,21.9,30.02,North,5,4.0,5.0,50,0.00,,---,0.01,VWS V13.01,2013-02-13 17:46:00,
2013-02-13 10:47:00,38.9,21.4,30.02,NNW,336,4.0,5.0,49,0.00,,---,0.01,VWS V13.01,2013-02-13 17:47:00,
2013-02-13 10:48:00,38.8,21.3,30.02,North,5,0.0,5.0,49,0.00,,---,0.01,VWS V13.01,2013-02-13 17:48:00,
2013-02-13 10:49:00,38.8,21.8,30.02,NNE,15,0.0,5.0,50,0.00,,---,0.01,VWS V13.01,2013-02-13 17:49:00,
2013-02-13 10:50:00,38.8,21.3,30.02,ENE,61,4.0,5.0,49,0.00,,---,0.01,VWS V13.01,2013-02-13 17:50:00,
2013-02-13 10:51:00,38.8,20.8,30.02,NE,41,0.0,4.0,48,0.00,,---,0.01,VWS V13.01,2013-02-13 17:51:00,
2013-02-13 10:52:00,38.6,20.6,30.02,WSW,254,5.0,13.0,48,0.00,,---,0.01,VWS V13.01,2013-02-13 17:52:00,
2013-02-13 10:53:00,38.6,21.1,30.02,SSE,153,4.0,13.0,49,0.00,,---,0.01,VWS V13.01,2013-02-13 17:53:00,
2013-02-13 10:54:00,38.8,20.3,30.02,ENE,69,6.0,13.0,47,0.00,,---,0.01,VWS V13.01,2013-02-13 17:54:00,
2013-02-13 10:55:00,38.8,20.8,30.02,NW,326,10.0,13.0,48,0.00,,---,0.01,VWS V13.01,2013-02-13 17:55:00,
2013-02-13 10:56:00,38.8,21.3,30.02,NNE,19,3.0,11.0,49,0.00,,---,0.01,VWS V13.01,2013-02-13 17:56:00,
2013-02-13 10:57:00,38.8,20.8,30.02,NNE,12,4.0,11.0,48,0.00,,---,0.01,VWS V13.01,2013-02-13 17:57:00,
2013-02-13 10:58:00,38.8,21.3,30.02,NNE,30,2.0,11.0,49,0.00,,---,0.01,VWS V13.01,2013-02-13 17:58:00,
2013-02-13 10:59:00,38.8,20.3,30.03,North,349,3.0,11.0,47,0.00,,---,0.01,VWS V13.01,2013-02-13 17:59:00,
2013-02-13 11:00:00,38.6,20.6,30.03,NNW,334,4.0,11.0,48,0.00,,---,0.01,VWS V13.01,2013-02-13 18:00:00,
2013-02-13 11:01:00,38.6,20.6,30.03,NE,36,3.0,14.0,48,0.00,,---,0.01,VWS V13.01,2013-02-13 18:01:00,
2013-02-13 11:02:00,38.6,21.1,30.03,North,355,2.0,14.0,49,0.00,,---,0.01,VWS V13.01,2013-02-13 18:02:00,
2013-02-13 11:03:00,38.6,20.6,30.03,NNE,29,5.0,14.0,48,0.00,,---,0.01,VWS V13.01,2013-02-13 18:03:00,
2013-02-13 11:04:00,38.5,20.5,30.03,East,85,9.0,15.0,48,0.00,,---,0.01,VWS V13.01,2013-02-13 18:04:00,
2013-02-13 11:05:00,38.5,21.0,30.03,North,360,7.0,15.0,49,0.00,,---,0.01,VWS V13.01,2013-02-13 18:05:00,
2013-02-13 11:06:00,38.5,21.0,30.03,NNE,32,4.0,19.0,49,0.00,,---,0.01,VWS V13.01,2013-02-13 18:06:00,
2013-02-13 11:07:00,38.5,21.0,30.03,WNW,282,7.0,19.0,49,0.00,,---,0.01,VWS V13.01,2013-02-13 18:07:00,
2013-02-13 11:08:00,38.5,20.0,30.03,North,5,5.0,19.0,47,0.00,,---,0.01,VWS V13.01,2013-02-13 18:08:00,
2013-02-13 11:09:00,38.5,21.5,30.03,SW,234,4.0,19.0,50,0.00,,---,0.01,VWS V13.01,2013-02-13 18:09:00,
2013-02-13 11:10:00,38.5,19.5,30.03,WNW,294,2.0,19.0,46,0.00,,---,0.01,VWS V13.01,2013-02-13 18:10:00,
2013-02-13 11:11:00,38.6,20.1,30.03,South,189,2.0,15.0,47,0.00,,---,0.01,VWS V13.01,2013-02-13 18:11:00,
2013-02-13 11:12:00,38.6,20.1,30.03,West,280,2.0,15.0,47,0.00,,---,0.01,VWS V13.01,2013-02-13 18:12:00,
2013-02-13 11:13:00,38.6,20.1,30.03,North,355,0.0,15.0,47,0.00,,---,0.01,VWS V13.01,2013-02-13 18:13:00,
2013-02-13 11:14:00,38.8,20.8,30.04,East,83,1.0,15.0,48,0.00,,---,0.01,VWS V13.01,2013-02-13 18:14:00,
2013-02-13 11:15:00,38.8,21.3,30.04,East,91,3.0,15.0,49,0.00,,---,0.01,VWS V13.01,2013-02-13 18:15:00,
2013-02-13 11:16:00,38.8,20.8,30.04,East,94,7.0,7.0,48,0.00,,---,0.01,VWS V13.01,2013-02-13 18:16:00,
2013-02-13 11:17:00,38.8,21.3,30.04,North,11,2.0,9.0,49,0.00,,---,0.01,VWS V13.01,2013-02-13 18:17:00,
2013-02-13 11:18:00,38.8,20.8,30.04,NNE,18,1.0,9.0,48,0.00,,---,0.01,VWS V13.01,2013-02-13 18:18:00,
2013-02-13 11:19:00,38.8,20.3,30.04,NW,313,7.0,9.0,47,0.00,,---,0.01,VWS V13.01,2013-02-13 18:19:00,
2013-02-13 11:20:00,38.9,19.4,30.04,NNE,31,4.0,9.0,45,0.00,,---,0.01,VWS V13.01,2013-02-13 18:20:00,
2013-02-13 11:21:00,38.9,19.9,30.04,North,360,5.0,9.0,46,0.00,,---,0.01,VWS V13.01,2013-02-13 18:21:00,
2013-02-13 11:22:00,39.1,21.1,30.04,North,350,1.0,9.0,48,0.00,,---,0.01,VWS V13.01,2013-02-13 18:22:00,
2013-02-13 11:23:00,39.1,21.1,30.04,East,98,4.0,9.0,48,0.00,,---,0.01,VWS V13.01,2013-02-13 18:23:00,
2013-02-13 11:24:00,39.1,20.6,30.04,East,96,4.0,9.0,47,0.00,,---,0.01,VWS V13.01,2013-02-13 18:24:00,
2013-02-13 11:25:00,39.1,21.1,30.04,West,263,9.0,10.0,48,0.00,,---,0.01,VWS V13.01,2013-02-13 18:25:00,
2013-02-13 11:26:00,39.2,20.2,30.04,NNW,331,4.0,11.0,46,0.00,,---,0.01,VWS V13.01,2013-02-13 18:26:00,
2013-02-13 11:27:00,39.2,20.2,30.04,NNE,32,0.0,11.0,46,0.00,,---,0.01,VWS V13.01,2013-02-13 18:27:00,
2013-02-13 11:28:00,39.3,20.8,30.04,NW,325,10.0,11.0,47,0.00,,---,0.01,VWS V13.01,2013-02-13 18:28:00,
2013-02-13 11:29:00,39.3,21.3,30.04,North,355,0.0,11.0,48,0.00,,---,0.01,VWS V13.01,2013-02-13 18:29:00,
2013-02-13 11:30:00,39.5,21.0,30.04,East,93,2.0,11.0,47,0.00,,---,0.01,VWS V13.01,2013-02-13 18:30:00,
2013-02-13 11:31:00,39.5,21.0,30.04,NE,38,3.0,3.0,47,0.00,,---,0.01,VWS V13.01,2013-02-13 18:31:00,
2013-02-13 11:32:00,39.5,22.4,30.04,NNE,24,3.0,13.0,50,0.00,,---,0.01,VWS V13.01,2013-02-13 18:32:00,
2013-02-13 11:33:00,39.6,22.5,30.04,ENE,63,2.0,13.0,50,0.00,,---,0.01,VWS V13.01,2013-02-13 18:33:00,
2013-02-13 11:34:00,39.6,21.0,30.04,SW,231,1.0,13.0,47,0.00,,---,0.01,VWS V13.01,2013-02-13 18:34:00,
2013-02-13 11:35:00,39.6,21.0,30.04,SSE,150,9.0,13.0,47,0.00,,---,0.01,VWS V13.01,2013-02-13 18:35:00,
2013-02-13 11:36:00,39.8,21.2,30.04,NE,55,2.0,10.0,47,0.00,,---,0.01,VWS V13.01,2013-02-13 18:36:00,
2013-02-13 11:37:00,39.8,21.2,30.04,North,355,1.0,13.0,47,0.00,,---,0.01,VWS V13.01,2013-02-13 18:37:00,
2013-02-13 11:38:00,39.8,21.7,30.04,NNW,346,4.0,13.0,48,0.00,,---,0.01,VWS V13.01,2013-02-13 18:38:00,
2013-02-13 11:39:00,39.8,21.2,30.04,North,5,6.0,13.0,47,0.00,,---,0.01,VWS V13.01,2013-02-13 18:39:00,
2013-02-13 11:40:00,39.8,21.2,30.04,NNW,333,6.0,13.0,47,0.00,,---,0.01,VWS V13.01,2013-02-13 18:40:00,
2013-02-13 11:41:00,39.6,20.5,30.04,SW,233,2.0,6.0,46,0.00,,---,0.01,VWS V13.01,2013-02-13 18:41:00,
2013-02-13 11:42:00,39.6,20.0,30.04,SE,143,0.0,6.0,45,0.00,,---,0.01,VWS V13.01,2013-02-13 18:42:00,
2013-02-13 11:43:00,39.6,20.5,30.04,ESE,103,0.0,6.0,46,0.00,,---,0.01,VWS V13.01,2013-02-13 18:43:00,
2013-02-13 11:44:00,39.6,21.5,30.04,ENE,78,1.0,6.0,48,0.00,,---,0.01,VWS V13.01,2013-02-13 18:44:00,
2013-02-13 11:45:00,39.5,20.5,30.04,ESE,121,0.0,6.0,46,0.00,,---,0.01,VWS V13.01,2013-02-13 18:45:00,
2013-02-13 11:46:00,39.5,21.0,30.04,East,98,0.0,2.0,47,0.00,,---,0.01,VWS V13.01,2013-02-13 18:46:00,
2013-02-13 11:47:00,39.5,21.0,30.04,East,95,3.0,4.0,47,0.00,,---,0.01,VWS V13.01,2013-02-13 18:47:00,
2013-02-13 11:48:00,39.5,21.0,30.04,South,175,1.0,7.0,47,0.00,,---,0.01,VWS V13.01,2013-02-13 18:48:00,
2013-02-13 11:49:00,39.5,21.9,30.04,East,88,3.0,7.0,49,0.00,,---,0.01,VWS V13.01,2013-02-13 18:49:00,
2013-02-13 11:50:00,39.5,21.5,30.04,SSW,196,1.0,7.0,48,0.00,,---,0.01,VWS V13.01,2013-02-13 18:50:00,
2013-02-13 11:51:00,39.3,21.3,30.04,ESE,107,1.0,5.0,48,0.00,,---,0.01,VWS V13.01,2013-02-13 18:51:00,
2013-02-13 11:52:00,39.3,21.3,30.04,WSW,241,2.0,5.0,48,0.00,,---,0.01,VWS V13.01,2013-02-13 18:52:00,
2013-02-13 11:53:00,39.3,20.8,30.04,ENE,67,0.0,5.0,47,0.00,,---,0.01,VWS V13.01,2013-02-13 18:53:00,
2013-02-13 11:54:00,39.3,21.8,30.04,ENE,61,1.0,5.0,49,0.00,,---,0.01,VWS V13.01,2013-02-13 18:54:00,
2013-02-13 11:55:00,39.3,22.2,30.04,ENE,77,0.0,5.0,50,0.00,,---,0.01,VWS V13.01,2013-02-13 18:55:00,
2013-02-13 11:56:00,39.2,22.6,30.04,ENE,76,1.0,2.0,51,0.00,,---,0.01,VWS V13.01,2013-02-13 18:56:00,
2013-02-13 11:57:00,39.2,23.1,30.04,NNE,33,0.0,4.0,52,0.00,,---,0.01,VWS V13.01,2013-02-13 18:57:00,
2013-02-13 11:58:00,39.2,21.7,30.04,North,9,0.0,4.0,49,0.00,,---,0.01,VWS V13.01,2013-02-13 18:58:00,
2013-02-13 11:59:00,39.1,20.6,30.05,North,5,0.0,4.0,47,0.00,,---,0.01,VWS V13.01,2013-02-13 18:59:00,
2013-02-13 12:00:00,39.1,22.0,30.05,NNW,336,0.0,4.0,50,0.00,,---,0.01,VWS V13.01,2013-02-13 19:00:00,
2013-02-13 12:01:00,39.1,21.6,30.05,ENE,60,0.0,1.0,49,0.00,,---,0.01,VWS V13.01,2013-02-13 19:01:00,
2013-02-13 12:02:00,39.1,21.1,30.05,ENE,60,0.0,1.0,48,0.00,,---,0.01,VWS V13.01,2013-02-13 19:02:00,
2013-02-13 12:03:00,38.9,22.3,30.05,North,360,1.0,1.0,51,0.00,,---,0.01,VWS V13.01,2013-02-13 19:03:00,
2013-02-13 12:04:00,38.9,20.9,30.05,ENE,62,2.0,14.0,48,0.00,,---,0.01,VWS V13.01,2013-02-13 19:04:00,
2013-02-13 12:05:00,38.8,22.2,30.05,South,171,1.0,14.0,51,0.00,,---,0.01,VWS V13.01,2013-02-13 19:05:00,
2013-02-13 12:06:00,38.8,23.1,30.05,ENE,76,2.0,3.0,53,0.00,,---,0.01,VWS V13.01,2013-02-13 19:06:00,
2013-02-13 12:07:00,38.6,22.0,30.05,North,355,5.0,13.0,51,0.00,,---,0.01,VWS V13.01,2013-02-13 19:07:00,
2013-02-13 12:08:00,38.6,22.0,30.05,SE,128,0.0,13.0,51,0.00,,---,0.01,VWS V13.01,2013-02-13 19:08:00,
2013-02-13 12:09:00,38.6,20.6,30.05,NNE,32,5.0,13.0,48,0.00,,---,0.01,VWS V13.01,2013-02-13 19:09:00,
2013-02-13 12:10:00,38.6,21.1,30.05,SE,132,2.0,13.0,49,0.00,,---,0.01,VWS V13.01,2013-02-13 19:10:00,
2013-02-13 12:11:00,38.6,21.1,30.05,NNE,21,0.0,3.0,49,0.00,,---,0.01,VWS V13.01,2013-02-13 19:11:00,
2013-02-13 12:12:00,38.6,20.6,30.05,WSW,242,3.0,7.0,48,0.00,,---,0.01,VWS V13.01,2013-02-13 19:12:00,
2013-02-13 12:13:00,38.8,20.3,30.05,East,96,0.0,7.0,47,0.00,,---,0.01,VWS V13.01,2013-02-13 19:13:00,
2013-02-13 12:14:00,38.8,20.3,30.04,NW,310,0.0,7.0,47,0.00,,---,0.01,VWS V13.01,2013-02-13 19:14:00,
2013-02-13 12:15:00,38.8,19.8,30.04,WSW,244,0.0,7.0,46,0.00,,---,0.01,VWS V13.01,2013-02-13 19:15:00,
2013-02-13 12:16:00,38.9,20.9,30.04,ENE,65,0.0,3.0,48,0.00,,---,0.01,VWS V13.01,2013-02-13 19:16:00,
2013-02-13 12:17:00,38.9,20.4,30.04,ENE,78,3.0,4.0,47,0.00,,---,0.01,VWS V13.01,2013-02-13 19:17:00,
2013-02-13 12:18:00,39.1,20.1,30.04,ESE,119,0.0,4.0,46,0.00,,---,0.01,VWS V13.01,2013-02-13 19:18:00,
2013-02-13 12:19:00,39.1,20.1,30.04,East,88,2.0,5.0,46,0.00,,---,0.01,VWS V13.01,2013-02-13 19:19:00,
2013-02-13 12:20:00,39.2,21.7,30.04,East,88,0.0,5.0,49,0.00,,---,0.01,VWS V13.01,2013-02-13 19:20:00,
2013-02-13 12:21:00,39.2,21.2,30.04,North,10,0.0,3.0,48,0.00,,---,0.01,VWS V13.01,2013-02-13 19:21:00,
2013-02-13 12:22:00,39.2,21.7,30.04,ENE,61,2.0,7.0,49,0.00,,---,0.01,VWS V13.01,2013-02-13 19:22:00,
2013-02-13 12:23:00,39.2,20.7,30.04,ENE,74,0.0,7.0,47,0.00,,---,0.01,VWS V13.01,2013-02-13 19:23:00,
2013-02-13 12:24:00,39.3,21.8,30.04,NNE,30,2.0,7.0,49,0.00,,---,0.01,VWS V13.01,2013-02-13 19:24:00,
2013-02-13 12:25:00,39.3,22.2,30.04,NE,50,2.0,7.0,50,0.00,,---,0.01,VWS V13.01,2013-02-13 19:25:00,
2013-02-13 12:26:00,39.3,21.3,30.04,NE,49,0.0,2.0,48,0.00,,---,0.01,VWS V13.01,2013-02-13 19:26:00,
2013-02-13 12:27:00,39.3,21.3,30.04,NE,49,0.0,3.0,48,0.00,,---,0.01,VWS V13.01,2013-02-13 19:27:00,
2013-02-13 12:28:00,39.3,22.7,30.04,NE,54,0.0,3.0,51,0.00,,---,0.01,VWS V13.01,2013-02-13 19:28:00,
2013-02-13 12:29:00,39.5,21.9,30.05,North,355,1.0,3.0,49,0.00,,---,0.01,VWS V13.01,2013-02-13 19:29:00,
2013-02-13 12:30:00,39.5,21.9,30.05,NNW,333,0.0,5.0,49,0.00,,---,0.01,VWS V13.01,2013-02-13 19:30:00,
2013-02-13 12:31:00,39.6,20.5,30.05,ENE,65,0.0,5.0,46,0.00,,---,0.01,VWS V13.01,2013-02-13 19:31:00,
2013-02-13 12:32:00,39.6,21.0,30.05,NE,49,0.0,7.0,47,0.00,,---,0.01,VWS V13.01,2013-02-13 19:32:00,
2013-02-13 12:33:00,39.8,20.7,30.05,NNE,32,9.0,9.0,46,0.00,,---,0.01,VWS V13.01,2013-02-13 19:33:00,
2013-02-13 12:34:00,39.8,22.2,30.05,NNE,13,2.0,9.0,49,0.00,,---,0.01,VWS V13.01,2013-02-13 19:34:00,
2013-02-13 12:35:00,39.8,21.7,30.05,North,11,0.0,9.0,48,0.00,,---,0.01,VWS V13.01,2013-02-13 19:35:00,
2013-02-13 12:36:00,39.8,22.2,30.05,ENE,63,0.0,3.0,49,0.00,,---,0.01,VWS V13.01,2013-02-13 19:36:00,
2013-02-13 12:37:00,39.8,22.2,30.05,ENE,63,1.0,3.0,49,0.00,,---,0.01,VWS V13.01,2013-02-13 19:37:00,
2013-02-13 12:38:00,39.8,21.7,30.05,SE,145,1.0,9.0,48,0.00,,---,0.01,VWS V13.01,2013-02-13 19:38:00,
2013-02-13 12:39:00,39.8,21.7,30.05,North,355,1.0,9.0,48,0.00,,---,0.01,VWS V13.01,2013-02-13 19:39:00,
2013-02-13 12:40:00,39.6,21.0,30.05,NNW,348,5.0,9.0,47,0.00,,---,0.01,VWS V13.01,2013-02-13 19:40:00,
2013-02-13 12:41:00,39.5,21.9,30.05,NNE,16,4.0,9.0,49,0.00,,---,0.01,VWS V13.01,2013-02-13 19:41:00,
2013-02-13 12:42:00,39.5,22.4,30.05,ENE,76,3.0,9.0,50,0.00,,---,0.01,VWS V13.01,2013-02-13 19:42:00,
2013-02-13 12:43:00,39.3,22.2,30.05,NNW,338,0.0,9.0,50,0.00,,---,0.01,VWS V13.01,2013-02-13 19:43:00,
2013-02-13 12:44:00,39.2,21.2,30.04,NNE,30,2.0,13.0,48,0.00,,---,0.01,VWS V13.01,2013-02-13 19:44:00,
2013-02-13 12:45:00,39.1,22.0,30.04,NNE,24,4.0,13.0,50,0.00,,---,0.01,VWS V13.01,2013-02-13 19:45:00,
2013-02-13 12:46:00,38.9,21.9,30.04,East,95,3.0,5.0,50,0.00,,---,0.01,VWS V13.01,2013-02-13 19:46:00,
2013-02-13 12:47:00,38.9,20.9,30.04,NNE,15,4.0,5.0,48,0.00,,---,0.01,VWS V13.01,2013-02-13 19:47:00,
2013-02-13 12:48:00,38.8,21.3,30.04,North,351,0.0,10.0,49,0.00,,---,0.01,VWS V13.01,2013-02-13 19:48:00,
2013-02-13 12:49:00,38.8,20.8,30.04,NNE,24,1.0,10.0,48,0.00,,---,0.01,VWS V13.01,2013-02-13 19:49:00,
2013-02-13 12:50:00,38.8,21.3,30.04,SW,226,2.0,13.0,49,0.00,,---,0.01,VWS V13.01,2013-02-13 19:50:00,
2013-02-13 12:51:00,38.8,20.8,30.04,NNE,27,3.0,7.0,48,0.00,,---,0.01,VWS V13.01,2013-02-13 19:51:00,
2013-02-13 12:52:00,38.8,20.3,30.04,WSW,242,1.0,11.0,47,0.00,,---,0.01,VWS V13.01,2013-02-13 19:52:00,
2013-02-13 12:53:00,38.9,19.9,30.04,SSW,209,1.0,11.0,46,0.00,,---,0.01,VWS V13.01,2013-02-13 19:53:00,
2013-02-13 12:54:00,38.9,19.9,30.04,NW,314,4.0,11.0,46,0.00,,---,0.01,VWS V13.01,2013-02-13 19:54:00,
2013-02-13 12:55:00,38.9,20.9,30.04,WSW,249,4.0,11.0,48,0.00,,---,0.01,VWS V13.01,2013-02-13 19:55:00,
2013-02-13 12:56:00,39.1,20.1,30.04,WSW,256,1.0,4.0,46,0.00,,---,0.01,VWS V13.01,2013-02-13 19:56:00,
2013-02-13 12:57:00,39.2,20.2,30.04,NNE,14,1.0,5.0,46,0.00,,---,0.01,VWS V13.01,2013-02-13 19:57:00,
2013-02-13 12:58:00,39.2,20.2,30.04,SSW,194,0.0,5.0,46,0.00,,---,0.01,VWS V13.01,2013-02-13 19:58:00,
2013-02-13 12:59:00,39.2,20.2,30.04,NE,53,2.0,5.0,46,0.00,,---,0.01,VWS V13.01,2013-02-13 19:59:00,
2013-02-13 13:00:00,39.3,19.8,30.04,North,5,0.0,15.0,45,0.00,,---,0.01,VWS V13.01,2013-02-13 20:00:00,
2013-02-13 13:01:00,39.3,19.8,30.04,NNE,21,0.0,5.0,45,0.00,,---,0.01,VWS V13.01,2013-02-13 20:01:00,
2013-02-13 13:02:00,39.5,20.5,30.04,ENE,59,1.0,5.0,46,0.00,,---,0.01,VWS V13.01,2013-02-13 20:02:00,
2013-02-13 13:03:00,39.5,21.5,30.04,WSW,244,0.0,5.0,48,0.00,,---,0.01,VWS V13.01,2013-02-13 20:03:00,
2013-02-13 13:04:00,39.6,22.0,30.04,NE,41,4.0,10.0,49,0.00,,---,0.01,VWS V13.01,2013-02-13 20:04:00,
2013-02-13 13:05:00,39.6,22.5,30.04,NNE,17,0.0,10.0,50,0.00,,---,0.01,VWS V13.01,2013-02-13 20:05:00,
2013-02-13 13:06:00,39.8,22.7,30.04,North,5,1.0,5.0,50,0.00,,---,0.01,VWS V13.01,2013-02-13 20:06:00,
2013-02-13 13:07:00,39.9,21.3,30.04,NNE,15,2.0,5.0,47,0.00,,---,0.01,VWS V13.01,2013-02-13 20:07:00,
2013-02-13 13:08:00,39.9,22.3,30.04,East,96,0.0,6.0,49,0.00,,---,0.01,VWS V13.01,2013-02-13 20:08:00,
2013-02-13 13:09:00,40.1,22.5,30.04,NE,46,0.0,6.0,49,0.00,,---,0.01,VWS V13.01,2013-02-13 20:09:00,
2013-02-13 13:10:00,40.1,21.5,30.04,NE,39,3.0,6.0,47,0.00,,---,0.01,VWS V13.01,2013-02-13 20:10:00,
2013-02-13 13:11:00,40.2,22.1,30.04,NNW,328,3.0,6.0,48,0.00,,---,0.01,VWS V13.01,2013-02-13 20:11:00,
2013-02-13 13:12:00,40.2,21.6,30.04,NW,324,3.0,9.0,47,0.00,,---,0.01,VWS V13.01,2013-02-13 20:12:00,
2013-02-13 13:13:00,40.2,21.6,30.04,NE,34,4.0,9.0,47,0.00,,---,0.01,VWS V13.01,2013-02-13 20:13:00,
2013-02-13 13:14:00,40.3,21.7,30.03,ENE,63,0.0,9.0,47,0.00,,---,0.02,VWS V13.01,2013-02-13 20:14:00,
2013-02-13 13:15:00,40.3,21.7,30.03,North,355,6.0,9.0,47,0.01,,---,0.02,VWS V13.01,2013-02-13 20:15:00,
2013-02-13 13:16:00,40.3,21.7,30.03,NNE,22,0.0,11.0,47,0.01,,---,0.02,VWS V13.01,2013-02-13 20:16:00,
2013-02-13 13:17:00,40.3,20.7,30.03,North,355,2.0,11.0,45,0.01,,---,0.02,VWS V13.01,2013-02-13 20:17:00,
2013-02-13 13:18:00,40.3,21.2,30.03,SW,223,0.0,11.0,46,0.01,,---,0.02,VWS V13.01,2013-02-13 20:18:00,
2013-02-13 13:19:00,40.5,19.8,30.03,South,184,2.0,11.0,43,0.01,,---,0.02,VWS V13.01,2013-02-13 20:19:00,
2013-02-13 13:20:00,40.5,19.8,30.03,SSW,202,0.0,11.0,43,0.01,,---,0.02,VWS V13.01,2013-02-13 20:20:00,
2013-02-13 13:21:00,40.6,22.0,30.03,ENE,74,5.0,7.0,47,0.01,,---,0.02,VWS V13.01,2013-02-13 20:21:00,
2013-02-13 13:22:00,40.6,22.0,30.03,NE,38,0.0,14.0,47,0.01,,---,0.02,VWS V13.01,2013-02-13 20:22:00,
2013-02-13 13:23:00,40.6,22.0,30.03,NW,308,10.0,14.0,47,0.01,,---,0.02,VWS V13.01,2013-02-13 20:23:00,
2013-02-13 13:24:00,40.6,19.9,30.03,NE,53,1.0,14.0,43,0.01,,---,0.02,VWS V13.01,2013-02-13 20:24:00,
2013-02-13 13:25:00,40.6,19.3,30.03,East,98,0.0,14.0,42,0.01,,---,0.02,VWS V13.01,2013-02-13 20:25:00,
2013-02-13 13:26:00,40.6,20.9,30.03,NNW,344,4.0,9.0,45,0.01,,---,0.02,VWS V13.01,2013-02-13 20:26:00,
2013-02-13 13:27:00,40.8,18.9,30.03,NNE,14,6.0,9.0,41,0.01,,---,0.02,VWS V13.01,2013-02-13 20:27:00,
2013-02-13 13:28:00,40.8,18.9,30.03,ENE,67,1.0,12.0,41,0.01,,---,0.02,VWS V13.01,2013-02-13 20:28:00,
2013-02-13 13:29:00,40.8,21.1,30.02,NW,306,6.0,12.0,45,0.01,,---,0.02,VWS V13.01,2013-02-13 20:29:00,
2013-02-13 13:30:00,40.8,21.1,30.02,ESE,107,2.0,12.0,45,0.01,,---,0.02,VWS V13.01,2013-02-13 20:30:00,
2013-02-13 13:31:00,40.8,20.0,30.02,NNW,348,14.0,14.0,43,0.01,,---,0.02,VWS V13.01,2013-02-13 20:31:00,
2013-02-13 13:32:00,40.8,20.0,30.02,NNE,16,7.0,14.0,43,0.01,,---,0.02,VWS V13.01,2013-02-13 20:32:00,
2013-02-13 13:33:00,40.8,20.6,30.02,NNW,348,6.0,14.0,44,0.01,,---,0.02,VWS V13.01,2013-02-13 20:33:00,
2013-02-13 13:34:00,40.8,19.5,30.02,East,90,3.0,14.0,42,0.01,,---,0.02,VWS V13.01,2013-02-13 20:34:00,
2013-02-13 13:35:00,40.6,20.4,30.02,SW,232,2.0,14.0,44,0.01,,---,0.02,VWS V13.01,2013-02-13 20:35:00,
2013-02-13 13:36:00,40.6,18.2,30.02,SW,227,0.0,4.0,40,0.01,,---,0.02,VWS V13.01,2013-02-13 20:36:00,
2013-02-13 13:37:00,40.6,18.2,30.02,SW,226,0.0,4.0,40,0.01,,---,0.02,VWS V13.01,2013-02-13 20:37:00,
2013-02-13 13:38:00,40.6,19.3,30.02,NE,46,2.0,8.0,42,0.01,,---,0.02,VWS V13.01,2013-02-13 20:38:00,
2013-02-13 13:39:00,40.6,18.8,30.02,NNE,24,5.0,8.0,41,0.01,,---,0.02,VWS V13.01,2013-02-13 20:39:00,
2013-02-13 13:40:00,40.6,19.9,30.02,NNE,21,3.0,8.0,43,0.01,,---,0.02,VWS V13.01,2013-02-13 20:40:00,
2013-02-13 13:41:00,40.6,20.9,30.02,NNW,338,1.0,4.0,45,0.01,,---,0.02,VWS V13.01,2013-02-13 20:41:00,
2013-02-13 13:42:00,40.6,20.9,30.02,WSW,246,11.0,11.0,45,0.01,,---,0.02,VWS V13.01,2013-02-13 20:42:00,
2013-02-13 13:43:00,40.6,20.9,30.02,NE,44,4.0,16.0,45,0.01,,---,0.02,VWS V13.01,2013-02-13 20:43:00,
2013-02-13 13:44:00,40.6,20.9,30.03,NW,326,5.0,16.0,45,0.01,,---,0.02,VWS V13.01,2013-02-13 20:44:00,
2013-02-13 13:45:00,40.6,18.2,30.03,WSW,238,1.0,16.0,40,0.01,,---,0.02,VWS V13.01,2013-02-13 20:45:00,
2013-02-13 13:46:00,40.6,17.6,30.03,NNW,333,0.0,7.0,39,0.01,,---,0.02,VWS V13.01,2013-02-13 20:46:00,
2013-02-13 13:47:00,40.6,18.8,30.03,ESE,119,1.0,7.0,41,0.01,,---,0.02,VWS V13.01,2013-02-13 20:47:00,
2013-02-13 13:48:00,40.6,19.3,30.03,NW,326,1.0,7.0,42,0.01,,---,0.02,VWS V13.01,2013-02-13 20:48:00,
2013-02-13 13:49:00,40.6,19.3,30.03,SW,215,5.0,16.0,42,0.01,,---,0.02,VWS V13.01,2013-02-13 20:49:00,
2013-02-13 13:50:00,40.8,19.5,30.03,East,96,2.0,16.0,42,0.01,,---,0.02,VWS V13.01,2013-02-13 20:50:00,
2013-02-13 13:51:00,40.8,20.0,30.03,NE,40,3.0,5.0,43,0.01,,---,0.02,VWS V13.01,2013-02-13 20:51:00,
2013-02-13 13:52:00,40.8,20.0,30.03,NE,36,2.0,10.0,43,0.01,,---,0.02,VWS V13.01,2013-02-13 20:52:00,
2013-02-13 13:53:00,40.8,21.6,30.03,North,5,2.0,10.0,46,0.01,,---,0.02,VWS V13.01,2013-02-13 20:53:00,
2013-02-13 13:54:00,40.8,20.0,30.03,North,9,4.0,10.0,43,0.01,,---,0.02,VWS V13.01,2013-02-13 20:54:00,
2013-02-13 13:55:00,40.6,21.5,30.03,ENE,63,3.0,10.0,46,0.01,,---,0.02,VWS V13.01,2013-02-13 20:55:00,
2013-02-13 13:56:00,40.6,19.9,30.03,North,5,2.0,4.0,43,0.01,,---,0.02,VWS V13.01,2013-02-13 20:56:00,
2013-02-13 13:57:00,40.6,20.4,30.03,NE,47,3.0,11.0,44,0.01,,---,0.02,VWS V13.01,2013-02-13 20:57:00,
2013-02-13 13:58:00,40.5,18.7,30.03,NNW,334,10.0,11.0,41,0.01,,---,0.02,VWS V13.01,2013-02-13 20:58:00,
2013-02-13 13:59:00,40.5,19.8,30.03,West,272,4.0,11.0,43,0.01,,---,0.02,VWS V13.01,2013-02-13 20:59:00,
2013-02-13 14:00:00,40.3,17.3,30.03,West,280,2.0,11.0,39,0.01,,---,0.02,VWS V13.01,2013-02-13 21:00:00,
2013-02-13 14:01:00,40.3,18.5,30.03,NW,321,4.0,6.0,41,0.01,,---,0.02,VWS V13.01,2013-02-13 21:01:00,
2013-02-13 14:02:00,40.2,17.2,30.03,East,94,0.0,6.0,39,0.01,,---,0.02,VWS V13.01,2013-02-13 21:02:00,
2013-02-13 14:03:00,40.2,19.0,30.03,East,90,2.0,6.0,42,0.01,,---,0.02,VWS V13.01,2013-02-13 21:03:00,
2013-02-13 14:04:00,40.2,19.0,30.03,NE,52,3.0,12.0,42,0.01,,---,0.02,VWS V13.01,2013-02-13 21:04:00,
2013-02-13 14:05:00,40.1,18.9,30.03,SSE,161,3.0,12.0,42,0.01,,---,0.02,VWS V13.01,2013-02-13 21:05:00,
2013-02-13 14:06:00,40.1,18.9,30.03,NE,35,2.0,3.0,42,0.01,,---,0.02,VWS V13.01,2013-02-13 21:06:00,
2013-02-13 14:07:00,40.1,19.4,30.03,North,5,3.0,4.0,43,0.01,,---,0.02,VWS V13.01,2013-02-13 21:07:00,
2013-02-13 14:08:00,39.9,19.8,30.03,SW,226,0.0,4.0,44,0.01,,---,0.02,VWS V13.01,2013-02-13 21:08:00,
2013-02-13 14:09:00,39.9,19.8,30.03,NE,36,10.0,11.0,44,0.01,,---,0.02,VWS V13.01,2013-02-13 21:09:00,
2013-02-13 14:10:00,39.9,17.5,30.03,NNE,33,6.0,12.0,40,0.01,,---,0.02,VWS V13.01,2013-02-13 21:10:00,
2013-02-13 14:11:00,39.8,19.7,30.03,WNW,295,5.0,10.0,44,0.01,,---,0.02,VWS V13.01,2013-02-13 21:11:00,
2013-02-13 14:12:00,39.8,17.5,30.03,NNE,28,6.0,10.0,40,0.01,,---,0.02,VWS V13.01,2013-02-13 21:12:00,
2013-02-13 14:13:00,39.6,19.5,30.03,North,355,1.0,10.0,44,0.01,,---,0.02,VWS V13.01,2013-02-13 21:13:00,
2013-02-13 14:14:00,39.6,17.9,30.04,North,9,2.0,10.0,41,0.01,,---,0.02,VWS V13.01,2013-02-13 21:14:00,
2013-02-13 14:15:00,39.6,18.4,30.04,North,355,0.0,11.0,42,0.01,,---,0.02,VWS V13.01,2013-02-13 21:15:00,
2013-02-13 14:16:00,39.5,18.9,30.04,NNE,28,12.0,12.0,43,0.00,,---,0.02,VWS V13.01,2013-02-13 21:16:00,
2013-02-13 14:17:00,39.5,18.3,30.04,ESE,108,2.0,12.0,42,0.00,,---,0.02,VWS V13.01,2013-02-13 21:17:00,
2013-02-13 14:18:00,39.5,17.8,30.04,ENE,68,0.0,12.0,41,0.00,,---,0.02,VWS V13.01,2013-02-13 21:18:00,
2013-02-13 14:19:00,39.5,18.3,30.04,West,275,5.0,12.0,42,0.00,,---,0.02,VWS V13.01,2013-02-13 21:19:00,
2013-02-13 14:20:00,39.3,17.6,30.04,NW,322,3.0,12.0,41,0.00,,---,0.02,VWS V13.01,2013-02-13 21:20:00,
2013-02-13 14:21:00,39.3,18.1,30.04,WNW,298,3.0,8.0,42,0.00,,---,0.02,VWS V13.01,2013-02-13 21:21:00,
2013-02-13 14:22:00,39.3,18.7,30.04,West,261,4.0,11.0,43,0.00,,---,0.02,VWS V13.01,2013-02-13 21:22:00,
2013-02-13 14:23:00,39.3,17.6,30.04,NE,37,0.0,11.0,41,0.00,,---,0.02,VWS V13.01,2013-02-13 21:23:00,
2013-02-13 14:24:00,39.3,18.7,30.04,ENE,75,0.0,11.0,43,0.00,,---,0.02,VWS V13.01,2013-02-13 21:24:00,
2013-02-13 14:25:00,39.3,17.0,30.04,SSW,202,3.0,11.0,40,0.00,,---,0.02,VWS V13.01,2013-02-13 21:25:00,
2013-02-13 14:26:00,39.2,18.6,30.04,SW,214,3.0,10.0,43,0.00,,---,0.02,VWS V13.01,2013-02-13 21:26:00,
2013-02-13 14:27:00,39.2,17.5,30.04,East,81,1.0,10.0,41,0.00,,---,0.02,VWS V13.01,2013-02-13 21:27:00,
2013-02-13 14:28:00,39.2,19.7,30.04,NNE,19,5.0,10.0,45,0.00,,---,0.02,VWS V13.01,2013-02-13 21:28:00,
2013-02-13 14:29:00,39.2,19.1,30.04,NE,52,0.0,10.0,44,0.00,,---,0.02,VWS V13.01,2013-02-13 21:29:00,
2013-02-13 14:30:00,39.2,20.2,30.04,NW,304,1.0,10.0,46,0.00,,---,0.02,VWS V13.01,2013-02-13 21:30:00,
2013-02-13 14:31:00,39.2,19.7,30.04,NNE,20,0.0,10.0,45,0.00,,---,0.02,VWS V13.01,2013-02-13 21:31:00,
2013-02-13 14:32:00,39.1,19.0,30.04,ENE,77,2.0,10.0,44,0.00,,---,0.02,VWS V13.01,2013-02-13 21:32:00,
2013-02-13 14:33:00,39.1,19.0,30.04,NE,48,1.0,10.0,44,0.00,,---,0.02,VWS V13.01,2013-02-13 21:33:00,
2013-02-13 14:34:00,39.1,20.1,30.04,NE,42,1.0,10.0,46,0.00,,---,0.02,VWS V13.01,2013-02-13 21:34:00,
2013-02-13 14:35:00,39.1,19.0,30.04,ENE,73,1.0,10.0,44,0.00,,---,0.02,VWS V13.01,2013-02-13 21:35:00,
2013-02-13 14:36:00,38.9,19.9,30.04,NNE,12,3.0,11.0,46,0.00,,---,0.02,VWS V13.01,2013-02-13 21:36:00,
2013-02-13 14:37:00,38.9,18.3,30.04,ENE,57,1.0,11.0,43,0.00,,---,0.02,VWS V13.01,2013-02-13 21:37:00,
2013-02-13 14:38:00,38.9,17.8,30.04,WNW,288,12.0,12.0,42,0.00,,---,0.02,VWS V13.01,2013-02-13 21:38:00,
2013-02-13 14:39:00,38.9,17.2,30.04,NW,314,0.0,12.0,41,0.00,,---,0.02,VWS V13.01,2013-02-13 21:39:00,
2013-02-13 14:40:00,38.9,17.2,30.04,ENE,66,2.0,12.0,41,0.00,,---,0.02,VWS V13.01,2013-02-13 21:40:00,
2013-02-13 14:41:00,38.9,17.2,30.04,NE,41,7.0,12.0,41,0.00,,---,0.02,VWS V13.01,2013-02-13 21:41:00,
2013-02-13 14:42:00,38.9,17.8,30.04,West,261,2.0,12.0,42,0.00,,---,0.02,VWS V13.01,2013-02-13 21:42:00,
2013-02-13 14:43:00,38.9,17.8,30.04,NNE,23,2.0,12.0,42,0.00,,---,0.02,VWS V13.01,2013-02-13 21:43:00,
2013-02-13 14:44:00,38.9,19.4,30.05,NNE,24,1.0,12.0,45,0.00,,---,0.02,VWS V13.01,2013-02-13 21:44:00,
2013-02-13 14:45:00,38.9,19.9,30.05,NNE,19,1.0,12.0,46,0.00,,---,0.02,VWS V13.01,2013-02-13 21:45:00,
2013-02-13 14:46:00,38.9,17.8,30.05,West,273,4.0,4.0,42,0.00,,---,0.02,VWS V13.01,2013-02-13 21:46:00,
2013-02-13 14:47:00,38.9,17.2,30.05,NE,43,0.0,5.0,41,0.00,,---,0.02,VWS V13.01,2013-02-13 21:47:00,
2013-02-13 14:48:00,38.9,18.9,30.05,NE,51,1.0,5.0,44,0.00,,---,0.02,VWS V13.01,2013-02-13 21:48:00,
2013-02-13 14:49:00,38.9,20.4,30.05,NE,34,12.0,12.0,47,0.00,,---,0.02,VWS V13.01,2013-02-13 21:49:00,
2013-02-13 14:50:00,38.9,18.3,30.05,West,279,1.0,12.0,43,0.00,,---,0.02,VWS V13.01,2013-02-13 21:50:00,
2013-02-13 14:51:00,38.9,17.8,30.05,West,279,0.0,6.0,42,0.00,,---,0.02,VWS V13.01,2013-02-13 21:51:00,
2013-02-13 14:52:00,38.9,18.9,30.05,West,279,0.0,6.0,44,0.00,,---,0.02,VWS V13.01,2013-02-13 21:52:00,
2013-02-13 14:53:00,38.9,19.4,30.05,SE,143,2.0,6.0,45,0.00,,---,0.02,VWS V13.01,2013-02-13 21:53:00,
2013-02-13 14:54:00,38.9,18.3,30.05,ENE,73,2.0,6.0,43,0.00,,---,0.02,VWS V13.01,2013-02-13 21:54:00,
2013-02-13 14:55:00,38.9,19.9,30.05,ENE,71,0.0,6.0,46,0.00,,---,0.02,VWS V13.01,2013-02-13 21:55:00,
2013-02-13 14:56:00,38.9,19.9,30.05,North,355,1.0,4.0,46,0.00,,---,0.02,VWS V13.01,2013-02-13 21:56:00,
2013-02-13 14:57:00,38.9,18.9,30.05,East,90,1.0,6.0,44,0.00,,---,0.02,VWS V13.01,2013-02-13 21:57:00,
2013-02-13 14:58:00,38.9,18.9,30.05,SW,235,3.0,6.0,44,0.00,,---,0.02,VWS V13.01,2013-02-13 21:58:00,
2013-02-13 14:59:00,38.9,17.8,30.05,NW,309,5.0,6.0,42,0.00,,---,0.02,VWS V13.01,2013-02-13 21:59:00,
2013-02-13 15:00:00,38.9,18.9,30.05,NNW,340,1.0,6.0,44,0.00,,---,0.02,VWS V13.01,2013-02-13 22:00:00,
2013-02-13 15:01:00,38.9,18.3,30.05,NNW,340,0.0,1.0,43,0.00,,---,0.02,VWS V13.01,2013-02-13 22:01:00,
2013-02-13 15:02:00,38.9,19.4,30.05,WNW,284,4.0,4.0,45,0.00,,---,0.02,VWS V13.01,2013-02-13 22:02:00,
2013-02-13 15:03:00,38.9,18.3,30.05,NNW,336,2.0,4.0,43,0.00,,---,0.02,VWS V13.01,2013-02-13 22:03:00,
2013-02-13 15:04:00,38.9,19.9,30.05,South,178,0.0,4.0,46,0.00,,---,0.02,VWS V13.01,2013-02-13 22:04:00,
2013-02-13 15:05:00,38.9,19.4,30.05,South,178,1.0,4.0,45,0.00,,---,0.02,VWS V13.01,2013-02-13 22:05:00,
2013-02-13 15:06:00,38.9,20.4,30.05,NE,43,0.0,2.0,47,0.00,,---,0.02,VWS V13.01,2013-02-13 22:06:00,
2013-02-13 15:07:00,38.9,19.9,30.05,ENE,76,0.0,3.0,46,0.00,,---,0.02,VWS V13.01,2013-02-13 22:07:00,
2013-02-13 15:08:00,38.9,19.4,30.05,ENE,76,0.0,3.0,45,0.00,,---,0.02,VWS V13.01,2013-02-13 22:08:00,
2013-02-13 15:09:00,38.9,18.9,30.05,ESE,103,0.0,3.0,44,0.00,,---,0.02,VWS V13.01,2013-02-13 22:09:00,
2013-02-13 15:10:00,38.9,18.3,30.05,ESE,103,0.0,3.0,43,0.00,,---,0.02,VWS V13.01,2013-02-13 22:10:00,
2013-02-13 15:11:00,38.9,18.9,30.05,West,267,2.0,2.0,44,0.00,,---,0.02,VWS V13.01,2013-02-13 22:11:00,
2013-02-13 15:12:00,38.9,18.3,30.05,WNW,286,0.0,3.0,43,0.00,,---,0.02,VWS V13.01,2013-02-13 22:12:00,
2013-02-13 15:13:00,38.9,19.9,30.05,ENE,57,0.0,3.0,46,0.00,,---,0.02,VWS V13.01,2013-02-13 22:13:00,
2013-02-13 15:14:00,39.1,20.6,30.05,ENE,57,0.0,3.0,47,0.00,,---,0.02,VWS V13.01,2013-02-13 22:14:00,
2013-02-13 15:15:00,39.1,19.0,30.05,ENE,57,0.0,3.0,44,0.00,,---,0.02,VWS V13.01,2013-02-13 22:15:00,
2013-02-13 15:16:00,39.1,20.6,30.05,NNE,28,0.0,3.0,47,0.00,,---,0.02,VWS V13.01,2013-02-13 22:16:00,
2013-02-13 15:17:00,39.1,19.6,30.05,ENE,69,0.0,3.0,45,0.00,,---,0.02,VWS V13.01,2013-02-13 22:17:00,
2013-02-13 15:18:00,39.1,19.6,30.05,ENE,69,0.0,3.0,45,0.00,,---,0.02,VWS V13.01,2013-02-13 22:18:00,
2013-02-13 15:19:00,39.1,20.1,30.05,NNE,30,2.0,6.0,46,0.00,,---,0.02,VWS V13.01,2013-02-13 22:19:00,
2013-02-13 15:20:00,39.1,20.1,30.05,NNE,26,0.0,6.0,46,0.00,,---,0.02,VWS V13.01,2013-02-13 22:20:00,
2013-02-13 15:21:00,39.1,19.0,30.05,NNE,26,0.0,0.0,44,0.00,,---,0.02,VWS V13.01,2013-02-13 22:21:00,
2013-02-13 15:22:00,39.1,19.6,30.05,ENE,61,0.0,3.0,45,0.00,,---,0.02,VWS V13.01,2013-02-13 22:22:00,
2013-02-13 15:23:00,39.1,19.6,30.05,WNW,288,2.0,7.0,45,0.00,,---,0.02,VWS V13.01,2013-02-13 22:23:00,
2013-02-13 15:24:00,38.9,19.9,30.05,West,266,0.0,7.0,46,0.00,,---,0.02,VWS V13.01,2013-02-13 22:24:00,
2013-02-13 15:25:00,38.9,19.9,30.05,NW,315,1.0,7.0,46,0.00,,---,0.02,VWS V13.01,2013-02-13 22:25:00,
2013-02-13 15:26:00,38.9,19.4,30.05,WNW,302,0.0,1.0,45,0.00,,---,0.02,VWS V13.01,2013-02-13 22:26:00,
2013-02-13 15:27:00,38.9,19.9,30.05,North,355,0.0,1.0,46,0.00,,---,0.02,VWS V13.01,2013-02-13 22:27:00,
2013-02-13 15:28:00,38.9,21.4,30.05,NNE,17,3.0,3.0,49,0.00,,---,0.02,VWS V13.01,2013-02-13 22:28:00,
2013-02-13 15:29:00,38.9,21.4,30.05,WSW,248,0.0,5.0,49,0.00,,---,0.02,VWS V13.01,2013-02-13 22:29:00,
2013-02-13 15:30:00,38.9,20.4,30.05,East,86,1.0,5.0,47,0.00,,---,0.02,VWS V13.01,2013-02-13 22:30:00,
2013-02-13 15:31:00,38.9,21.4,30.05,NNE,26,0.0,5.0,49,0.00,,---,0.02,VWS V13.01,2013-02-13 22:31:00,
2013-02-13 15:32:00,38.9,20.9,30.05,NNW,329,3.0,5.0,48,0.00,,---,0.02,VWS V13.01,2013-02-13 22:32:00,
2013-02-13 15:33:00,38.9,20.4,30.05,ENE,78,1.0,6.0,47,0.00,,---,0.02,VWS V13.01,2013-02-13 22:33:00,
2013-02-13 15:34:00,38.8,20.8,30.05,NNW,339,1.0,6.0,48,0.00,,---,0.02,VWS V13.01,2013-02-13 22:34:00,
2013-02-13 15:35:00,38.8,21.3,30.05,NNW,329,3.0,6.0,49,0.00,,---,0.02,VWS V13.01,2013-02-13 22:35:00,
2013-02-13 15:36:00,38.8,20.8,30.05,NE,34,0.0,7.0,48,0.00,,---,0.02,VWS V13.01,2013-02-13 22:36:00,
2013-02-13 15:37:00,38.6,20.1,30.05,SW,220,1.0,7.0,47,0.00,,---,0.02,VWS V13.01,2013-02-13 22:37:00,
2013-02-13 15:38:00,38.6,19.6,30.05,North,5,0.0,7.0,46,0.00,,---,0.02,VWS V13.01,2013-02-13 22:38:00,
2013-02-13 15:39:00,38.6,21.1,30.05,NE,53,2.0,7.0,49,0.00,,---,0.02,VWS V13.01,2013-02-13 22:39:00,
2013-02-13 15:40:00,38.6,21.6,30.05,North,355,0.0,7.0,50,0.00,,---,0.02,VWS V13.01,2013-02-13 22:40:00,
2013-02-13 15:41:00,38.5,22.0,30.05,NNW,328,0.0,5.0,51,0.00,,---,0.02,VWS V13.01,2013-02-13 22:41:00,
2013-02-13 15:42:00,38.5,20.5,30.05,NNE,13,1.0,5.0,48,0.00,,---,0.02,VWS V13.01,2013-02-13 22:42:00,
2013-02-13 15:43:00,38.5,21.5,30.05,NNE,17,0.0,5.0,50,0.00,,---,0.02,VWS V13.01,2013-02-13 22:43:00,
2013-02-13 15:44:00,38.3,21.3,30.07,NNE,17,1.0,5.0,50,0.00,,---,0.02,VWS V13.01,2013-02-13 22:44:00,
2013-02-13 15:45:00,38.3,21.8,30.07,SW,221,1.0,5.0,51,0.00,,---,0.02,VWS V13.01,2013-02-13 22:45:00,
2013-02-13 15:46:00,38.3,19.9,30.07,NE,56,2.0,6.0,47,0.00,,---,0.02,VWS V13.01,2013-02-13 22:46:00,
2013-02-13 15:47:00,38.3,19.9,30.07,ENE,69,2.0,6.0,47,0.00,,---,0.02,VWS V13.01,2013-02-13 22:47:00,
2013-02-13 15:48:00,38.3,21.8,30.07,SW,227,2.0,7.0,51,0.00,,---,0.02,VWS V13.01,2013-02-13 22:48:00,
2013-02-13 15:49:00,38.3,20.4,30.07,NNE,32,0.0,7.0,48,0.00,,---,0.02,VWS V13.01,2013-02-13 22:49:00,
2013-02-13 15:50:00,38.3,20.4,30.07,NNE,32,1.0,7.0,48,0.00,,---,0.02,VWS V13.01,2013-02-13 22:50:00,
2013-02-13 15:51:00,38.2,20.2,30.07,East,95,0.0,2.0,48,0.00,,---,0.02,VWS V13.01,2013-02-13 22:51:00,
2013-02-13 15:52:00,38.2,20.2,30.07,NW,321,1.0,2.0,48,0.00,,---,0.02,VWS V13.01,2013-02-13 22:52:00,
2013-02-13 15:53:00,38.2,20.2,30.07,NNE,24,0.0,3.0,48,0.00,,---,0.02,VWS V13.01,2013-02-13 22:53:00,
2013-02-13 15:54:00,38.2,20.2,30.07,NW,304,0.0,3.0,48,0.00,,---,0.02,VWS V13.01,2013-02-13 22:54:00,
2013-02-13 15:55:00,38.2,20.7,30.07,NE,37,2.0,5.0,49,0.00,,---,0.02,VWS V13.01,2013-02-13 22:55:00,
2013-02-13 15:56:00,38.2,21.7,30.07,West,265,0.0,6.0,51,0.00,,---,0.02,VWS V13.01,2013-02-13 22:56:00,
2013-02-13 15:57:00,38.2,20.2,30.07,SW,223,0.0,6.0,48,0.00,,---,0.02,VWS V13.01,2013-02-13 22:57:00,
2013-02-13 15:58:00,38.2,20.2,30.07,WSW,250,4.0,6.0,48,0.00,,---,0.02,VWS V13.01,2013-02-13 22:58:00,
2013-02-13 15:59:00,38.2,19.8,30.07,SW,230,0.0,6.0,47,0.00,,---,0.02,VWS V13.01,2013-02-13 22:59:00,
2013-02-13 16:00:00,38.2,20.7,30.07,NE,40,0.0,6.0,49,0.00,,---,0.02,VWS V13.01,2013-02-13 23:00:00,
2013-02-13 16:01:00,38.2,20.2,30.07,NE,40,0.0,1.0,48,0.00,,---,0.02,VWS V13.01,2013-02-13 23:01:00,
2013-02-13 16:02:00,38.2,21.7,30.07,WSW,250,4.0,4.0,51,0.00,,---,0.02,VWS V13.01,2013-02-13 23:02:00,
2013-02-13 16:03:00,38.2,20.2,30.07,West,281,5.0,5.0,48,0.00,,---,0.02,VWS V13.01,2013-02-13 23:03:00,
2013-02-13 16:04:00,38.0,19.6,30.07,East,92,1.0,6.0,47,0.00,,---,0.02,VWS V13.01,2013-02-13 23:04:00,
2013-02-13 16:05:00,38.0,20.1,30.07,North,11,0.0,6.0,48,0.00,,---,0.02,VWS V13.01,2013-02-13 23:05:00,
2013-02-13 16:06:00,38.0,21.0,30.07,ENE,60,0.0,1.0,50,0.00,,---,0.02,VWS V13.01,2013-02-13 23:06:00,
2013-02-13 16:07:00,38.0,21.0,30.07,WNW,300,2.0,2.0,50,0.00,,---,0.02,VWS V13.01,2013-02-13 23:07:00,
2013-02-13 16:08:00,38.0,21.0,30.07,North,355,0.0,3.0,50,0.00,,---,0.02,VWS V13.01,2013-02-13 23:08:00,
2013-02-13 16:09:00,37.9,21.4,30.07,North,5,1.0,3.0,51,0.00,,---,0.02,VWS V13.01,2013-02-13 23:09:00,
2013-02-13 16:10:00,37.9,21.4,30.07,East,98,5.0,5.0,51,0.00,,---,0.02,VWS V13.01,2013-02-13 23:10:00,
2013-02-13 16:11:00,37.9,21.4,30.07,ENE,59,0.0,5.0,51,0.00,,---,0.02,VWS V13.01,2013-02-13 23:11:00,
2013-02-13 16:12:00,37.8,20.8,30.07,NNW,329,0.0,5.0,50,0.00,,---,0.02,VWS V13.01,2013-02-13 23:12:00,
2013-02-13 16:13:00,37.8,21.3,30.07,NNE,26,3.0,7.0,51,0.00,,---,0.02,VWS V13.01,2013-02-13 23:13:00,
2013-02-13 16:14:00,37.8,21.8,30.07,West,281,0.0,7.0,52,0.00,,---,0.02,VWS V13.01,2013-02-13 23:14:00,
2013-02-13 16:15:00,37.8,20.4,30.07,West,281,0.0,7.0,49,0.00,,---,0.02,VWS V13.01,2013-02-13 23:15:00,
2013-02-13 16:16:00,37.6,21.1,30.07,North,9,0.0,3.0,51,0.00,,---,0.02,VWS V13.01,2013-02-13 23:16:00,
2013-02-13 16:17:00,37.6,21.6,30.07,NNW,344,3.0,3.0,52,0.00,,---,0.02,VWS V13.01,2013-02-13 23:17:00,
2013-02-13 16:18:00,37.6,21.1,30.07,NE,49,1.0,5.0,51,0.00,,---,0.02,VWS V13.01,2013-02-13 23:18:00,
2013-02-13 16:19:00,37.5,21.5,30.07,NE,45,2.0,5.0,52,0.00,,---,0.02,VWS V13.01,2013-02-13 23:19:00,
2013-02-13 16:20:00,37.5,21.5,30.07,NE,40,1.0,5.0,52,0.00,,---,0.02,VWS V13.01,2013-02-13 23:20:00,
2013-02-13 16:21:00,37.3,20.9,30.07,ENE,78,2.0,2.0,51,0.00,,---,0.02,VWS V13.01,2013-02-13 23:21:00,
2013-02-13 16:22:00,37.3,20.4,30.07,NNW,344,0.0,3.0,50,0.00,,---,0.02,VWS V13.01,2013-02-13 23:22:00,
2013-02-13 16:23:00,37.3,20.4,30.07,NNW,344,0.0,3.0,50,0.00,,---,0.02,VWS V13.01,2013-02-13 23:23:00,
2013-02-13 16:24:00,37.2,20.3,30.07,SW,222,0.0,3.0,50,0.00,,---,0.02,VWS V13.01,2013-02-13 23:24:00,
2013-02-13 16:25:00,37.2,19.8,30.07,SW,233,0.0,3.0,49,0.00,,---,0.02,VWS V13.01,2013-02-13 23:25:00,
2013-02-13 16:26:00,37.2,20.3,30.07,SW,233,0.0,0.0,50,0.00,,---,0.02,VWS V13.01,2013-02-13 23:26:00,
2013-02-13 16:27:00,37.2,21.7,30.07,WNW,283,7.0,7.0,53,0.00,,---,0.02,VWS V13.01,2013-02-13 23:27:00,
2013-02-13 16:28:00,37.2,19.8,30.07,WSW,248,0.0,8.0,49,0.00,,---,0.02,VWS V13.01,2013-02-13 23:28:00,
2013-02-13 16:29:00,37.2,20.3,30.07,North,355,0.0,8.0,50,0.00,,---,0.02,VWS V13.01,2013-02-13 23:29:00,
2013-02-13 16:30:00,37.2,20.3,30.07,NNW,338,9.0,11.0,50,0.00,,---,0.02,VWS V13.01,2013-02-13 23:30:00,
2013-02-13 16:31:00,37.0,20.1,30.07,NE,36,0.0,9.0,50,0.00,,---,0.02,VWS V13.01,2013-02-13 23:31:00,
2013-02-13 16:32:00,37.0,20.6,30.07,NE,36,0.0,9.0,51,0.00,,---,0.02,VWS V13.01,2013-02-13 23:32:00,
2013-02-13 16:33:00,37.0,19.1,30.07,NE,56,0.0,9.0,48,0.00,,---,0.02,VWS V13.01,2013-02-13 23:33:00,
2013-02-13 16:34:00,37.0,20.1,30.07,NNW,344,4.0,9.0,50,0.00,,---,0.02,VWS V13.01,2013-02-13 23:34:00,
2013-02-13 16:35:00,37.0,20.1,30.07,NE,39,0.0,9.0,50,0.00,,---,0.02,VWS V13.01,2013-02-13 23:35:00,
2013-02-13 16:36:00,37.0,21.0,30.07,North,5,0.0,3.0,52,0.00,,---,0.02,VWS V13.01,2013-02-13 23:36:00,
2013-02-13 16:37:00,36.9,20.0,30.07,North,355,5.0,5.0,50,0.00,,---,0.02,VWS V13.01,2013-02-13 23:37:00,
2013-02-13 16:38:00,36.9,20.5,30.07,NE,53,0.0,5.0,51,0.00,,---,0.02,VWS V13.01,2013-02-13 23:38:00,
2013-02-13 16:39:00,36.9,20.0,30.07,NE,52,1.0,5.0,50,0.00,,---,0.02,VWS V13.01,2013-02-13 23:39:00,
2013-02-13 16:40:00,36.9,20.0,30.07,NE,44,0.0,5.0,50,0.00,,---,0.02,VWS V13.01,2013-02-13 23:40:00,
2013-02-13 16:41:00,36.8,18.5,30.07,North,5,4.0,4.0,47,0.00,,---,0.02,VWS V13.01,2013-02-13 23:41:00,
2013-02-13 16:42:00,36.8,19.9,30.07,NE,46,2.0,8.0,50,0.00,,---,0.02,VWS V13.01,2013-02-13 23:42:00,
2013-02-13 16:43:00,36.8,19.5,30.07,NW,311,4.0,8.0,49,0.00,,---,0.02,VWS V13.01,2013-02-13 23:43:00,
2013-02-13 16:44:00,36.8,19.5,30.07,WNW,284,0.0,8.0,49,0.00,,---,0.02,VWS V13.01,2013-02-13 23:44:00,
2013-02-13 16:45:00,36.6,18.8,30.07,NNE,32,4.0,8.0,48,0.00,,---,0.02,VWS V13.01,2013-02-13 23:45:00,
2013-02-13 16:46:00,36.6,20.2,30.07,SW,228,11.0,14.0,51,0.00,,---,0.02,VWS V13.01,2013-02-13 23:46:00,
2013-02-13 16:47:00,36.6,18.8,30.07,NW,317,1.0,14.0,48,0.00,,---,0.02,VWS V13.01,2013-02-13 23:47:00,
2013-02-13 16:48:00,36.6,19.3,30.07,NNE,24,0.0,14.0,49,0.00,,---,0.02,VWS V13.01,2013-02-13 23:48:00,
2013-02-13 16:49:00,36.6,19.3,30.07,NNE,30,0.0,14.0,49,0.00,,---,0.02,VWS V13.01,2013-02-13 23:49:00,
2013-02-13 16:50:00,36.6,19.3,30.07,West,265,4.0,14.0,49,0.00,,---,0.02,VWS V13.01,2013-02-13 23:50:00,
2013-02-13 16:51:00,36.6,18.8,30.07,ENE,74,1.0,4.0,48,0.00,,---,0.02,VWS V13.01,2013-02-13 23:51:00,
2013-02-13 16:52:00,36.6,20.2,30.07,NE,42,0.0,4.0,51,0.00,,---,0.02,VWS V13.01,2013-02-13 23:52:00,
2013-02-13 16:53:00,36.6,19.3,30.07,NE,49,1.0,4.0,49,0.00,,---,0.02,VWS V13.01,2013-02-13 23:53:00,
2013-02-13 16:54:00,36.5,20.1,30.07,NE,39,0.0,5.0,51,0.00,,---,0.02,VWS V13.01,2013-02-13 23:54:00,
2013-02-13 16:55:00,36.5,19.6,30.07,NE,39,4.0,6.0,50,0.00,,---,0.02,VWS V13.01,2013-02-13 23:55:00,
2013-02-13 16:56:00,36.5,20.1,30.07,NE,54,0.0,4.0,51,0.00,,---,0.02,VWS V13.01,2013-02-13 23:56:00,
2013-02-13 16:57:00,36.5,20.6,30.07,NE,53,0.0,4.0,52,0.00,,---,0.02,VWS V13.01,2013-02-13 23:57:00,
2013-02-13 16:58:00,36.3,20.4,30.07,NNE,23,0.0,4.0,52,0.00,,---,0.02,VWS V13.01,2013-02-13 23:58:00,
2013-02-13 16:59:00,36.3,20.8,30.08,NNE,17,1.0,7.0,53,0.00,,---,0.02,VWS V13.01,2013-02-13 23:59:00,
2013-02-13 17:00:00,36.3,19.9,30.08,NE,47,2.0,7.0,51,0.00,,---,0.02,VWS V13.01,2013-02-14 00:00:00,
2013-02-13 17:01:00,36.2,20.3,30.08,SSE,155,2.0,4.0,52,0.00,,---,0.02,VWS V13.01,2013-02-14 00:01:00,
2013-02-13 17:02:00,36.2,19.4,30.08,SE,126,1.0,4.0,50,0.00,,---,0.02,VWS V13.01,2013-02-14 00:02:00,
2013-02-13 17:03:00,36.2,18.4,30.08,SW,219,0.0,4.0,48,0.00,,---,0.02,VWS V13.01,2013-02-14 00:03:00,
2013-02-13 17:04:00,36.2,19.4,30.08,NNE,33,9.0,11.0,50,0.00,,---,0.02,VWS V13.01,2013-02-14 00:04:00,
2013-02-13 17:05:00,36.2,18.9,30.08,WSW,254,0.0,12.0,49,0.00,,---,0.02,VWS V13.01,2013-02-14 00:05:00,
2013-02-13 17:06:00,36.2,18.4,30.08,NNE,24,4.0,12.0,48,0.00,,---,0.02,VWS V13.01,2013-02-14 00:06:00,
2013-02-13 17:07:00,36.2,19.8,30.08,ENE,65,1.0,12.0,51,0.00,,---,0.02,VWS V13.01,2013-02-14 00:07:00,
2013-02-13 17:08:00,36.2,18.9,30.08,WSW,254,4.0,12.0,49,0.00,,---,0.02,VWS V13.01,2013-02-14 00:08:00,
2013-02-13 17:09:00,36.2,18.9,30.08,ENE,66,3.0,12.0,49,0.00,,---,0.02,VWS V13.01,2013-02-14 00:09:00,
2013-02-13 17:10:00,36.2,20.3,30.08,North,350,7.0,12.0,52,0.00,,---,0.02,VWS V13.01,2013-02-14 00:10:00,
2013-02-13 17:11:00,36.2,18.9,30.08,West,269,3.0,9.0,49,0.00,,---,0.02,VWS V13.01,2013-02-14 00:11:00,
2013-02-13 17:12:00,36.2,18.4,30.08,WSW,243,9.0,11.0,48,0.00,,---,0.02,VWS V13.01,2013-02-14 00:12:00,
2013-02-13 17:13:00,36.2,18.4,30.08,NNE,26,2.0,11.0,48,0.00,,---,0.02,VWS V13.01,2013-02-14 00:13:00,
2013-02-13 17:14:00,36.2,19.4,30.08,NNE,17,3.0,11.0,50,0.00,,---,0.02,VWS V13.01,2013-02-14 00:14:00,
2013-02-13 17:15:00,36.2,18.9,30.08,ENE,69,0.0,11.0,49,0.00,,---,0.02,VWS V13.01,2013-02-14 00:15:00,
2013-02-13 17:16:00,36.2,19.4,30.08,SW,214,2.0,6.0,50,0.00,,---,0.02,VWS V13.01,2013-02-14 00:16:00,
2013-02-13 17:17:00,36.2,17.9,30.08,NNE,30,1.0,6.0,47,0.00,,---,0.02,VWS V13.01,2013-02-14 00:17:00,
2013-02-13 17:18:00,36.2,18.4,30.08,ENE,67,3.0,6.0,48,0.00,,---,0.02,VWS V13.01,2013-02-14 00:18:00,
2013-02-13 17:19:00,36.2,19.4,30.08,ENE,61,0.0,6.0,50,0.00,,---,0.02,VWS V13.01,2013-02-14 00:19:00,
2013-02-13 17:20:00,36.2,19.4,30.08,East,88,2.0,6.0,50,0.00,,---,0.02,VWS V13.01,2013-02-14 00:20:00,
2013-02-13 17:21:00,36.2,18.4,30.08,NNE,17,4.0,4.0,48,0.00,,---,0.02,VWS V13.01,2013-02-14 00:21:00,
2013-02-13 17:22:00,36.2,17.9,30.08,SSE,153,0.0,11.0,47,0.00,,---,0.02,VWS V13.01,2013-02-14 00:22:00,
2013-02-13 17:23:00,36.2,18.9,30.08,ESE,103,0.0,11.0,49,0.00,,---,0.02,VWS V13.01,2013-02-14 00:23:00,
2013-02-13 17:24:00,36.2,18.9,30.08,South,188,1.0,11.0,49,0.00,,---,0.02,VWS V13.01,2013-02-14 00:24:00,
2013-02-13 17:25:00,36.2,18.9,30.08,NE,51,1.0,11.0,49,0.00,,---,0.02,VWS V13.01,2013-02-14 00:25:00,
2013-02-13 17:26:00,36.0,18.7,30.08,West,275,4.0,13.0,49,0.00,,---,0.02,VWS V13.01,2013-02-14 00:26:00,
2013-02-13 17:27:00,36.0,18.2,30.08,North,350,3.0,13.0,48,0.00,,---,0.02,VWS V13.01,2013-02-14 00:27:00,
2013-02-13 17:28:00,36.0,18.2,30.08,NNE,15,0.0,13.0,48,0.00,,---,0.02,VWS V13.01,2013-02-14 00:28:00,
2013-02-13 17:29:00,36.0,19.2,30.09,ENE,67,0.0,13.0,50,0.00,,---,0.02,VWS V13.01,2013-02-14 00:29:00,
2013-02-13 17:30:00,36.0,19.2,30.09,ENE,67,0.0,13.0,50,0.00,,---,0.02,VWS V13.01,2013-02-14 00:30:00,
2013-02-13 17:31:00,36.0,18.2,30.09,SW,216,0.0,1.0,48,0.00,,---,0.02,VWS V13.01,2013-02-14 00:31:00,
2013-02-13 17:32:00,36.0,18.2,30.09,SW,221,0.0,1.0,48,0.00,,---,0.02,VWS V13.01,2013-02-14 00:32:00,
2013-02-13 17:33:00,36.0,18.7,30.09,WSW,252,0.0,1.0,49,0.00,,---,0.02,VWS V13.01,2013-02-14 00:33:00,
2013-02-13 17:34:00,35.9,18.6,30.09,WSW,249,0.0,1.0,49,0.00,,---,0.02,VWS V13.01,2013-02-14 00:34:00,
2013-02-13 17:35:00,35.9,20.0,30.09,NNE,12,1.0,1.0,52,0.00,,---,0.02,VWS V13.01,2013-02-14 00:35:00,
2013-02-13 17:36:00,35.9,20.0,30.09,ENE,58,1.0,4.0,52,0.00,,---,0.02,VWS V13.01,2013-02-14 00:36:00,
2013-02-13 17:37:00,35.9,20.0,30.09,NNE,32,0.0,4.0,52,0.00,,---,0.02,VWS V13.01,2013-02-14 00:37:00,
2013-02-13 17:38:00,35.8,19.9,30.09,East,90,0.0,4.0,52,0.00,,---,0.02,VWS V13.01,2013-02-14 00:38:00,
2013-02-13 17:39:00,35.8,19.5,30.09,NE,53,6.0,6.0,51,0.00,,---,0.02,VWS V13.01,2013-02-14 00:39:00,
2013-02-13 17:40:00,35.6,20.2,30.09,NNE,19,4.0,8.0,53,0.00,,---,0.02,VWS V13.01,2013-02-14 00:40:00,
2013-02-13 17:41:00,35.6,19.7,30.09,NNW,331,0.0,4.0,52,0.00,,---,0.02,VWS V13.01,2013-02-14 00:41:00,
2013-02-13 17:42:00,35.6,19.7,30.09,SE,128,5.0,5.0,52,0.00,,---,0.02,VWS V13.01,2013-02-14 00:42:00,
2013-02-13 17:43:00,35.5,18.7,30.09,ENE,78,0.0,5.0,50,0.00,,---,0.02,VWS V13.01,2013-02-14 00:43:00,
2013-02-13 17:44:00,35.5,19.6,30.09,North,5,5.0,5.0,52,0.00,,---,0.02,VWS V13.01,2013-02-14 00:44:00,
2013-02-13 17:45:00,35.5,19.6,30.09,West,262,2.0,5.0,52,0.00,,---,0.02,VWS V13.01,2013-02-14 00:45:00,
2013-02-13 17:46:00,35.5,19.2,30.09,ENE,71,2.0,2.0,51,0.00,,---,0.02,VWS V13.01,2013-02-14 00:46:00,
2013-02-13 17:47:00,35.5,20.1,30.09,ENE,71,2.0,3.0,53,0.00,,---,0.02,VWS V13.01,2013-02-14 00:47:00,
2013-02-13 17:48:00,35.5,20.1,30.09,NW,311,3.0,5.0,53,0.00,,---,0.02,VWS V13.01,2013-02-14 00:48:00,
2013-02-13 17:49:00,35.3,19.0,30.09,South,170,0.0,5.0,51,0.00,,---,0.02,VWS V13.01,2013-02-14 00:49:00,
2013-02-13 17:50:00,35.3,19.0,30.09,ENE,69,2.0,5.0,51,0.00,,---,0.02,VWS V13.01,2013-02-14 00:50:00,
2013-02-13 17:51:00,35.3,19.9,30.09,NNW,329,7.0,7.0,53,0.00,,---,0.02,VWS V13.01,2013-02-14 00:51:00,
2013-02-13 17:52:00,35.3,19.9,30.09,NW,312,0.0,16.0,53,0.00,,---,0.02,VWS V13.01,2013-02-14 00:52:00,
2013-02-13 17:53:00,35.3,19.9,30.09,East,98,0.0,16.0,53,0.00,,---,0.02,VWS V13.01,2013-02-14 00:53:00,
2013-02-13 17:54:00,35.3,19.9,30.09,WSW,248,2.0,16.0,53,0.00,,---,0.02,VWS V13.01,2013-02-14 00:54:00,
2013-02-13 17:55:00,35.3,19.5,30.09,NNE,13,2.0,16.0,52,0.00,,---,0.02,VWS V13.01,2013-02-14 00:55:00,
2013-02-13 17:56:00,35.3,19.9,30.09,NE,46,1.0,10.0,53,0.00,,---,0.02,VWS V13.01,2013-02-14 00:56:00,
2013-02-13 17:57:00,35.2,20.2,30.09,NE,44,1.0,10.0,54,0.00,,---,0.02,VWS V13.01,2013-02-14 00:57:00,
2013-02-13 17:58:00,35.2,19.4,30.09,SSE,150,0.0,10.0,52,0.00,,---,0.02,VWS V13.01,2013-02-14 00:58:00,
2013-02-13 17:59:00,35.2,19.8,30.09,WNW,284,3.0,10.0,53,0.00,,---,0.02,VWS V13.01,2013-02-14 00:59:00,
2013-02-13 18:00:00,35.2,19.4,30.09,ENE,77,7.0,10.0,52,0.00,,---,0.02,VWS V13.01,2013-02-14 01:00:00,
2013-02-13 18:01:00,35.2,19.8,30.09,NNE,32,4.0,6.0,53,0.00,,---,0.02,VWS V13.01,2013-02-14 01:01:00,
2013-02-13 18:02:00,35.2,20.2,30.09,NE,45,2.0,6.0,54,0.00,,---,0.02,VWS V13.01,2013-02-14 01:02:00,
2013-02-13 18:03:00,35.2,20.2,30.09,East,90,0.0,6.0,54,0.00,,---,0.02,VWS V13.01,2013-02-14 01:03:00,
2013-02-13 18:04:00,35.0,19.6,30.09,NE,56,1.0,6.0,53,0.00,,---,0.02,VWS V13.01,2013-02-14 01:04:00,
2013-02-13 18:05:00,35.0,20.0,30.09,NE,56,0.0,6.0,54,0.00,,---,0.02,VWS V13.01,2013-02-14 01:05:00,
2013-02-13 18:06:00,35.0,20.5,30.09,NE,44,0.0,2.0,55,0.00,,---,0.02,VWS V13.01,2013-02-14 01:06:00,
2013-02-13 18:07:00,35.0,19.2,30.09,ENE,63,3.0,3.0,52,0.00,,---,0.02,VWS V13.01,2013-02-14 01:07:00,
2013-02-13 18:08:00,35.0,20.0,30.09,NNE,33,2.0,4.0,54,0.00,,---,0.02,VWS V13.01,2013-02-14 01:08:00,
2013-02-13 18:09:00,35.0,20.5,30.09,SSW,202,2.0,10.0,55,0.00,,---,0.02,VWS V13.01,2013-02-14 01:09:00,
2013-02-13 18:10:00,35.0,19.2,30.09,NNE,16,2.0,10.0,52,0.00,,---,0.02,VWS V13.01,2013-02-14 01:10:00,
2013-02-13 18:11:00,35.0,19.2,30.09,SW,219,0.0,2.0,52,0.00,,---,0.02,VWS V13.01,2013-02-14 01:11:00,
2013-02-13 18:12:00,35.0,19.2,30.09,SW,225,0.0,3.0,52,0.00,,---,0.02,VWS V13.01,2013-02-14 01:12:00,
2013-02-13 18:13:00,35.0,18.7,30.09,ENE,77,3.0,3.0,51,0.00,,---,0.02,VWS V13.01,2013-02-14 01:13:00,
2013-02-13 18:14:00,35.0,20.5,30.09,West,279,3.0,3.0,55,0.00,,---,0.02,VWS V13.01,2013-02-14 01:14:00,
2013-02-13 18:15:00,35.0,19.6,30.09,WSW,246,2.0,6.0,53,0.00,,---,0.02,VWS V13.01,2013-02-14 01:15:00,
2013-02-13 18:16:00,35.0,19.2,30.09,NNE,26,0.0,2.0,52,0.00,,---,0.02,VWS V13.01,2013-02-14 01:16:00,
2013-02-13 18:17:00,35.0,19.2,30.09,NE,51,0.0,2.0,52,0.00,,---,0.02,VWS V13.01,2013-02-14 01:17:00,
2013-02-13 18:18:00,35.0,20.5,30.09,ESE,105,4.0,4.0,55,0.00,,---,0.02,VWS V13.01,2013-02-14 01:18:00,
2013-02-13 18:19:00,35.0,19.2,30.09,WSW,242,3.0,10.0,52,0.00,,---,0.02,VWS V13.01,2013-02-14 01:19:00,
2013-02-13 18:20:00,35.0,18.7,30.09,SE,132,0.0,10.0,51,0.00,,---,0.02,VWS V13.01,2013-02-14 01:20:00,
2013-02-13 18:21:00,35.0,19.6,30.09,ENE,72,1.0,4.0,53,0.00,,---,0.02,VWS V13.01,2013-02-14 01:21:00,
2013-02-13 18:22:00,35.0,19.6,30.09,NE,55,1.0,4.0,53,0.00,,---,0.02,VWS V13.01,2013-02-14 01:22:00,
2013-02-13 18:23:00,35.0,20.0,30.09,NNW,330,0.0,4.0,54,0.00,,---,0.02,VWS V13.01,2013-02-14 01:23:00,
2013-02-13 18:24:00,35.0,19.2,30.09,NNE,14,0.0,4.0,52,0.00,,---,0.02,VWS V13.01,2013-02-14 01:24:00,
2013-02-13 18:25:00,35.0,20.0,30.09,East,83,0.0,4.0,54,0.00,,---,0.02,VWS V13.01,2013-02-14 01:25:00,
2013-02-13 18:26:00,35.0,19.6,30.09,SE,138,0.0,4.0,53,0.00,,---,0.02,VWS V13.01,2013-02-14 01:26:00,
2013-02-13 18:27:00,35.0,20.0,30.09,NNE,32,5.0,5.0,54,0.00,,---,0.02,VWS V13.01,2013-02-14 01:27:00,
2013-02-13 18:28:00,34.9,20.0,30.09,NE,49,4.0,5.0,54,0.00,,---,0.02,VWS V13.01,2013-02-14 01:28:00,
2013-02-13 18:29:00,34.9,20.4,30.09,NNE,15,2.0,6.0,55,0.00,,---,0.02,VWS V13.01,2013-02-14 01:29:00,
2013-02-13 18:30:00,34.9,20.0,30.09,NNW,331,0.0,6.0,54,0.00,,---,0.02,VWS V13.01,2013-02-14 01:30:00,
2013-02-13 18:31:00,34.9,19.1,30.09,NNW,343,1.0,1.0,52,0.00,,---,0.02,VWS V13.01,2013-02-14 01:31:00,
2013-02-13 18:32:00,34.9,19.5,30.09,NNE,28,4.0,4.0,53,0.00,,---,0.02,VWS V13.01,2013-02-14 01:32:00,
2013-02-13 18:33:00,34.7,19.8,30.09,ENE,63,2.0,4.0,54,0.00,,---,0.02,VWS V13.01,2013-02-14 01:33:00,
2013-02-13 18:34:00,34.7,21.5,30.09,East,94,0.0,4.0,58,0.00,,---,0.02,VWS V13.01,2013-02-14 01:34:00,
2013-02-13 18:35:00,34.7,21.5,30.09,West,265,2.0,9.0,58,0.00,,---,0.02,VWS V13.01,2013-02-14 01:35:00,
2013-02-13 18:36:00,34.7,18.9,30.09,ESE,119,0.0,2.0,52,0.00,,---,0.02,VWS V13.01,2013-02-14 01:36:00,
2013-02-13 18:37:00,34.7,19.3,30.09,NW,314,1.0,4.0,53,0.00,,---,0.02,VWS V13.01,2013-02-14 01:37:00,
2013-02-13 18:38:00,34.7,18.0,30.09,WSW,248,0.0,4.0,50,0.00,,---,0.02,VWS V13.01,2013-02-14 01:38:00,
2013-02-13 18:39:00,34.7,18.4,30.09,East,99,0.0,4.0,51,0.00,,---,0.02,VWS V13.01,2013-02-14 01:39:00,
2013-02-13 18:40:00,34.7,19.3,30.09,East,99,2.0,4.0,53,0.00,,---,0.02,VWS V13.01,2013-02-14 01:40:00,
2013-02-13 18:41:00,34.7,19.3,30.09,NNE,24,5.0,5.0,53,0.00,,---,0.02,VWS V13.01,2013-02-14 01:41:00,
2013-02-13 18:42:00,34.7,20.2,30.09,NNE,22,2.0,5.0,55,0.00,,---,0.02,VWS V13.01,2013-02-14 01:42:00,
2013-02-13 18:43:00,34.7,18.4,30.09,NNE,28,4.0,10.0,51,0.00,,---,0.02,VWS V13.01,2013-02-14 01:43:00,
2013-02-13 18:44:00,34.7,19.8,30.10,NNW,343,1.0,10.0,54,0.00,,---,0.02,VWS V13.01,2013-02-14 01:44:00,
2013-02-13 18:45:00,34.7,18.4,30.10,North,360,0.0,10.0,51,0.00,,---,0.02,VWS V13.01,2013-02-14 01:45:00,
2013-02-13 18:46:00,34.7,18.4,30.10,SSW,200,5.0,7.0,51,0.00,,---,0.02,VWS V13.01,2013-02-14 01:46:00,
2013-02-13 18:47:00,34.7,18.0,30.10,ENE,57,1.0,7.0,50,0.00,,---,0.02,VWS V13.01,2013-02-14 01:47:00,
2013-02-13 18:48:00,34.9,18.6,30.10,SE,125,2.0,7.0,51,0.00,,---,0.02,VWS V13.01,2013-02-14 01:48:00,
2013-02-13 18:49:00,34.9,18.2,30.10,NE,40,2.0,7.0,50,0.00,,---,0.02,VWS V13.01,2013-02-14 01:49:00,
2013-02-13 18:50:00,34.9,19.1,30.10,NE,52,0.0,7.0,52,0.00,,---,0.02,VWS V13.01,2013-02-14 01:50:00,
2013-02-13 18:51:00,34.9,19.1,30.10,ENE,57,3.0,4.0,52,0.00,,---,0.02,VWS V13.01,2013-02-14 01:51:00,
2013-02-13 18:52:00,34.9,20.0,30.10,NNE,19,3.0,5.0,54,0.00,,---,0.02,VWS V13.01,2013-02-14 01:52:00,
2013-02-13 18:53:00,34.9,18.6,30.10,North,355,2.0,5.0,51,0.00,,---,0.02,VWS V13.01,2013-02-14 01:53:00,
2013-02-13 18:54:00,34.9,18.6,30.10,ESE,110,5.0,7.0,51,0.00,,---,0.02,VWS V13.01,2013-02-14 01:54:00,
2013-02-13 18:55:00,34.9,18.6,30.10,NNE,15,2.0,11.0,51,0.00,,---,0.02,VWS V13.01,2013-02-14 01:55:00,
2013-02-13 18:56:00,34.9,18.2,30.10,WSW,256,2.0,6.0,50,0.00,,---,0.02,VWS V13.01,2013-02-14 01:56:00,
2013-02-13 18:57:00,34.9,18.2,30.10,WNW,290,2.0,6.0,50,0.00,,---,0.02,VWS V13.01,2013-02-14 01:57:00,
2013-02-13 18:58:00,34.9,18.6,30.10,SW,236,6.0,7.0,51,0.00,,---,0.02,VWS V13.01,2013-02-14 01:58:00,
2013-02-13 18:59:00,34.9,18.6,30.11,ENE,73,0.0,7.0,51,0.00,,---,0.02,VWS V13.01,2013-02-14 01:59:00,
2013-02-13 19:00:00,34.9,18.2,30.11,SSE,168,0.0,7.0,50,0.00,,---,0.02,VWS V13.01,2013-02-14 02:00:00,
2013-02-13 19:01:00,35.0,17.8,30.11,NE,36,0.0,12.0,49,0.00,,---,0.02,VWS V13.01,2013-02-14 02:01:00,
2013-02-13 19:02:00,35.0,18.2,30.11,East,94,0.0,12.0,50,0.00,,---,0.02,VWS V13.01,2013-02-14 02:02:00,
2013-02-13 19:03:00,35.0,18.7,30.11,East,90,0.0,12.0,51,0.00,,---,0.02,VWS V13.01,2013-02-14 02:03:00,
2013-02-13 19:04:00,35.0,18.7,30.11,NNW,342,0.0,12.0,51,0.00,,---,0.02,VWS V13.01,2013-02-14 02:04:00,
2013-02-13 19:05:00,35.0,18.2,30.11,NE,36,0.0,12.0,50,0.00,,---,0.02,VWS V13.01,2013-02-14 02:05:00,
2013-02-13 19:06:00,34.9,18.6,30.11,SSE,157,0.0,4.0,51,0.00,,---,0.02,VWS V13.01,2013-02-14 02:06:00,
2013-02-13 19:07:00,34.9,18.6,30.11,SSE,163,1.0,4.0,51,0.00,,---,0.02,VWS V13.01,2013-02-14 02:07:00,
2013-02-13 19:08:00,34.9,19.1,30.11,WSW,250,9.0,14.0,52,0.00,,---,0.02,VWS V13.01,2013-02-14 02:08:00,
2013-02-13 19:09:00,34.9,18.6,30.11,NE,35,1.0,14.0,51,0.00,,---,0.02,VWS V13.01,2013-02-14 02:09:00,
2013-02-13 19:10:00,34.9,18.6,30.11,NNE,22,3.0,14.0,51,0.00,,---,0.02,VWS V13.01,2013-02-14 02:10:00,
2013-02-13 19:11:00,34.9,18.6,30.11,NE,42,0.0,3.0,51,0.00,,---,0.02,VWS V13.01,2013-02-14 02:11:00,
2013-02-13 19:12:00,34.9,19.5,30.11,WSW,240,2.0,9.0,53,0.00,,---,0.02,VWS V13.01,2013-02-14 02:12:00,
2013-02-13 19:13:00,34.9,19.1,30.11,SE,136,0.0,9.0,52,0.00,,---,0.02,VWS V13.01,2013-02-14 02:13:00,
2013-02-13 19:14:00,34.9,19.5,30.12,ENE,72,1.0,9.0,53,0.00,,---,0.02,VWS V13.01,2013-02-14 02:14:00,
2013-02-13 19:15:00,34.7,19.8,30.12,North,5,3.0,9.0,54,0.00,,---,0.02,VWS V13.01,2013-02-14 02:15:00,
2013-02-13 19:16:00,34.7,18.4,30.12,East,81,1.0,4.0,51,0.00,,---,0.02,VWS V13.01,2013-02-14 02:16:00,
2013-02-13 19:17:00,34.7,19.3,30.12,East,81,0.0,4.0,53,0.00,,---,0.02,VWS V13.01,2013-02-14 02:17:00,
2013-02-13 19:18:00,34.7,18.9,30.12,NNW,341,1.0,4.0,52,0.00,,---,0.02,VWS V13.01,2013-02-14 02:18:00,
2013-02-13 19:19:00,34.6,18.8,30.12,NE,50,1.0,6.0,52,0.00,,---,0.02,VWS V13.01,2013-02-14 02:19:00,
2013-02-13 19:20:00,34.6,19.2,30.12,North,355,5.0,6.0,53,0.00,,---,0.02,VWS V13.01,2013-02-14 02:20:00,
2013-02-13 19:21:00,34.6,18.3,30.12,WSW,246,2.0,11.0,51,0.00,,---,0.02,VWS V13.01,2013-02-14 02:21:00,
2013-02-13 19:22:00,34.6,18.3,30.12,East,90,1.0,11.0,51,0.00,,---,0.02,VWS V13.01,2013-02-14 02:22:00,
2013-02-13 19:23:00,34.6,19.7,30.12,NE,38,0.0,11.0,54,0.00,,---,0.02,VWS V13.01,2013-02-14 02:23:00,
2013-02-13 19:24:00,34.6,18.8,30.12,NE,38,0.0,11.0,52,0.00,,---,0.02,VWS V13.01,2013-02-14 02:24:00,
2013-02-13 19:25:00,34.6,19.2,30.12,NE,37,0.0,11.0,53,0.00,,---,0.02,VWS V13.01,2013-02-14 02:25:00,
2013-02-13 19:26:00,34.4,19.5,30.12,NNE,32,2.0,2.0,54,0.00,,---,0.02,VWS V13.01,2013-02-14 02:26:00,
2013-02-13 19:27:00,34.4,19.5,30.12,WSW,254,0.0,3.0,54,0.00,,---,0.02,VWS V13.01,2013-02-14 02:27:00,
2013-02-13 19:28:00,34.4,18.2,30.12,WSW,254,0.0,3.0,51,0.00,,---,0.02,VWS V13.01,2013-02-14 02:28:00,
2013-02-13 19:29:00,34.4,18.6,30.11,South,169,5.0,5.0,52,0.00,,---,0.02,VWS V13.01,2013-02-14 02:29:00,
2013-02-13 19:30:00,34.4,18.6,30.11,WNW,290,3.0,8.0,52,0.00,,---,0.02,VWS V13.01,2013-02-14 02:30:00,
2013-02-13 19:31:00,34.4,18.6,30.11,ENE,75,0.0,3.0,52,0.00,,---,0.02,VWS V13.01,2013-02-14 02:31:00,
2013-02-13 19:32:00,34.4,18.2,30.11,WNW,290,3.0,3.0,51,0.00,,---,0.02,VWS V13.01,2013-02-14 02:32:00,
2013-02-13 19:33:00,34.4,17.7,30.11,SSW,205,3.0,7.0,50,0.00,,---,0.02,VWS V13.01,2013-02-14 02:33:00,
2013-02-13 19:34:00,34.6,17.9,30.11,SSE,150,6.0,12.0,50,0.00,,---,0.02,VWS V13.01,2013-02-14 02:34:00,
2013-02-13 19:35:00,34.6,18.3,30.11,West,262,4.0,12.0,51,0.00,,---,0.02,VWS V13.01,2013-02-14 02:35:00,
2013-02-13 19:36:00,34.7,18.4,30.11,NE,44,1.0,7.0,51,0.00,,---,0.02,VWS V13.01,2013-02-14 02:36:00,
2013-02-13 19:37:00,34.7,18.9,30.11,SE,133,3.0,10.0,52,0.00,,---,0.02,VWS V13.01,2013-02-14 02:37:00,
2013-02-13 19:38:00,34.7,18.9,30.11,WSW,248,4.0,10.0,52,0.00,,---,0.02,VWS V13.01,2013-02-14 02:38:00,
2013-02-13 19:39:00,34.7,18.0,30.11,North,355,3.0,10.0,50,0.00,,---,0.02,VWS V13.01,2013-02-14 02:39:00,
2013-02-13 19:40:00,34.7,18.0,30.11,East,86,1.0,10.0,50,0.00,,---,0.02,VWS V13.01,2013-02-14 02:40:00,
2013-02-13 19:41:00,34.7,18.4,30.11,North,5,6.0,9.0,51,0.00,,---,0.02,VWS V13.01,2013-02-14 02:41:00,
2013-02-13 19:42:00,34.7,18.9,30.11,NE,49,3.0,10.0,52,0.00,,---,0.02,VWS V13.01,2013-02-14 02:42:00,
2013-02-13 19:43:00,34.7,18.9,30.11,NE,34,2.0,10.0,52,0.00,,---,0.02,VWS V13.01,2013-02-14 02:43:00,
2013-02-13 19:44:00,34.6,18.3,30.11,East,92,1.0,10.0,51,0.00,,---,0.02,VWS V13.01,2013-02-14 02:44:00,
2013-02-13 19:45:00,34.6,18.3,30.11,East,96,0.0,10.0,51,0.00,,---,0.02,VWS V13.01,2013-02-14 02:45:00,
2013-02-13 19:46:00,34.6,18.8,30.11,ENE,57,4.0,7.0,52,0.00,,---,0.02,VWS V13.01,2013-02-14 02:46:00,
2013-02-13 19:47:00,34.6,18.3,30.11,NW,317,4.0,10.0,51,0.00,,---,0.02,VWS V13.01,2013-02-14 02:47:00,
2013-02-13 19:48:00,34.6,19.2,30.11,ENE,61,1.0,10.0,53,0.00,,---,0.02,VWS V13.01,2013-02-14 02:48:00,
2013-02-13 19:49:00,34.6,19.2,30.11,ENE,57,1.0,10.0,53,0.00,,---,0.02,VWS V13.01,2013-02-14 02:49:00,
2013-02-13 19:50:00,34.6,19.2,30.11,East,88,1.0,10.0,53,0.00,,---,0.02,VWS V13.01,2013-02-14 02:50:00,
2013-02-13 19:51:00,34.4,19.0,30.11,East,85,0.0,3.0,53,0.00,,---,0.02,VWS V13.01,2013-02-14 02:51:00,
2013-02-13 19:52:00,34.4,19.5,30.11,NE,44,1.0,5.0,54,0.00,,---,0.02,VWS V13.01,2013-02-14 02:52:00,
2013-02-13 19:53:00,34.4,19.0,30.11,ENE,76,0.0,5.0,53,0.00,,---,0.02,VWS V13.01,2013-02-14 02:53:00,
2013-02-13 19:54:00,34.3,19.8,30.11,North,5,0.0,5.0,55,0.00,,---,0.02,VWS V13.01,2013-02-14 02:54:00,
2013-02-13 19:55:00,34.3,19.4,30.11,North,5,0.0,5.0,54,0.00,,---,0.02,VWS V13.01,2013-02-14 02:55:00,
2013-02-13 19:56:00,34.3,19.8,30.11,NE,38,1.0,1.0,55,0.00,,---,0.02,VWS V13.01,2013-02-14 02:56:00,
2013-02-13 19:57:00,34.1,19.2,30.11,NE,34,0.0,2.0,54,0.00,,---,0.02,VWS V13.01,2013-02-14 02:57:00,
2013-02-13 19:58:00,34.1,19.2,30.11,NE,34,0.0,2.0,54,0.00,,---,0.02,VWS V13.01,2013-02-14 02:58:00,
2013-02-13 19:59:00,34.1,19.2,30.12,ESE,110,1.0,2.0,54,0.00,,---,0.02,VWS V13.01,2013-02-14 02:59:00,
2013-02-13 20:00:00,34.1,19.6,30.12,ENE,59,5.0,5.0,55,0.00,,---,0.02,VWS V13.01,2013-02-14 03:00:00,
2013-02-13 20:01:00,34.0,19.5,30.12,East,80,1.0,5.0,55,0.00,,---,0.02,VWS V13.01,2013-02-14 03:01:00,
2013-02-13 20:02:00,34.0,18.7,30.12,NE,47,3.0,5.0,53,0.00,,---,0.02,VWS V13.01,2013-02-14 03:02:00,
2013-02-13 20:03:00,34.0,18.2,30.12,West,261,6.0,16.0,52,0.00,,---,0.02,VWS V13.01,2013-02-14 03:03:00,
2013-02-13 20:04:00,34.0,19.1,30.12,NW,319,0.0,16.0,54,0.00,,---,0.02,VWS V13.01,2013-02-14 03:04:00,
2013-02-13 20:05:00,34.0,19.1,30.12,North,355,3.0,16.0,54,0.00,,---,0.02,VWS V13.01,2013-02-14 03:05:00,
2013-02-13 20:06:00,34.1,18.8,30.12,NNE,14,0.0,3.0,53,0.00,,---,0.02,VWS V13.01,2013-02-14 03:06:00,
2013-02-13 20:07:00,34.1,18.3,30.12,NE,42,2.0,3.0,52,0.00,,---,0.02,VWS V13.01,2013-02-14 03:07:00,
2013-02-13 20:08:00,34.1,18.8,30.12,ENE,60,0.0,4.0,53,0.00,,---,0.02,VWS V13.01,2013-02-14 03:08:00,
2013-02-13 20:09:00,34.1,19.2,30.12,NE,55,2.0,4.0,54,0.00,,---,0.02,VWS V13.01,2013-02-14 03:09:00,
2013-02-13 20:10:00,34.1,19.2,30.12,NNW,331,4.0,7.0,54,0.00,,---,0.02,VWS V13.01,2013-02-14 03:10:00,
2013-02-13 20:11:00,34.1,18.3,30.12,West,281,0.0,4.0,52,0.00,,---,0.02,VWS V13.01,2013-02-14 03:11:00,
2013-02-13 20:12:00,34.1,18.3,30.12,WNW,298,2.0,12.0,52,0.00,,---,0.02,VWS V13.01,2013-02-14 03:12:00,
2013-02-13 20:13:00,34.1,19.2,30.12,WSW,252,3.0,12.0,54,0.00,,---,0.02,VWS V13.01,2013-02-14 03:13:00,
2013-02-13 20:14:00,34.1,18.3,30.12,West,274,1.0,12.0,52,0.00,,---,0.02,VWS V13.01,2013-02-14 03:14:00,
2013-02-13 20:15:00,34.1,18.8,30.12,NNE,13,2.0,12.0,53,0.00,,---,0.02,VWS V13.01,2013-02-14 03:15:00,
2013-02-13 20:16:00,34.1,19.2,30.12,NE,52,0.0,3.0,54,0.00,,---,0.02,VWS V13.01,2013-02-14 03:16:00,
2013-02-13 20:17:00,34.1,19.2,30.12,NE,52,0.0,3.0,54,0.00,,---,0.02,VWS V13.01,2013-02-14 03:17:00,
2013-02-13 20:18:00,34.1,19.6,30.12,SE,137,1.0,3.0,55,0.00,,---,0.02,VWS V13.01,2013-02-14 03:18:00,
2013-02-13 20:19:00,34.1,18.8,30.12,SSW,211,2.0,6.0,53,0.00,,---,0.02,VWS V13.01,2013-02-14 03:19:00,
2013-02-13 20:20:00,34.1,18.8,30.12,WNW,294,11.0,11.0,53,0.00,,---,0.02,VWS V13.01,2013-02-14 03:20:00,
2013-02-13 20:21:00,34.3,19.0,30.12,West,277,0.0,18.0,53,0.00,,---,0.02,VWS V13.01,2013-02-14 03:21:00,
2013-02-13 20:22:00,34.3,19.0,30.12,ENE,71,0.0,18.0,53,0.00,,---,0.02,VWS V13.01,2013-02-14 03:22:00,
2013-02-13 20:23:00,34.3,19.0,30.12,East,81,0.0,18.0,53,0.00,,---,0.02,VWS V13.01,2013-02-14 03:23:00,
2013-02-13 20:24:00,34.3,19.4,30.12,ENE,77,0.0,18.0,54,0.00,,---,0.02,VWS V13.01,2013-02-14 03:24:00,
2013-02-13 20:25:00,34.3,19.4,30.12,NNW,330,0.0,18.0,54,0.00,,---,0.02,VWS V13.01,2013-02-14 03:25:00,
2013-02-13 20:26:00,34.3,19.4,30.12,SSW,192,0.0,11.0,54,0.00,,---,0.02,VWS V13.01,2013-02-14 03:26:00,
2013-02-13 20:27:00,34.3,19.0,30.12,NNE,15,4.0,11.0,53,0.00,,---,0.02,VWS V13.01,2013-02-14 03:27:00,
2013-02-13 20:28:00,34.3,18.5,30.12,WNW,295,5.0,11.0,52,0.00,,---,0.02,VWS V13.01,2013-02-14 03:28:00,
2013-02-13 20:29:00,34.3,18.5,30.13,West,259,6.0,11.0,52,0.00,,---,0.02,VWS V13.01,2013-02-14 03:29:00,
2013-02-13 20:30:00,34.3,19.0,30.13,NNE,23,6.0,11.0,53,0.00,,---,0.02,VWS V13.01,2013-02-14 03:30:00,
2013-02-13 20:31:00,34.3,19.0,30.13,NE,53,2.0,6.0,53,0.00,,---,0.02,VWS V13.01,2013-02-14 03:31:00,
2013-02-13 20:32:00,34.4,19.0,30.13,NW,323,2.0,10.0,53,0.00,,---,0.02,VWS V13.01,2013-02-14 03:32:00,
2013-02-13 20:33:00,34.4,19.0,30.13,SE,133,2.0,10.0,53,0.00,,---,0.02,VWS V13.01,2013-02-14 03:33:00,
2013-02-13 20:34:00,34.4,19.0,30.13,SSE,153,0.0,10.0,53,0.00,,---,0.02,VWS V13.01,2013-02-14 03:34:00,
2013-02-13 20:35:00,34.4,19.9,30.13,SSW,213,0.0,10.0,55,0.00,,---,0.02,VWS V13.01,2013-02-14 03:35:00,
2013-02-13 20:36:00,34.4,19.5,30.13,NE,43,0.0,3.0,54,0.00,,---,0.02,VWS V13.01,2013-02-14 03:36:00,
2013-02-13 20:37:00,34.4,19.9,30.13,NE,43,0.0,3.0,55,0.00,,---,0.02,VWS V13.01,2013-02-14 03:37:00,
2013-02-13 20:38:00,34.4,19.5,30.13,NE,43,0.0,3.0,54,0.00,,---,0.02,VWS V13.01,2013-02-14 03:38:00,
2013-02-13 20:39:00,34.4,19.0,30.13,NE,43,0.0,3.0,53,0.00,,---,0.02,VWS V13.01,2013-02-14 03:39:00,
2013-02-13 20:40:00,34.4,19.0,30.13,ENE,76,1.0,4.0,53,0.00,,---,0.02,VWS V13.01,2013-02-14 03:40:00,
2013-02-13 20:41:00,34.3,19.0,30.13,NW,309,1.0,6.0,53,0.00,,---,0.02,VWS V13.01,2013-02-14 03:41:00,
2013-02-13 20:42:00,34.3,19.0,30.13,WNW,298,0.0,6.0,53,0.00,,---,0.02,VWS V13.01,2013-02-14 03:42:00,
2013-02-13 20:43:00,34.3,19.0,30.13,NNW,347,1.0,6.0,53,0.00,,---,0.02,VWS V13.01,2013-02-14 03:43:00,
2013-02-13 20:44:00,34.3,19.4,30.13,SE,126,0.0,6.0,54,0.00,,---,0.02,VWS V13.01,2013-02-14 03:44:00,
2013-02-13 20:45:00,34.3,19.4,30.13,West,275,0.0,6.0,54,0.00,,---,0.02,VWS V13.01,2013-02-14 03:45:00,
2013-02-13 20:46:00,34.3,19.4,30.13,North,360,0.0,2.0,54,0.00,,---,0.02,VWS V13.01,2013-02-14 03:46:00,
2013-02-13 20:47:00,34.3,19.0,30.13,South,186,0.0,2.0,53,0.00,,---,0.02,VWS V13.01,2013-02-14 03:47:00,
2013-02-13 20:48:00,34.3,19.8,30.13,South,186,0.0,2.0,55,0.00,,---,0.02,VWS V13.01,2013-02-14 03:48:00,
2013-02-13 20:49:00,34.1,19.2,30.13,SE,144,0.0,2.0,54,0.00,,---,0.02,VWS V13.01,2013-02-14 03:49:00,
2013-02-13 20:50:00,34.1,19.2,30.13,SE,144,0.0,2.0,54,0.00,,---,0.02,VWS V13.01,2013-02-14 03:50:00,
2013-02-13 20:51:00,34.1,19.2,30.13,NNE,30,0.0,3.0,54,0.00,,---,0.02,VWS V13.01,2013-02-14 03:51:00,
2013-02-13 20:52:00,34.1,19.2,30.13,SE,140,0.0,3.0,54,0.00,,---,0.02,VWS V13.01,2013-02-14 03:52:00,
2013-02-13 20:53:00,34.1,19.2,30.13,SE,140,0.0,3.0,54,0.00,,---,0.02,VWS V13.01,2013-02-14 03:53:00,
2013-02-13 20:54:00,34.1,20.1,30.13,ESE,121,0.0,3.0,56,0.00,,---,0.02,VWS V13.01,2013-02-14 03:54:00,
2013-02-13 20:55:00,34.0,19.5,30.13,North,9,0.0,7.0,55,0.00,,---,0.02,VWS V13.01,2013-02-14 03:55:00,
2013-02-13 20:56:00,34.0,19.5,30.13,ESE,122,4.0,4.0,55,0.00,,---,0.02,VWS V13.01,2013-02-14 03:56:00,
2013-02-13 20:57:00,34.0,18.7,30.13,SW,227,3.0,6.0,53,0.00,,---,0.02,VWS V13.01,2013-02-14 03:57:00,
2013-02-13 20:58:00,34.0,19.1,30.13,NNW,336,2.0,6.0,54,0.00,,---,0.02,VWS V13.01,2013-02-14 03:58:00,
2013-02-13 20:59:00,34.0,19.5,30.13,North,351,0.0,15.0,55,0.00,,---,0.02,VWS V13.01,2013-02-14 03:59:00,
2013-02-13 21:00:00,34.0,19.5,30.13,WNW,286,3.0,15.0,55,0.00,,---,0.02,VWS V13.01,2013-02-14 04:00:00,
2013-02-13 21:01:00,34.0,18.7,30.13,NNE,22,0.0,4.0,53,0.00,,---,0.02,VWS V13.01,2013-02-14 04:01:00,
2013-02-13 21:02:00,34.0,20.0,30.13,NNW,346,0.0,4.0,56,0.00,,---,0.02,VWS V13.01,2013-02-14 04:02:00,
2013-02-13 21:03:00,34.0,19.1,30.13,East,92,1.0,4.0,54,0.00,,---,0.02,VWS V13.01,2013-02-14 04:03:00,
2013-02-13 21:04:00,34.0,19.5,30.13,WNW,290,3.0,5.0,55,0.00,,---,0.02,VWS V13.01,2013-02-14 04:04:00,
2013-02-13 21:05:00,34.0,19.5,30.13,North,9,1.0,5.0,55,0.00,,---,0.02,VWS V13.01,2013-02-14 04:05:00,
2013-02-13 21:06:00,34.0,19.5,30.13,North,9,1.0,1.0,55,0.00,,---,0.02,VWS V13.01,2013-02-14 04:06:00,
2013-02-13 21:07:00,33.8,19.8,30.13,North,9,0.0,2.0,56,0.00,,---,0.02,VWS V13.01,2013-02-14 04:07:00,
2013-02-13 21:08:00,33.8,19.4,30.13,North,355,0.0,4.0,55,0.00,,---,0.02,VWS V13.01,2013-02-14 04:08:00,
2013-02-13 21:09:00,33.8,19.4,30.13,North,350,0.0,4.0,55,0.00,,---,0.02,VWS V13.01,2013-02-14 04:09:00,
2013-02-13 21:10:00,33.8,18.9,30.13,NE,39,2.0,4.0,54,0.00,,---,0.02,VWS V13.01,2013-02-14 04:10:00,
2013-02-13 21:11:00,33.8,19.4,30.13,East,82,0.0,3.0,55,0.00,,---,0.02,VWS V13.01,2013-02-14 04:11:00,
2013-02-13 21:12:00,33.8,19.4,30.13,SW,221,1.0,3.0,55,0.00,,---,0.02,VWS V13.01,2013-02-14 04:12:00,
2013-02-13 21:13:00,33.8,19.8,30.13,West,281,2.0,10.0,56,0.00,,---,0.02,VWS V13.01,2013-02-14 04:13:00,
2013-02-13 21:14:00,33.8,18.9,30.14,West,279,4.0,10.0,54,0.00,,---,0.02,VWS V13.01,2013-02-14 04:14:00,
2013-02-13 21:15:00,33.8,18.9,30.14,SW,215,3.0,10.0,54,0.00,,---,0.02,VWS V13.01,2013-02-14 04:15:00,
2013-02-13 21:16:00,34.0,19.1,30.14,North,355,0.0,4.0,54,0.00,,---,0.02,VWS V13.01,2013-02-14 04:16:00,
2013-02-13 21:17:00,34.0,19.5,30.14,North,5,0.0,4.0,55,0.00,,---,0.02,VWS V13.01,2013-02-14 04:17:00,
2013-02-13 21:18:00,34.0,19.1,30.14,West,279,0.0,4.0,54,0.00,,---,0.02,VWS V13.01,2013-02-14 04:18:00,
2013-02-13 21:19:00,34.0,19.1,30.14,SSE,147,3.0,4.0,54,0.00,,---,0.02,VWS V13.01,2013-02-14 04:19:00,
2013-02-13 21:20:00,34.0,19.5,30.14,NE,41,0.0,4.0,55,0.00,,---,0.02,VWS V13.01,2013-02-14 04:20:00,
2013-02-13 21:21:00,34.0,19.5,30.14,North,5,1.0,2.0,55,0.00,,---,0.02,VWS V13.01,2013-02-14 04:21:00,
2013-02-13 21:22:00,34.0,19.5,30.14,NNE,17,0.0,3.0,55,0.00,,---,0.02,VWS V13.01,2013-02-14 04:22:00,
2013-02-13 21:23:00,34.0,20.0,30.14,East,90,2.0,3.0,56,0.00,,---,0.02,VWS V13.01,2013-02-14 04:23:00,
2013-02-13 21:24:00,34.0,20.0,30.14,ENE,78,0.0,3.0,56,0.00,,---,0.02,VWS V13.01,2013-02-14 04:24:00,
2013-02-13 21:25:00,33.8,19.8,30.14,East,83,4.0,7.0,56,0.00,,---,0.02,VWS V13.01,2013-02-14 04:25:00,
2013-02-13 21:26:00,33.8,18.9,30.14,South,186,4.0,6.0,54,0.00,,---,0.02,VWS V13.01,2013-02-14 04:26:00,
2013-02-13 21:27:00,34.0,19.1,30.14,SSE,149,3.0,6.0,54,0.00,,---,0.02,VWS V13.01,2013-02-14 04:27:00,
2013-02-13 21:28:00,34.0,19.1,30.14,ESE,105,2.0,6.0,54,0.00,,---,0.02,VWS V13.01,2013-02-14 04:28:00,
2013-02-13 21:29:00,34.0,19.5,30.14,NE,49,1.0,6.0,55,0.00,,---,0.02,VWS V13.01,2013-02-14 04:29:00,
2013-02-13 21:30:00,34.0,19.5,30.14,ENE,61,0.0,6.0,55,0.00,,---,0.02,VWS V13.01,2013-02-14 04:30:00,
2013-02-13 21:31:00,34.0,19.5,30.14,ENE,74,1.0,3.0,55,0.00,,---,0.02,VWS V13.01,2013-02-14 04:31:00,
2013-02-13 21:32:00,34.0,19.5,30.14,ENE,74,0.0,3.0,55,0.00,,---,0.02,VWS V13.01,2013-02-14 04:32:00,
2013-02-13 21:33:00,33.8,19.8,30.14,North,9,2.0,3.0,56,0.00,,---,0.02,VWS V13.01,2013-02-14 04:33:00,
2013-02-13 21:34:00,33.8,19.8,30.14,NNW,337,0.0,3.0,56,0.00,,---,0.02,VWS V13.01,2013-02-14 04:34:00,
2013-02-13 21:35:00,33.8,19.4,30.14,NNW,342,0.0,3.0,55,0.00,,---,0.02,VWS V13.01,2013-02-14 04:35:00,
2013-02-13 21:36:00,33.8,19.8,30.14,NNE,18,0.0,3.0,56,0.00,,---,0.02,VWS V13.01,2013-02-14 04:36:00,
2013-02-13 21:37:00,33.8,19.4,30.14,NNE,18,0.0,3.0,55,0.00,,---,0.02,VWS V13.01,2013-02-14 04:37:00,
2013-02-13 21:38:00,33.7,19.3,30.14,NNE,18,0.0,3.0,55,0.00,,---,0.02,VWS V13.01,2013-02-14 04:38:00,
2013-02-13 21:39:00,33.7,19.7,30.14,NNE,18,0.0,3.0,56,0.00,,---,0.02,VWS V13.01,2013-02-14 04:39:00,
2013-02-13 21:40:00,33.7,19.7,30.14,NNE,18,0.0,3.0,56,0.00,,---,0.02,VWS V13.01,2013-02-14 04:40:00,
2013-02-13 21:41:00,33.5,19.9,30.14,NNE,18,1.0,1.0,57,0.00,,---,0.02,VWS V13.01,2013-02-14 04:41:00,
2013-02-13 21:42:00,33.5,20.3,30.14,NNE,18,0.0,1.0,58,0.00,,---,0.02,VWS V13.01,2013-02-14 04:42:00,
2013-02-13 21:43:00,33.5,19.9,30.14,NNE,18,0.0,1.0,57,0.00,,---,0.02,VWS V13.01,2013-02-14 04:43:00,
2013-02-13 21:44:00,33.5,20.3,30.15,ENE,69,0.0,3.0,58,0.00,,---,0.02,VWS V13.01,2013-02-14 04:44:00,
2013-02-13 21:45:00,33.4,19.8,30.15,ENE,69,0.0,3.0,57,0.00,,---,0.02,VWS V13.01,2013-02-14 04:45:00,
2013-02-13 21:46:00,33.4,19.4,30.15,ENE,69,0.0,0.0,56,0.00,,---,0.02,VWS V13.01,2013-02-14 04:46:00,
2013-02-13 21:47:00,33.4,19.4,30.15,ENE,69,0.0,0.0,56,0.00,,---,0.02,VWS V13.01,2013-02-14 04:47:00,
2013-02-13 21:48:00,33.4,19.8,30.15,ENE,69,0.0,0.0,57,0.00,,---,0.02,VWS V13.01,2013-02-14 04:48:00,
2013-02-13 21:49:00,33.4,19.4,30.15,ENE,69,0.0,3.0,56,0.00,,---,0.02,VWS V13.01,2013-02-14 04:49:00,
2013-02-13 21:50:00,33.2,19.6,30.15,ENE,65,1.0,3.0,57,0.00,,---,0.02,VWS V13.01,2013-02-14 04:50:00,
2013-02-13 21:51:00,33.2,19.6,30.15,WNW,284,5.0,8.0,57,0.00,,---,0.02,VWS V13.01,2013-02-14 04:51:00,
2013-02-13 21:52:00,33.2,19.2,30.15,North,5,4.0,8.0,56,0.00,,---,0.02,VWS V13.01,2013-02-14 04:52:00,
2013-02-13 21:53:00,33.2,19.2,30.15,WNW,294,0.0,8.0,56,0.00,,---,0.02,VWS V13.01,2013-02-14 04:53:00,
2013-02-13 21:54:00,33.2,19.2,30.15,NW,304,0.0,8.0,56,0.00,,---,0.02,VWS V13.01,2013-02-14 04:54:00,
2013-02-13 21:55:00,33.2,19.2,30.15,NW,304,0.0,8.0,56,0.00,,---,0.02,VWS V13.01,2013-02-14 04:55:00,
2013-02-13 21:56:00,33.2,19.6,30.15,North,355,0.0,1.0,57,0.00,,---,0.02,VWS V13.01,2013-02-14 04:56:00,
2013-02-13 21:57:00,33.2,19.2,30.15,NE,43,0.0,2.0,56,0.00,,---,0.02,VWS V13.01,2013-02-14 04:57:00,
2013-02-13 21:58:00,33.2,19.6,30.15,NNE,15,3.0,5.0,57,0.00,,---,0.02,VWS V13.01,2013-02-14 04:58:00,
2013-02-13 21:59:00,33.2,19.2,30.15,WSW,252,0.0,5.0,56,0.00,,---,0.02,VWS V13.01,2013-02-14 04:59:00,
2013-02-13 22:00:00,33.2,18.8,30.15,NNE,29,1.0,5.0,55,0.00,,---,0.02,VWS V13.01,2013-02-14 05:00:00,
2013-02-13 22:01:00,33.2,18.8,30.15,NNE,33,3.0,7.0,55,0.00,,---,0.02,VWS V13.01,2013-02-14 05:01:00,
2013-02-13 22:02:00,33.2,19.6,30.15,ENE,78,1.0,7.0,57,0.00,,---,0.02,VWS V13.01,2013-02-14 05:02:00,
2013-02-13 22:03:00,33.2,19.2,30.15,WSW,240,1.0,7.0,56,0.00,,---,0.02,VWS V13.01,2013-02-14 05:03:00,
2013-02-13 22:04:00,33.2,18.8,30.15,ENE,78,2.0,7.0,55,0.00,,---,0.02,VWS V13.01,2013-02-14 05:04:00,
2013-02-13 22:05:00,33.2,19.6,30.15,ENE,78,0.0,7.0,57,0.00,,---,0.02,VWS V13.01,2013-02-14 05:05:00,
2013-02-13 22:06:00,33.2,19.2,30.15,NW,316,0.0,2.0,56,0.00,,---,0.02,VWS V13.01,2013-02-14 05:06:00,
2013-02-13 22:07:00,33.2,19.6,30.15,North,5,0.0,4.0,57,0.00,,---,0.02,VWS V13.01,2013-02-14 05:07:00,
2013-02-13 22:08:00,33.2,18.8,30.15,West,267,0.0,7.0,55,0.00,,---,0.02,VWS V13.01,2013-02-14 05:08:00,
2013-02-13 22:09:00,33.2,19.2,30.15,West,269,0.0,7.0,56,0.00,,---,0.02,VWS V13.01,2013-02-14 05:09:00,
2013-02-13 22:10:00,33.2,19.6,30.15,West,269,0.0,7.0,57,0.00,,---,0.02,VWS V13.01,2013-02-14 05:10:00,
2013-02-13 22:11:00,33.2,19.2,30.15,NNE,29,3.0,3.0,56,0.00,,---,0.02,VWS V13.01,2013-02-14 05:11:00,
2013-02-13 22:12:00,33.2,19.2,30.15,NNE,29,0.0,3.0,56,0.00,,---,0.02,VWS V13.01,2013-02-14 05:12:00,
2013-02-13 22:13:00,33.2,19.2,30.15,SSE,167,1.0,5.0,56,0.00,,---,0.02,VWS V13.01,2013-02-14 05:13:00,
2013-02-13 22:14:00,33.2,18.8,30.15,South,179,0.0,5.0,55,0.00,,---,0.02,VWS V13.01,2013-02-14 05:14:00,
2013-02-13 22:15:00,33.2,19.6,30.16,SE,129,0.0,5.0,57,0.00,,---,0.02,VWS V13.01,2013-02-14 05:15:00,
2013-02-13 22:16:00,33.2,18.8,30.16,WSW,254,0.0,4.0,55,0.00,,---,0.02,VWS V13.01,2013-02-14 05:16:00,
2013-02-13 22:17:00,33.2,19.2,30.16,NE,53,0.0,4.0,56,0.00,,---,0.02,VWS V13.01,2013-02-14 05:17:00,
2013-02-13 22:18:00,33.2,19.2,30.16,NNW,344,6.0,9.0,56,0.00,,---,0.02,VWS V13.01,2013-02-14 05:18:00,
2013-02-13 22:19:00,33.1,18.7,30.16,SW,222,2.0,9.0,55,0.00,,---,0.02,VWS V13.01,2013-02-14 05:19:00,
2013-02-13 22:20:00,33.1,18.7,30.16,WSW,246,0.0,9.0,55,0.00,,---,0.02,VWS V13.01,2013-02-14 05:20:00,
2013-02-13 22:21:00,33.1,18.7,30.16,WSW,246,0.0,0.0,55,0.00,,---,0.02,VWS V13.01,2013-02-14 05:21:00,
2013-02-13 22:22:00,33.1,19.1,30.16,WSW,246,0.0,0.0,56,0.00,,---,0.02,VWS V13.01,2013-02-14 05:22:00,
2013-02-13 22:23:00,33.1,19.1,30.16,SW,228,2.0,5.0,56,0.00,,---,0.02,VWS V13.01,2013-02-14 05:23:00,
2013-02-13 22:24:00,33.1,18.7,30.16,NNE,19,0.0,5.0,55,0.00,,---,0.02,VWS V13.01,2013-02-14 05:24:00,
2013-02-13 22:25:00,33.1,19.1,30.16,NNE,19,0.0,5.0,56,0.00,,---,0.02,VWS V13.01,2013-02-14 05:25:00,
2013-02-13 22:26:00,33.1,19.5,30.16,NE,44,0.0,2.0,57,0.00,,---,0.02,VWS V13.01,2013-02-14 05:26:00,
2013-02-13 22:27:00,33.1,19.5,30.16,NE,44,0.0,2.0,57,0.00,,---,0.02,VWS V13.01,2013-02-14 05:27:00,
2013-02-13 22:28:00,33.1,19.9,30.16,NE,44,0.0,2.0,58,0.00,,---,0.02,VWS V13.01,2013-02-14 05:28:00,
2013-02-13 22:29:00,33.1,19.9,30.16,North,5,0.0,2.0,58,0.00,,---,0.02,VWS V13.01,2013-02-14 05:29:00,
2013-02-13 22:30:00,32.9,19.4,30.16,North,5,0.0,2.0,57,0.00,,---,0.02,VWS V13.01,2013-02-14 05:30:00,
2013-02-13 22:31:00,32.9,19.4,30.16,SE,129,0.0,5.0,57,0.00,,---,0.02,VWS V13.01,2013-02-14 05:31:00,
2013-02-13 22:32:00,32.9,18.9,30.16,North,5,0.0,5.0,56,0.00,,---,0.02,VWS V13.01,2013-02-14 05:32:00,
2013-02-13 22:33:00,32.9,19.4,30.16,WNW,294,1.0,5.0,57,0.00,,---,0.02,VWS V13.01,2013-02-14 05:33:00,
2013-02-13 22:34:00,32.9,18.9,30.16,NNW,343,0.0,5.0,56,0.00,,---,0.02,VWS V13.01,2013-02-14 05:34:00,
2013-02-13 22:35:00,32.9,18.9,30.16,SW,229,5.0,5.0,56,0.00,,---,0.02,VWS V13.01,2013-02-14 05:35:00,
2013-02-13 22:36:00,32.9,19.4,30.16,NW,325,4.0,6.0,57,0.00,,---,0.02,VWS V13.01,2013-02-14 05:36:00,
2013-02-13 22:37:00,32.9,18.9,30.16,NE,37,2.0,6.0,56,0.00,,---,0.02,VWS V13.01,2013-02-14 05:37:00,
2013-02-13 22:38:00,32.9,19.4,30.16,NE,36,0.0,6.0,57,0.00,,---,0.02,VWS V13.01,2013-02-14 05:38:00,
2013-02-13 22:39:00,32.9,19.4,30.16,North,350,3.0,6.0,57,0.00,,---,0.02,VWS V13.01,2013-02-14 05:39:00,
2013-02-13 22:40:00,32.8,19.3,30.16,WNW,300,2.0,9.0,57,0.00,,---,0.02,VWS V13.01,2013-02-14 05:40:00,
2013-02-13 22:41:00,32.8,18.8,30.16,WNW,300,0.0,2.0,56,0.00,,---,0.02,VWS V13.01,2013-02-14 05:41:00,
2013-02-13 22:42:00,32.8,18.8,30.16,WNW,300,0.0,2.0,56,0.00,,---,0.02,VWS V13.01,2013-02-14 05:42:00,
2013-02-13 22:43:00,32.8,19.3,30.16,SSW,207,1.0,3.0,57,0.00,,---,0.02,VWS V13.01,2013-02-14 05:43:00,
2013-02-13 22:44:00,32.8,18.8,30.16,SSW,207,0.0,3.0,56,0.00,,---,0.02,VWS V13.01,2013-02-14 05:44:00,
2013-02-13 22:45:00,32.8,18.8,30.16,SSW,207,0.0,3.0,56,0.00,,---,0.02,VWS V13.01,2013-02-14 05:45:00,
2013-02-13 22:46:00,32.8,19.3,30.16,ESE,118,0.0,4.0,57,0.00,,---,0.02,VWS V13.01,2013-02-14 05:46:00,
2013-02-13 22:47:00,32.8,19.3,30.16,NNE,26,3.0,4.0,57,0.00,,---,0.02,VWS V13.01,2013-02-14 05:47:00,
2013-02-13 22:48:00,32.8,18.8,30.16,ESE,113,4.0,6.0,56,0.00,,---,0.02,VWS V13.01,2013-02-14 05:48:00,
2013-02-13 22:49:00,32.8,18.8,30.16,ENE,57,0.0,6.0,56,0.00,,---,0.02,VWS V13.01,2013-02-14 05:49:00,
2013-02-13 22:50:00,32.8,19.3,30.16,ENE,57,0.0,6.0,57,0.00,,---,0.02,VWS V13.01,2013-02-14 05:50:00,
2013-02-13 22:51:00,32.7,19.2,30.16,NE,40,2.0,5.0,57,0.00,,---,0.02,VWS V13.01,2013-02-14 05:51:00,
2013-02-13 22:52:00,32.7,19.2,30.16,NNW,345,1.0,5.0,57,0.00,,---,0.02,VWS V13.01,2013-02-14 05:52:00,
2013-02-13 22:53:00,32.7,19.2,30.16,North,10,1.0,5.0,57,0.00,,---,0.02,VWS V13.01,2013-02-14 05:53:00,
2013-02-13 22:54:00,32.7,19.2,30.16,North,11,1.0,5.0,57,0.00,,---,0.02,VWS V13.01,2013-02-14 05:54:00,
2013-02-13 22:55:00,32.7,18.8,30.16,NNE,26,0.0,5.0,56,0.00,,---,0.02,VWS V13.01,2013-02-14 05:55:00,
2013-02-13 22:56:00,32.7,19.2,30.16,WNW,294,3.0,6.0,57,0.00,,---,0.02,VWS V13.01,2013-02-14 05:56:00,
2013-02-13 22:57:00,32.5,19.0,30.16,NW,309,0.0,6.0,57,0.00,,---,0.02,VWS V13.01,2013-02-14 05:57:00,
2013-02-13 22:58:00,32.5,18.6,30.16,East,82,0.0,6.0,56,0.00,,---,0.02,VWS V13.01,2013-02-14 05:58:00,
2013-02-13 22:59:00,32.5,19.4,30.16,NNW,346,1.0,7.0,58,0.00,,---,0.02,VWS V13.01,2013-02-14 05:59:00,
2013-02-13 23:00:00,32.5,19.4,30.16,NE,34,2.0,7.0,58,0.00,,---,0.02,VWS V13.01,2013-02-14 06:00:00,
2013-02-13 23:01:00,32.5,19.0,30.16,North,11,0.0,5.0,57,0.00,,---,0.02,VWS V13.01,2013-02-14 06:01:00,
2013-02-13 23:02:00,32.5,18.6,30.16,NNW,346,3.0,5.0,56,0.00,,---,0.02,VWS V13.01,2013-02-14 06:02:00,
2013-02-13 23:03:00,32.5,19.0,30.16,ENE,78,0.0,5.0,57,0.00,,---,0.02,VWS V13.01,2013-02-14 06:03:00,
2013-02-13 23:04:00,32.5,19.0,30.16,ENE,78,0.0,5.0,57,0.00,,---,0.02,VWS V13.01,2013-02-14 06:04:00,
2013-02-13 23:05:00,32.5,19.4,30.16,NNE,20,0.0,5.0,58,0.00,,---,0.02,VWS V13.01,2013-02-14 06:05:00,
2013-02-13 23:06:00,32.4,18.9,30.16,North,349,3.0,3.0,57,0.00,,---,0.02,VWS V13.01,2013-02-14 06:06:00,
2013-02-13 23:07:00,32.4,18.9,30.16,NE,47,5.0,5.0,57,0.00,,---,0.02,VWS V13.01,2013-02-14 06:07:00,
2013-02-13 23:08:00,32.4,19.3,30.16,WNW,297,2.0,7.0,58,0.00,,---,0.02,VWS V13.01,2013-02-14 06:08:00,
2013-02-13 23:09:00,32.4,19.3,30.16,NW,312,3.0,7.0,58,0.00,,---,0.02,VWS V13.01,2013-02-14 06:09:00,
2013-02-13 23:10:00,32.4,18.9,30.16,WNW,300,0.0,7.0,57,0.00,,---,0.02,VWS V13.01,2013-02-14 06:10:00,
2013-02-13 23:11:00,32.4,18.5,30.16,WNW,288,0.0,4.0,56,0.00,,---,0.02,VWS V13.01,2013-02-14 06:11:00,
2013-02-13 23:12:00,32.4,18.9,30.16,WNW,293,0.0,4.0,57,0.00,,---,0.02,VWS V13.01,2013-02-14 06:12:00,
2013-02-13 23:13:00,32.4,18.9,30.16,ENE,77,0.0,4.0,57,0.00,,---,0.02,VWS V13.01,2013-02-14 06:13:00,
2013-02-13 23:14:00,32.4,18.9,30.18,SSE,160,1.0,5.0,57,0.00,,---,0.02,VWS V13.01,2013-02-14 06:14:00,
2013-02-13 23:15:00,32.4,18.9,30.18,East,79,0.0,5.0,57,0.00,,---,0.02,VWS V13.01,2013-02-14 06:15:00,
2013-02-13 23:16:00,32.4,19.3,30.18,WSW,245,2.0,11.0,58,0.00,,---,0.02,VWS V13.01,2013-02-14 06:16:00,
2013-02-13 23:17:00,32.4,19.3,30.18,North,5,1.0,11.0,58,0.00,,---,0.02,VWS V13.01,2013-02-14 06:17:00,
2013-02-13 23:18:00,32.4,18.9,30.18,North,5,0.0,11.0,57,0.00,,---,0.02,VWS V13.01,2013-02-14 06:18:00,
2013-02-13 23:19:00,32.4,19.3,30.18,North,5,0.0,11.0,58,0.00,,---,0.02,VWS V13.01,2013-02-14 06:19:00,
2013-02-13 23:20:00,32.4,19.3,30.18,North,5,0.0,11.0,58,0.00,,---,0.02,VWS V13.01,2013-02-14 06:20:00,
2013-02-13 23:21:00,32.4,19.3,30.18,NE,40,2.0,7.0,58,0.00,,---,0.02,VWS V13.01,2013-02-14 06:21:00,
2013-02-13 23:22:00,32.4,19.3,30.18,West,263,2.0,7.0,58,0.00,,---,0.02,VWS V13.01,2013-02-14 06:22:00,
2013-02-13 23:23:00,32.2,19.1,30.18,NE,51,0.0,7.0,58,0.00,,---,0.02,VWS V13.01,2013-02-14 06:23:00,
2013-02-13 23:24:00,32.2,19.1,30.18,West,279,5.0,7.0,58,0.00,,---,0.02,VWS V13.01,2013-02-14 06:24:00,
2013-02-13 23:25:00,32.2,18.7,30.18,West,275,0.0,10.0,57,0.00,,---,0.02,VWS V13.01,2013-02-14 06:25:00,
2013-02-13 23:26:00,32.2,18.7,30.18,NNE,23,1.0,1.0,57,0.00,,---,0.02,VWS V13.01,2013-02-14 06:26:00,
2013-02-13 23:27:00,32.2,19.1,30.18,North,355,1.0,4.0,58,0.00,,---,0.02,VWS V13.01,2013-02-14 06:27:00,
2013-02-13 23:28:00,32.2,19.1,30.18,North,350,0.0,4.0,58,0.00,,---,0.02,VWS V13.01,2013-02-14 06:28:00,
2013-02-13 23:29:00,32.2,18.7,30.18,North,5,0.0,4.0,57,0.00,,---,0.02,VWS V13.01,2013-02-14 06:29:00,
2013-02-13 23:30:00,32.2,18.7,30.19,North,5,0.0,4.0,57,0.00,,---,0.02,VWS V13.01,2013-02-14 06:30:00,
2013-02-13 23:31:00,32.2,19.1,30.19,WNW,299,3.0,6.0,58,0.00,,---,0.02,VWS V13.01,2013-02-14 06:31:00,
2013-02-13 23:32:00,32.2,18.7,30.19,ENE,57,0.0,6.0,57,0.00,,---,0.02,VWS V13.01,2013-02-14 06:32:00,
2013-02-13 23:33:00,32.2,19.1,30.19,NE,36,2.0,6.0,58,0.00,,---,0.02,VWS V13.01,2013-02-14 06:33:00,
2013-02-13 23:34:00,32.2,19.1,30.19,East,84,8.0,9.0,58,0.00,,---,0.02,VWS V13.01,2013-02-14 06:34:00,
2013-02-13 23:35:00,32.2,19.1,30.19,North,355,2.0,9.0,58,0.00,,---,0.02,VWS V13.01,2013-02-14 06:35:00,
2013-02-13 23:36:00,32.4,19.3,30.19,NE,48,1.0,6.0,58,0.00,,---,0.02,VWS V13.01,2013-02-14 06:36:00,
2013-02-13 23:37:00,32.4,19.7,30.19,NE,34,0.0,6.0,59,0.00,,---,0.02,VWS V13.01,2013-02-14 06:37:00,
2013-02-13 23:38:00,32.4,19.7,30.19,NNE,12,2.0,6.0,59,0.00,,---,0.02,VWS V13.01,2013-02-14 06:38:00,
2013-02-13 23:39:00,32.4,19.7,30.19,NNE,22,0.0,6.0,59,0.00,,---,0.02,VWS V13.01,2013-02-14 06:39:00,
2013-02-13 23:40:00,32.4,19.7,30.19,NNE,19,6.0,6.0,59,0.00,,---,0.02,VWS V13.01,2013-02-14 06:40:00,
2013-02-13 23:41:00,32.4,19.3,30.19,East,89,0.0,12.0,58,0.00,,---,0.02,VWS V13.01,2013-02-14 06:41:00,
2013-02-13 23:42:00,32.4,19.7,30.19,East,89,0.0,12.0,59,0.00,,---,0.02,VWS V13.01,2013-02-14 06:42:00,
2013-02-13 23:43:00,32.4,19.7,30.19,NE,45,2.0,12.0,59,0.00,,---,0.02,VWS V13.01,2013-02-14 06:43:00,
2013-02-13 23:44:00,32.4,19.7,30.20,North,10,2.0,12.0,59,0.00,,---,0.02,VWS V13.01,2013-02-14 06:44:00,
2013-02-13 23:45:00,32.4,19.7,30.20,NNW,345,2.0,12.0,59,0.00,,---,0.02,VWS V13.01,2013-02-14 06:45:00,
2013-02-13 23:46:00,32.4,19.7,30.20,North,355,0.0,2.0,59,0.00,,---,0.02,VWS V13.01,2013-02-14 06:46:00,
2013-02-13 23:47:00,32.4,19.7,30.20,WSW,252,0.0,4.0,59,0.00,,---,0.02,VWS V13.01,2013-02-14 06:47:00,
2013-02-13 23:48:00,32.4,19.7,30.20,West,265,1.0,4.0,59,0.00,,---,0.02,VWS V13.01,2013-02-14 06:48:00,
2013-02-13 23:49:00,32.4,20.1,30.20,SW,227,0.0,4.0,60,0.00,,---,0.02,VWS V13.01,2013-02-14 06:49:00,
2013-02-13 23:50:00,32.4,20.1,30.20,SW,228,0.0,5.0,60,0.00,,---,0.02,VWS V13.01,2013-02-14 06:50:00,
2013-02-13 23:51:00,32.2,20.3,30.20,SW,232,1.0,1.0,61,0.00,,---,0.02,VWS V13.01,2013-02-14 06:51:00,
2013-02-13 23:52:00,32.2,20.3,30.20,WNW,296,0.0,5.0,61,0.00,,---,0.02,VWS V13.01,2013-02-14 06:52:00,
2013-02-13 23:53:00,32.2,20.7,30.20,WNW,294,0.0,5.0,62,0.00,,---,0.02,VWS V13.01,2013-02-14 06:53:00,
2013-02-13 23:54:00,32.1,20.9,30.20,WNW,294,0.0,5.0,63,0.00,,---,0.02,VWS V13.01,2013-02-14 06:54:00,
2013-02-13 23:55:00,32.1,21.3,30.20,WSW,257,3.0,5.0,64,0.00,,---,0.02,VWS V13.01,2013-02-14 06:55:00,
2013-02-13 23:56:00,31.9,21.1,30.20,West,270,0.0,4.0,64,0.00,,---,0.02,VWS V13.01,2013-02-14 06:56:00,
2013-02-13 23:57:00,31.8,21.0,30.20,SSW,206,0.0,4.0,64,0.00,,---,0.02,VWS V13.01,2013-02-14 06:57:00,
2013-02-13 23:58:00,31.6,20.8,30.20,SSW,206,0.0,4.0,64,0.00,,---,0.02,VWS V13.01,2013-02-14 06:58:00,
2013-02-13 23:59:00,31.5,21.1,30.22,WSW,253,2.0,4.0,65,0.00,,---,0.02,VWS V13.01,2013-02-14 06:59:00,